﻿<?xml version="1.0" encoding="UTF-8" standalone="no" ?>
<gpx xmlns="http://www.topografix.com/GPX/1/1" creator="CompeGPS" version="1.1" xmlns:xsi="http://www.w3.org/2001/XMLSchema-instance" xsi:schemaLocation="http://www.topografix.com/GPX/1/1 http://www.topografix.com/GPX/1/1/gpx.xsd http://www.garmin.com/xmlschemas/GpxExtensions/v3 http://www.garmin.com/xmlschemas/GpxExtensionsv3.xsd http://www.garmin.com/xmlschemas/TrackPointExtension/v1 http://www.garmin.com/xmlschemas/TrackPointExtensionv1.xsd" xmlns:gpxtpx="http://www.garmin.com/xmlschemas/TrackPointExtension/v1">
  <metadata>
    <author>
      <email id="" domain=""/>
    </author>
    <copyright author="">
      <license></license>
    </copyright>
    <link href="http://www.compegps.com">
      <text>CompeGPS TEAM, SL</text>
    </link>
    <time>2019-06-01T09:03:43Z</time>
    <bounds maxlat="42.137943" maxlon="1.592317" minlat="42.113058" minlon="1.570231"/>
  </metadata>
  <trk>
    <name>Track_RUTA SANTUARI-TOSSAL DE VALLONGA I CINGLES</name>
    <trkseg>
      <trkpt lat="42.136010" lon="1.592304">
        <ele>896.6</ele>
        <time>2019-06-01T05:35:56Z</time>
      </trkpt>
      <trkpt lat="42.136012" lon="1.592300">
        <ele>900.4</ele>
        <time>2019-06-01T05:36:03Z</time>
      </trkpt>
      <trkpt lat="42.136020" lon="1.592296">
        <ele>904.3</ele>
        <time>2019-06-01T05:36:13Z</time>
      </trkpt>
      <trkpt lat="42.136023" lon="1.592301">
        <ele>907.6</ele>
        <time>2019-06-01T05:36:31Z</time>
      </trkpt>
      <trkpt lat="42.136032" lon="1.592282">
        <ele>908.6</ele>
        <time>2019-06-01T05:36:40Z</time>
      </trkpt>
      <trkpt lat="42.136078" lon="1.592060">
        <ele>911.0</ele>
        <time>2019-06-01T05:36:53Z</time>
      </trkpt>
      <trkpt lat="42.136203" lon="1.591875">
        <ele>912.0</ele>
        <time>2019-06-01T05:37:07Z</time>
      </trkpt>
      <trkpt lat="42.136327" lon="1.591705">
        <ele>913.4</ele>
        <time>2019-06-01T05:37:21Z</time>
      </trkpt>
      <trkpt lat="42.136415" lon="1.591590">
        <ele>914.8</ele>
        <time>2019-06-01T05:37:31Z</time>
      </trkpt>
      <trkpt lat="42.136448" lon="1.591552">
        <ele>915.3</ele>
        <time>2019-06-01T05:37:35Z</time>
      </trkpt>
      <trkpt lat="42.136479" lon="1.591522">
        <ele>915.3</ele>
        <time>2019-06-01T05:37:38Z</time>
      </trkpt>
      <trkpt lat="42.136510" lon="1.591475">
        <ele>915.8</ele>
        <time>2019-06-01T05:37:43Z</time>
      </trkpt>
      <trkpt lat="42.136532" lon="1.591399">
        <ele>916.7</ele>
        <time>2019-06-01T05:37:50Z</time>
      </trkpt>
      <trkpt lat="42.136668" lon="1.591225">
        <ele>918.7</ele>
        <time>2019-06-01T05:38:05Z</time>
      </trkpt>
      <trkpt lat="42.136770" lon="1.591130">
        <ele>919.6</ele>
        <time>2019-06-01T05:38:14Z</time>
      </trkpt>
      <trkpt lat="42.136788" lon="1.591040">
        <ele>920.1</ele>
        <time>2019-06-01T05:38:19Z</time>
      </trkpt>
      <trkpt lat="42.136869" lon="1.590967">
        <ele>921.6</ele>
        <time>2019-06-01T05:38:30Z</time>
      </trkpt>
      <trkpt lat="42.136899" lon="1.590921">
        <ele>922.5</ele>
        <time>2019-06-01T05:38:32Z</time>
      </trkpt>
      <trkpt lat="42.137059" lon="1.590776">
        <ele>924.0</ele>
        <time>2019-06-01T05:38:45Z</time>
      </trkpt>
      <trkpt lat="42.137161" lon="1.590708">
        <ele>924.9</ele>
        <time>2019-06-01T05:38:50Z</time>
      </trkpt>
      <trkpt lat="42.137222" lon="1.590665">
        <ele>925.9</ele>
        <time>2019-06-01T05:39:02Z</time>
      </trkpt>
      <trkpt lat="42.137234" lon="1.590688">
        <ele>925.9</ele>
        <time>2019-06-01T05:39:05Z</time>
      </trkpt>
      <trkpt lat="42.137257" lon="1.590725">
        <ele>926.4</ele>
        <time>2019-06-01T05:39:07Z</time>
      </trkpt>
      <trkpt lat="42.137359" lon="1.590767">
        <ele>926.8</ele>
        <time>2019-06-01T05:39:13Z</time>
      </trkpt>
      <trkpt lat="42.137522" lon="1.590777">
        <ele>927.3</ele>
        <time>2019-06-01T05:39:22Z</time>
      </trkpt>
      <trkpt lat="42.137758" lon="1.590788">
        <ele>928.3</ele>
        <time>2019-06-01T05:39:37Z</time>
      </trkpt>
      <trkpt lat="42.137902" lon="1.590696">
        <ele>928.3</ele>
        <time>2019-06-01T05:39:51Z</time>
      </trkpt>
      <trkpt lat="42.137909" lon="1.590692">
        <ele>928.3</ele>
        <time>2019-06-01T05:39:59Z</time>
      </trkpt>
      <trkpt lat="42.137921" lon="1.590540">
        <ele>929.2</ele>
        <time>2019-06-01T05:40:10Z</time>
      </trkpt>
      <trkpt lat="42.137938" lon="1.590487">
        <ele>929.7</ele>
        <time>2019-06-01T05:40:14Z</time>
      </trkpt>
      <trkpt lat="42.137943" lon="1.590428">
        <ele>930.2</ele>
        <time>2019-06-01T05:40:18Z</time>
      </trkpt>
      <trkpt lat="42.137855" lon="1.590203">
        <ele>931.7</ele>
        <time>2019-06-01T05:40:33Z</time>
      </trkpt>
      <trkpt lat="42.137815" lon="1.590103">
        <ele>932.1</ele>
        <time>2019-06-01T05:40:40Z</time>
      </trkpt>
      <trkpt lat="42.137776" lon="1.590042">
        <ele>932.6</ele>
        <time>2019-06-01T05:40:44Z</time>
      </trkpt>
      <trkpt lat="42.137709" lon="1.589935">
        <ele>933.1</ele>
        <time>2019-06-01T05:40:51Z</time>
      </trkpt>
      <trkpt lat="42.137674" lon="1.589898">
        <ele>933.1</ele>
        <time>2019-06-01T05:40:54Z</time>
      </trkpt>
      <trkpt lat="42.137589" lon="1.589760">
        <ele>934.1</ele>
        <time>2019-06-01T05:41:03Z</time>
      </trkpt>
      <trkpt lat="42.137564" lon="1.589730">
        <ele>933.6</ele>
        <time>2019-06-01T05:41:05Z</time>
      </trkpt>
      <trkpt lat="42.137537" lon="1.589711">
        <ele>934.1</ele>
        <time>2019-06-01T05:41:07Z</time>
      </trkpt>
      <trkpt lat="42.137512" lon="1.589656">
        <ele>934.1</ele>
        <time>2019-06-01T05:41:11Z</time>
      </trkpt>
      <trkpt lat="42.137430" lon="1.589520">
        <ele>935.0</ele>
        <time>2019-06-01T05:41:20Z</time>
      </trkpt>
      <trkpt lat="42.137377" lon="1.589350">
        <ele>935.0</ele>
        <time>2019-06-01T05:41:29Z</time>
      </trkpt>
      <trkpt lat="42.137265" lon="1.589172">
        <ele>936.0</ele>
        <time>2019-06-01T05:41:42Z</time>
      </trkpt>
      <trkpt lat="42.137210" lon="1.589111">
        <ele>936.5</ele>
        <time>2019-06-01T05:41:47Z</time>
      </trkpt>
      <trkpt lat="42.137179" lon="1.589077">
        <ele>936.5</ele>
        <time>2019-06-01T05:41:50Z</time>
      </trkpt>
      <trkpt lat="42.137109" lon="1.589007">
        <ele>936.9</ele>
        <time>2019-06-01T05:41:56Z</time>
      </trkpt>
      <trkpt lat="42.137082" lon="1.588936">
        <ele>936.9</ele>
        <time>2019-06-01T05:42:00Z</time>
      </trkpt>
      <trkpt lat="42.137057" lon="1.588898">
        <ele>936.9</ele>
        <time>2019-06-01T05:42:03Z</time>
      </trkpt>
      <trkpt lat="42.136896" lon="1.588686">
        <ele>937.9</ele>
        <time>2019-06-01T05:42:19Z</time>
      </trkpt>
      <trkpt lat="42.136735" lon="1.588489">
        <ele>938.9</ele>
        <time>2019-06-01T05:42:35Z</time>
      </trkpt>
      <trkpt lat="42.136706" lon="1.588457">
        <ele>939.3</ele>
        <time>2019-06-01T05:42:38Z</time>
      </trkpt>
      <trkpt lat="42.136676" lon="1.588424">
        <ele>939.3</ele>
        <time>2019-06-01T05:42:44Z</time>
      </trkpt>
      <trkpt lat="42.136656" lon="1.588399">
        <ele>939.8</ele>
        <time>2019-06-01T05:42:46Z</time>
      </trkpt>
      <trkpt lat="42.136500" lon="1.588269">
        <ele>940.3</ele>
        <time>2019-06-01T05:43:00Z</time>
      </trkpt>
      <trkpt lat="42.136391" lon="1.588079">
        <ele>941.3</ele>
        <time>2019-06-01T05:43:14Z</time>
      </trkpt>
      <trkpt lat="42.136372" lon="1.587891">
        <ele>942.7</ele>
        <time>2019-06-01T05:43:29Z</time>
      </trkpt>
      <trkpt lat="42.136377" lon="1.587878">
        <ele>942.7</ele>
        <time>2019-06-01T05:43:30Z</time>
      </trkpt>
      <trkpt lat="42.136440" lon="1.587637">
        <ele>944.2</ele>
        <time>2019-06-01T05:43:43Z</time>
      </trkpt>
      <trkpt lat="42.136516" lon="1.587331">
        <ele>946.1</ele>
        <time>2019-06-01T05:43:58Z</time>
      </trkpt>
      <trkpt lat="42.136589" lon="1.587144">
        <ele>947.5</ele>
        <time>2019-06-01T05:44:11Z</time>
      </trkpt>
      <trkpt lat="42.136631" lon="1.587028">
        <ele>948.0</ele>
        <time>2019-06-01T05:44:19Z</time>
      </trkpt>
      <trkpt lat="42.136650" lon="1.586911">
        <ele>949.0</ele>
        <time>2019-06-01T05:44:26Z</time>
      </trkpt>
      <trkpt lat="42.136707" lon="1.586664">
        <ele>950.9</ele>
        <time>2019-06-01T05:44:40Z</time>
      </trkpt>
      <trkpt lat="42.136747" lon="1.586435">
        <ele>953.3</ele>
        <time>2019-06-01T05:44:54Z</time>
      </trkpt>
      <trkpt lat="42.136796" lon="1.586216">
        <ele>955.2</ele>
        <time>2019-06-01T05:45:08Z</time>
      </trkpt>
      <trkpt lat="42.136799" lon="1.586200">
        <ele>954.7</ele>
        <time>2019-06-01T05:45:09Z</time>
      </trkpt>
      <trkpt lat="42.136796" lon="1.586165">
        <ele>955.2</ele>
        <time>2019-06-01T05:45:11Z</time>
      </trkpt>
      <trkpt lat="42.136818" lon="1.586083">
        <ele>955.7</ele>
        <time>2019-06-01T05:45:17Z</time>
      </trkpt>
      <trkpt lat="42.136801" lon="1.586022">
        <ele>956.2</ele>
        <time>2019-06-01T05:45:21Z</time>
      </trkpt>
      <trkpt lat="42.136786" lon="1.585988">
        <ele>956.7</ele>
        <time>2019-06-01T05:45:24Z</time>
      </trkpt>
      <trkpt lat="42.136738" lon="1.585933">
        <ele>957.1</ele>
        <time>2019-06-01T05:45:31Z</time>
      </trkpt>
      <trkpt lat="42.136522" lon="1.585867">
        <ele>957.6</ele>
        <time>2019-06-01T05:45:47Z</time>
      </trkpt>
      <trkpt lat="42.136354" lon="1.585799">
        <ele>957.6</ele>
        <time>2019-06-01T05:45:59Z</time>
      </trkpt>
      <trkpt lat="42.136137" lon="1.585719">
        <ele>957.6</ele>
        <time>2019-06-01T05:46:14Z</time>
      </trkpt>
      <trkpt lat="42.136030" lon="1.585677">
        <ele>956.7</ele>
        <time>2019-06-01T05:46:24Z</time>
      </trkpt>
      <trkpt lat="42.136009" lon="1.585666">
        <ele>956.2</ele>
        <time>2019-06-01T05:46:53Z</time>
      </trkpt>
      <trkpt lat="42.136011" lon="1.585676">
        <ele>957.6</ele>
        <time>2019-06-01T05:47:17Z</time>
      </trkpt>
      <trkpt lat="42.136010" lon="1.585679">
        <ele>956.7</ele>
        <time>2019-06-01T05:47:41Z</time>
      </trkpt>
      <trkpt lat="42.135975" lon="1.585634">
        <ele>957.6</ele>
        <time>2019-06-01T05:47:46Z</time>
      </trkpt>
      <trkpt lat="42.135841" lon="1.585587">
        <ele>958.1</ele>
        <time>2019-06-01T05:47:58Z</time>
      </trkpt>
      <trkpt lat="42.135829" lon="1.585589">
        <ele>958.1</ele>
        <time>2019-06-01T05:47:59Z</time>
      </trkpt>
      <trkpt lat="42.135614" lon="1.585503">
        <ele>958.6</ele>
        <time>2019-06-01T05:48:15Z</time>
      </trkpt>
      <trkpt lat="42.135524" lon="1.585368">
        <ele>959.5</ele>
        <time>2019-06-01T05:48:25Z</time>
      </trkpt>
      <trkpt lat="42.135532" lon="1.585212">
        <ele>960.5</ele>
        <time>2019-06-01T05:48:34Z</time>
      </trkpt>
      <trkpt lat="42.135561" lon="1.585027">
        <ele>962.4</ele>
        <time>2019-06-01T05:48:45Z</time>
      </trkpt>
      <trkpt lat="42.135589" lon="1.584956">
        <ele>962.9</ele>
        <time>2019-06-01T05:48:50Z</time>
      </trkpt>
      <trkpt lat="42.135652" lon="1.584760">
        <ele>964.3</ele>
        <time>2019-06-01T05:49:03Z</time>
      </trkpt>
      <trkpt lat="42.135745" lon="1.584565">
        <ele>965.8</ele>
        <time>2019-06-01T05:49:17Z</time>
      </trkpt>
      <trkpt lat="42.135817" lon="1.584342">
        <ele>967.7</ele>
        <time>2019-06-01T05:49:31Z</time>
      </trkpt>
      <trkpt lat="42.135884" lon="1.584184">
        <ele>968.7</ele>
        <time>2019-06-01T05:49:41Z</time>
      </trkpt>
      <trkpt lat="42.135898" lon="1.584106">
        <ele>969.6</ele>
        <time>2019-06-01T05:49:46Z</time>
      </trkpt>
      <trkpt lat="42.135922" lon="1.584018">
        <ele>970.1</ele>
        <time>2019-06-01T05:49:51Z</time>
      </trkpt>
      <trkpt lat="42.135964" lon="1.583874">
        <ele>971.1</ele>
        <time>2019-06-01T05:49:59Z</time>
      </trkpt>
      <trkpt lat="42.135983" lon="1.583830">
        <ele>971.5</ele>
        <time>2019-06-01T05:50:02Z</time>
      </trkpt>
      <trkpt lat="42.136016" lon="1.583682">
        <ele>972.5</ele>
        <time>2019-06-01T05:50:11Z</time>
      </trkpt>
      <trkpt lat="42.136028" lon="1.583599">
        <ele>973.0</ele>
        <time>2019-06-01T05:50:16Z</time>
      </trkpt>
      <trkpt lat="42.136036" lon="1.583469">
        <ele>974.4</ele>
        <time>2019-06-01T05:50:24Z</time>
      </trkpt>
      <trkpt lat="42.136048" lon="1.583394">
        <ele>974.9</ele>
        <time>2019-06-01T05:50:28Z</time>
      </trkpt>
      <trkpt lat="42.136078" lon="1.583169">
        <ele>976.8</ele>
        <time>2019-06-01T05:50:41Z</time>
      </trkpt>
      <trkpt lat="42.136117" lon="1.582961">
        <ele>978.3</ele>
        <time>2019-06-01T05:50:53Z</time>
      </trkpt>
      <trkpt lat="42.136140" lon="1.582761">
        <ele>979.7</ele>
        <time>2019-06-01T05:51:04Z</time>
      </trkpt>
      <trkpt lat="42.136158" lon="1.582528">
        <ele>982.1</ele>
        <time>2019-06-01T05:51:18Z</time>
      </trkpt>
      <trkpt lat="42.136182" lon="1.582349">
        <ele>983.6</ele>
        <time>2019-06-01T05:51:29Z</time>
      </trkpt>
      <trkpt lat="42.136195" lon="1.582171">
        <ele>985.5</ele>
        <time>2019-06-01T05:51:40Z</time>
      </trkpt>
      <trkpt lat="42.136194" lon="1.582155">
        <ele>985.5</ele>
        <time>2019-06-01T05:51:41Z</time>
      </trkpt>
      <trkpt lat="42.136227" lon="1.582036">
        <ele>986.9</ele>
        <time>2019-06-01T05:51:49Z</time>
      </trkpt>
      <trkpt lat="42.136256" lon="1.581967">
        <ele>987.9</ele>
        <time>2019-06-01T05:51:54Z</time>
      </trkpt>
      <trkpt lat="42.136284" lon="1.581849">
        <ele>988.8</ele>
        <time>2019-06-01T05:52:02Z</time>
      </trkpt>
      <trkpt lat="42.136296" lon="1.581623">
        <ele>990.3</ele>
        <time>2019-06-01T05:52:16Z</time>
      </trkpt>
      <trkpt lat="42.136301" lon="1.581609">
        <ele>990.8</ele>
        <time>2019-06-01T05:52:28Z</time>
      </trkpt>
      <trkpt lat="42.136282" lon="1.581578">
        <ele>990.8</ele>
        <time>2019-06-01T05:52:31Z</time>
      </trkpt>
      <trkpt lat="42.136215" lon="1.581412">
        <ele>990.8</ele>
        <time>2019-06-01T05:52:42Z</time>
      </trkpt>
      <trkpt lat="42.136125" lon="1.581166">
        <ele>992.2</ele>
        <time>2019-06-01T05:52:56Z</time>
      </trkpt>
      <trkpt lat="42.136083" lon="1.581031">
        <ele>992.7</ele>
        <time>2019-06-01T05:53:04Z</time>
      </trkpt>
      <trkpt lat="42.136073" lon="1.580992">
        <ele>992.2</ele>
        <time>2019-06-01T05:53:06Z</time>
      </trkpt>
      <trkpt lat="42.136055" lon="1.580849">
        <ele>992.7</ele>
        <time>2019-06-01T05:53:13Z</time>
      </trkpt>
      <trkpt lat="42.136059" lon="1.580777">
        <ele>993.7</ele>
        <time>2019-06-01T05:53:17Z</time>
      </trkpt>
      <trkpt lat="42.136062" lon="1.580680">
        <ele>994.1</ele>
        <time>2019-06-01T05:53:22Z</time>
      </trkpt>
      <trkpt lat="42.136083" lon="1.580600">
        <ele>995.1</ele>
        <time>2019-06-01T05:53:27Z</time>
      </trkpt>
      <trkpt lat="42.136101" lon="1.580551">
        <ele>996.1</ele>
        <time>2019-06-01T05:53:33Z</time>
      </trkpt>
      <trkpt lat="42.136085" lon="1.580493">
        <ele>996.5</ele>
        <time>2019-06-01T05:53:38Z</time>
      </trkpt>
      <trkpt lat="42.136061" lon="1.580409">
        <ele>997.0</ele>
        <time>2019-06-01T05:53:42Z</time>
      </trkpt>
      <trkpt lat="42.136055" lon="1.580372">
        <ele>997.0</ele>
        <time>2019-06-01T05:53:45Z</time>
      </trkpt>
      <trkpt lat="42.136028" lon="1.580288">
        <ele>997.0</ele>
        <time>2019-06-01T05:53:50Z</time>
      </trkpt>
      <trkpt lat="42.135984" lon="1.580118">
        <ele>997.5</ele>
        <time>2019-06-01T05:54:00Z</time>
      </trkpt>
      <trkpt lat="42.135943" lon="1.579979">
        <ele>998.0</ele>
        <time>2019-06-01T05:54:09Z</time>
      </trkpt>
      <trkpt lat="42.135920" lon="1.579961">
        <ele>997.5</ele>
        <time>2019-06-01T05:54:12Z</time>
      </trkpt>
      <trkpt lat="42.135875" lon="1.579865">
        <ele>998.0</ele>
        <time>2019-06-01T05:54:20Z</time>
      </trkpt>
      <trkpt lat="42.135812" lon="1.579732">
        <ele>998.0</ele>
        <time>2019-06-01T05:54:29Z</time>
      </trkpt>
      <trkpt lat="42.135741" lon="1.579657">
        <ele>998.0</ele>
        <time>2019-06-01T05:54:38Z</time>
      </trkpt>
      <trkpt lat="42.135724" lon="1.579625">
        <ele>998.5</ele>
        <time>2019-06-01T05:54:40Z</time>
      </trkpt>
      <trkpt lat="42.135681" lon="1.579572">
        <ele>999.0</ele>
        <time>2019-06-01T05:54:44Z</time>
      </trkpt>
      <trkpt lat="42.135616" lon="1.579453">
        <ele>999.9</ele>
        <time>2019-06-01T05:54:51Z</time>
      </trkpt>
      <trkpt lat="42.135611" lon="1.579224">
        <ele>1001.8</ele>
        <time>2019-06-01T05:55:03Z</time>
      </trkpt>
      <trkpt lat="42.135610" lon="1.579213">
        <ele>1001.8</ele>
        <time>2019-06-01T05:55:04Z</time>
      </trkpt>
      <trkpt lat="42.135604" lon="1.579177">
        <ele>1002.3</ele>
        <time>2019-06-01T05:55:06Z</time>
      </trkpt>
      <trkpt lat="42.135508" lon="1.579010">
        <ele>1003.3</ele>
        <time>2019-06-01T05:55:18Z</time>
      </trkpt>
      <trkpt lat="42.135387" lon="1.578746">
        <ele>1003.7</ele>
        <time>2019-06-01T05:55:33Z</time>
      </trkpt>
      <trkpt lat="42.135351" lon="1.578693">
        <ele>1005.7</ele>
        <time>2019-06-01T05:55:38Z</time>
      </trkpt>
      <trkpt lat="42.135311" lon="1.578562">
        <ele>1005.7</ele>
        <time>2019-06-01T05:55:46Z</time>
      </trkpt>
      <trkpt lat="42.135251" lon="1.578439">
        <ele>1006.2</ele>
        <time>2019-06-01T05:55:55Z</time>
      </trkpt>
      <trkpt lat="42.135169" lon="1.578243">
        <ele>1006.6</ele>
        <time>2019-06-01T05:56:08Z</time>
      </trkpt>
      <trkpt lat="42.135110" lon="1.578133">
        <ele>1006.2</ele>
        <time>2019-06-01T05:56:16Z</time>
      </trkpt>
      <trkpt lat="42.135075" lon="1.577986">
        <ele>1005.2</ele>
        <time>2019-06-01T05:56:25Z</time>
      </trkpt>
      <trkpt lat="42.135010" lon="1.577765">
        <ele>1003.7</ele>
        <time>2019-06-01T05:56:36Z</time>
      </trkpt>
      <trkpt lat="42.134993" lon="1.577703">
        <ele>1003.7</ele>
        <time>2019-06-01T05:56:40Z</time>
      </trkpt>
      <trkpt lat="42.134978" lon="1.577642">
        <ele>1003.7</ele>
        <time>2019-06-01T05:56:44Z</time>
      </trkpt>
      <trkpt lat="42.134949" lon="1.577530">
        <ele>1003.3</ele>
        <time>2019-06-01T05:56:50Z</time>
      </trkpt>
      <trkpt lat="42.134964" lon="1.577314">
        <ele>1002.3</ele>
        <time>2019-06-01T05:57:00Z</time>
      </trkpt>
      <trkpt lat="42.135004" lon="1.577159">
        <ele>1000.9</ele>
        <time>2019-06-01T05:57:08Z</time>
      </trkpt>
      <trkpt lat="42.134993" lon="1.577106">
        <ele>1000.4</ele>
        <time>2019-06-01T05:57:12Z</time>
      </trkpt>
      <trkpt lat="42.134938" lon="1.577063">
        <ele>1001.8</ele>
        <time>2019-06-01T05:57:21Z</time>
      </trkpt>
      <trkpt lat="42.134859" lon="1.577008">
        <ele>1003.3</ele>
        <time>2019-06-01T05:57:30Z</time>
      </trkpt>
      <trkpt lat="42.134771" lon="1.577007">
        <ele>1004.7</ele>
        <time>2019-06-01T05:57:39Z</time>
      </trkpt>
      <trkpt lat="42.134702" lon="1.576977">
        <ele>1006.2</ele>
        <time>2019-06-01T05:57:45Z</time>
      </trkpt>
      <trkpt lat="42.134688" lon="1.576921">
        <ele>1006.6</ele>
        <time>2019-06-01T05:57:49Z</time>
      </trkpt>
      <trkpt lat="42.134661" lon="1.576865">
        <ele>1007.6</ele>
        <time>2019-06-01T05:57:53Z</time>
      </trkpt>
      <trkpt lat="42.134648" lon="1.576833">
        <ele>1008.1</ele>
        <time>2019-06-01T05:57:55Z</time>
      </trkpt>
      <trkpt lat="42.134610" lon="1.576733">
        <ele>1009.0</ele>
        <time>2019-06-01T05:58:02Z</time>
      </trkpt>
      <trkpt lat="42.134498" lon="1.576558">
        <ele>1010.0</ele>
        <time>2019-06-01T05:58:16Z</time>
      </trkpt>
      <trkpt lat="42.134423" lon="1.576463">
        <ele>1011.4</ele>
        <time>2019-06-01T05:58:24Z</time>
      </trkpt>
      <trkpt lat="42.134407" lon="1.576424">
        <ele>1011.4</ele>
        <time>2019-06-01T05:58:27Z</time>
      </trkpt>
      <trkpt lat="42.134322" lon="1.576266">
        <ele>1013.4</ele>
        <time>2019-06-01T05:58:40Z</time>
      </trkpt>
      <trkpt lat="42.134315" lon="1.576253">
        <ele>1012.9</ele>
        <time>2019-06-01T05:58:41Z</time>
      </trkpt>
      <trkpt lat="42.134285" lon="1.576151">
        <ele>1014.3</ele>
        <time>2019-06-01T05:58:49Z</time>
      </trkpt>
      <trkpt lat="42.134253" lon="1.576052">
        <ele>1015.3</ele>
        <time>2019-06-01T05:58:56Z</time>
      </trkpt>
      <trkpt lat="42.134213" lon="1.575917">
        <ele>1016.7</ele>
        <time>2019-06-01T05:59:07Z</time>
      </trkpt>
      <trkpt lat="42.134210" lon="1.575867">
        <ele>1016.7</ele>
        <time>2019-06-01T05:59:10Z</time>
      </trkpt>
      <trkpt lat="42.134194" lon="1.575785">
        <ele>1017.7</ele>
        <time>2019-06-01T05:59:15Z</time>
      </trkpt>
      <trkpt lat="42.134158" lon="1.575670">
        <ele>1019.1</ele>
        <time>2019-06-01T05:59:24Z</time>
      </trkpt>
      <trkpt lat="42.134165" lon="1.575624">
        <ele>1019.6</ele>
        <time>2019-06-01T05:59:27Z</time>
      </trkpt>
      <trkpt lat="42.134070" lon="1.575444">
        <ele>1022.0</ele>
        <time>2019-06-01T05:59:41Z</time>
      </trkpt>
      <trkpt lat="42.133998" lon="1.575355">
        <ele>1023.0</ele>
        <time>2019-06-01T05:59:50Z</time>
      </trkpt>
      <trkpt lat="42.133909" lon="1.575191">
        <ele>1025.9</ele>
        <time>2019-06-01T06:00:05Z</time>
      </trkpt>
      <trkpt lat="42.133908" lon="1.575179">
        <ele>1025.9</ele>
        <time>2019-06-01T06:00:06Z</time>
      </trkpt>
      <trkpt lat="42.133877" lon="1.575117">
        <ele>1026.3</ele>
        <time>2019-06-01T06:00:11Z</time>
      </trkpt>
      <trkpt lat="42.133856" lon="1.575067">
        <ele>1026.8</ele>
        <time>2019-06-01T06:00:15Z</time>
      </trkpt>
      <trkpt lat="42.133831" lon="1.575008">
        <ele>1027.8</ele>
        <time>2019-06-01T06:00:19Z</time>
      </trkpt>
      <trkpt lat="42.133754" lon="1.574860">
        <ele>1030.2</ele>
        <time>2019-06-01T06:00:32Z</time>
      </trkpt>
      <trkpt lat="42.133745" lon="1.574843">
        <ele>1030.2</ele>
        <time>2019-06-01T06:00:34Z</time>
      </trkpt>
      <trkpt lat="42.133728" lon="1.574802">
        <ele>1031.2</ele>
        <time>2019-06-01T06:00:38Z</time>
      </trkpt>
      <trkpt lat="42.133721" lon="1.574731">
        <ele>1032.6</ele>
        <time>2019-06-01T06:00:44Z</time>
      </trkpt>
      <trkpt lat="42.133717" lon="1.574524">
        <ele>1035.0</ele>
        <time>2019-06-01T06:00:57Z</time>
      </trkpt>
      <trkpt lat="42.133723" lon="1.574428">
        <ele>1036.4</ele>
        <time>2019-06-01T06:01:05Z</time>
      </trkpt>
      <trkpt lat="42.133771" lon="1.574302">
        <ele>1037.9</ele>
        <time>2019-06-01T06:01:16Z</time>
      </trkpt>
      <trkpt lat="42.133784" lon="1.574131">
        <ele>1040.3</ele>
        <time>2019-06-01T06:01:27Z</time>
      </trkpt>
      <trkpt lat="42.133768" lon="1.573981">
        <ele>1041.7</ele>
        <time>2019-06-01T06:01:36Z</time>
      </trkpt>
      <trkpt lat="42.133778" lon="1.573915">
        <ele>1042.7</ele>
        <time>2019-06-01T06:01:40Z</time>
      </trkpt>
      <trkpt lat="42.133762" lon="1.573883">
        <ele>1042.7</ele>
        <time>2019-06-01T06:01:42Z</time>
      </trkpt>
      <trkpt lat="42.133734" lon="1.573801">
        <ele>1043.7</ele>
        <time>2019-06-01T06:01:47Z</time>
      </trkpt>
      <trkpt lat="42.133690" lon="1.573550">
        <ele>1045.6</ele>
        <time>2019-06-01T06:02:00Z</time>
      </trkpt>
      <trkpt lat="42.133686" lon="1.573532">
        <ele>1045.6</ele>
        <time>2019-06-01T06:02:01Z</time>
      </trkpt>
      <trkpt lat="42.133695" lon="1.573464">
        <ele>1046.5</ele>
        <time>2019-06-01T06:02:06Z</time>
      </trkpt>
      <trkpt lat="42.133658" lon="1.573211">
        <ele>1048.0</ele>
        <time>2019-06-01T06:02:19Z</time>
      </trkpt>
      <trkpt lat="42.133630" lon="1.573154">
        <ele>1048.0</ele>
        <time>2019-06-01T06:02:32Z</time>
      </trkpt>
      <trkpt lat="42.133653" lon="1.573082">
        <ele>1048.4</ele>
        <time>2019-06-01T06:02:43Z</time>
      </trkpt>
      <trkpt lat="42.133672" lon="1.573022">
        <ele>1048.4</ele>
        <time>2019-06-01T06:02:57Z</time>
      </trkpt>
      <trkpt lat="42.133681" lon="1.572996">
        <ele>1048.4</ele>
        <time>2019-06-01T06:02:59Z</time>
      </trkpt>
      <trkpt lat="42.133696" lon="1.572963">
        <ele>1048.4</ele>
        <time>2019-06-01T06:03:01Z</time>
      </trkpt>
      <trkpt lat="42.133690" lon="1.572930">
        <ele>1048.4</ele>
        <time>2019-06-01T06:03:09Z</time>
      </trkpt>
      <trkpt lat="42.133697" lon="1.572825">
        <ele>1048.0</ele>
        <time>2019-06-01T06:03:17Z</time>
      </trkpt>
      <trkpt lat="42.133678" lon="1.572701">
        <ele>1048.0</ele>
        <time>2019-06-01T06:03:24Z</time>
      </trkpt>
      <trkpt lat="42.133668" lon="1.572642">
        <ele>1048.4</ele>
        <time>2019-06-01T06:03:28Z</time>
      </trkpt>
      <trkpt lat="42.133643" lon="1.572598">
        <ele>1048.9</ele>
        <time>2019-06-01T06:03:33Z</time>
      </trkpt>
      <trkpt lat="42.133672" lon="1.572357">
        <ele>1049.9</ele>
        <time>2019-06-01T06:03:47Z</time>
      </trkpt>
      <trkpt lat="42.133670" lon="1.572167">
        <ele>1050.4</ele>
        <time>2019-06-01T06:03:59Z</time>
      </trkpt>
      <trkpt lat="42.133669" lon="1.572156">
        <ele>1050.9</ele>
        <time>2019-06-01T06:04:00Z</time>
      </trkpt>
      <trkpt lat="42.133661" lon="1.572090">
        <ele>1050.4</ele>
        <time>2019-06-01T06:04:05Z</time>
      </trkpt>
      <trkpt lat="42.133630" lon="1.571861">
        <ele>1049.4</ele>
        <time>2019-06-01T06:04:17Z</time>
      </trkpt>
      <trkpt lat="42.133641" lon="1.571710">
        <ele>1048.9</ele>
        <time>2019-06-01T06:04:24Z</time>
      </trkpt>
      <trkpt lat="42.133650" lon="1.571666">
        <ele>1049.4</ele>
        <time>2019-06-01T06:04:26Z</time>
      </trkpt>
      <trkpt lat="42.133648" lon="1.571558">
        <ele>1049.4</ele>
        <time>2019-06-01T06:04:32Z</time>
      </trkpt>
      <trkpt lat="42.133652" lon="1.571522">
        <ele>1049.4</ele>
        <time>2019-06-01T06:04:34Z</time>
      </trkpt>
      <trkpt lat="42.133661" lon="1.571390">
        <ele>1049.4</ele>
        <time>2019-06-01T06:04:41Z</time>
      </trkpt>
      <trkpt lat="42.133667" lon="1.571323">
        <ele>1049.4</ele>
        <time>2019-06-01T06:04:44Z</time>
      </trkpt>
      <trkpt lat="42.133668" lon="1.571259">
        <ele>1049.4</ele>
        <time>2019-06-01T06:04:48Z</time>
      </trkpt>
      <trkpt lat="42.133667" lon="1.571151">
        <ele>1049.4</ele>
        <time>2019-06-01T06:04:54Z</time>
      </trkpt>
      <trkpt lat="42.133645" lon="1.571025">
        <ele>1048.0</ele>
        <time>2019-06-01T06:05:02Z</time>
      </trkpt>
      <trkpt lat="42.133624" lon="1.570914">
        <ele>1048.0</ele>
        <time>2019-06-01T06:05:08Z</time>
      </trkpt>
      <trkpt lat="42.133543" lon="1.570696">
        <ele>1047.5</ele>
        <time>2019-06-01T06:05:22Z</time>
      </trkpt>
      <trkpt lat="42.133497" lon="1.570577">
        <ele>1047.5</ele>
        <time>2019-06-01T06:05:31Z</time>
      </trkpt>
      <trkpt lat="42.133474" lon="1.570511">
        <ele>1047.0</ele>
        <time>2019-06-01T06:05:36Z</time>
      </trkpt>
      <trkpt lat="42.133357" lon="1.570317">
        <ele>1048.0</ele>
        <time>2019-06-01T06:05:50Z</time>
      </trkpt>
      <trkpt lat="42.133339" lon="1.570258">
        <ele>1048.4</ele>
        <time>2019-06-01T06:05:54Z</time>
      </trkpt>
      <trkpt lat="42.133268" lon="1.570231">
        <ele>1049.9</ele>
        <time>2019-06-01T06:06:02Z</time>
      </trkpt>
      <trkpt lat="42.133207" lon="1.570320">
        <ele>1050.9</ele>
        <time>2019-06-01T06:06:11Z</time>
      </trkpt>
      <trkpt lat="42.133114" lon="1.570377">
        <ele>1051.3</ele>
        <time>2019-06-01T06:06:19Z</time>
      </trkpt>
      <trkpt lat="42.132976" lon="1.570510">
        <ele>1052.3</ele>
        <time>2019-06-01T06:06:30Z</time>
      </trkpt>
      <trkpt lat="42.132886" lon="1.570657">
        <ele>1053.3</ele>
        <time>2019-06-01T06:06:42Z</time>
      </trkpt>
      <trkpt lat="42.132680" lon="1.570613">
        <ele>1055.2</ele>
        <time>2019-06-01T06:06:57Z</time>
      </trkpt>
      <trkpt lat="42.132522" lon="1.570580">
        <ele>1057.1</ele>
        <time>2019-06-01T06:07:11Z</time>
      </trkpt>
      <trkpt lat="42.132266" lon="1.570512">
        <ele>1058.6</ele>
        <time>2019-06-01T06:07:27Z</time>
      </trkpt>
      <trkpt lat="42.132159" lon="1.570435">
        <ele>1059.0</ele>
        <time>2019-06-01T06:07:36Z</time>
      </trkpt>
      <trkpt lat="42.131994" lon="1.570324">
        <ele>1060.0</ele>
        <time>2019-06-01T06:07:50Z</time>
      </trkpt>
      <trkpt lat="42.131925" lon="1.570315">
        <ele>1060.5</ele>
        <time>2019-06-01T06:07:55Z</time>
      </trkpt>
      <trkpt lat="42.131743" lon="1.570422">
        <ele>1061.4</ele>
        <time>2019-06-01T06:08:10Z</time>
      </trkpt>
      <trkpt lat="42.131548" lon="1.570549">
        <ele>1061.9</ele>
        <time>2019-06-01T06:08:25Z</time>
      </trkpt>
      <trkpt lat="42.131323" lon="1.570708">
        <ele>1061.9</ele>
        <time>2019-06-01T06:08:42Z</time>
      </trkpt>
      <trkpt lat="42.131172" lon="1.570836">
        <ele>1062.4</ele>
        <time>2019-06-01T06:08:55Z</time>
      </trkpt>
      <trkpt lat="42.131129" lon="1.570881">
        <ele>1062.4</ele>
        <time>2019-06-01T06:08:59Z</time>
      </trkpt>
      <trkpt lat="42.131078" lon="1.570908">
        <ele>1062.9</ele>
        <time>2019-06-01T06:09:03Z</time>
      </trkpt>
      <trkpt lat="42.130990" lon="1.570908">
        <ele>1063.4</ele>
        <time>2019-06-01T06:09:15Z</time>
      </trkpt>
      <trkpt lat="42.130947" lon="1.570926">
        <ele>1065.8</ele>
        <time>2019-06-01T06:09:30Z</time>
      </trkpt>
      <trkpt lat="42.130874" lon="1.570993">
        <ele>1067.2</ele>
        <time>2019-06-01T06:09:39Z</time>
      </trkpt>
      <trkpt lat="42.130853" lon="1.571029">
        <ele>1067.2</ele>
        <time>2019-06-01T06:09:42Z</time>
      </trkpt>
      <trkpt lat="42.130835" lon="1.571075">
        <ele>1068.2</ele>
        <time>2019-06-01T06:09:46Z</time>
      </trkpt>
      <trkpt lat="42.130780" lon="1.571142">
        <ele>1068.6</ele>
        <time>2019-06-01T06:09:53Z</time>
      </trkpt>
      <trkpt lat="42.130705" lon="1.571209">
        <ele>1069.1</ele>
        <time>2019-06-01T06:09:59Z</time>
      </trkpt>
      <trkpt lat="42.130685" lon="1.571243">
        <ele>1069.6</ele>
        <time>2019-06-01T06:10:02Z</time>
      </trkpt>
      <trkpt lat="42.130673" lon="1.571270">
        <ele>1068.6</ele>
        <time>2019-06-01T06:10:04Z</time>
      </trkpt>
      <trkpt lat="42.130623" lon="1.571350">
        <ele>1069.6</ele>
        <time>2019-06-01T06:10:10Z</time>
      </trkpt>
      <trkpt lat="42.130496" lon="1.571453">
        <ele>1070.6</ele>
        <time>2019-06-01T06:10:21Z</time>
      </trkpt>
      <trkpt lat="42.130410" lon="1.571533">
        <ele>1072.0</ele>
        <time>2019-06-01T06:10:29Z</time>
      </trkpt>
      <trkpt lat="42.130343" lon="1.571655">
        <ele>1072.5</ele>
        <time>2019-06-01T06:10:38Z</time>
      </trkpt>
      <trkpt lat="42.130287" lon="1.571708">
        <ele>1073.4</ele>
        <time>2019-06-01T06:10:44Z</time>
      </trkpt>
      <trkpt lat="42.130260" lon="1.571741">
        <ele>1073.4</ele>
        <time>2019-06-01T06:10:47Z</time>
      </trkpt>
      <trkpt lat="42.130135" lon="1.571861">
        <ele>1075.4</ele>
        <time>2019-06-01T06:11:01Z</time>
      </trkpt>
      <trkpt lat="42.130102" lon="1.571866">
        <ele>1075.4</ele>
        <time>2019-06-01T06:11:04Z</time>
      </trkpt>
      <trkpt lat="42.129992" lon="1.571950">
        <ele>1078.3</ele>
        <time>2019-06-01T06:11:15Z</time>
      </trkpt>
      <trkpt lat="42.129981" lon="1.572001">
        <ele>1078.3</ele>
        <time>2019-06-01T06:11:17Z</time>
      </trkpt>
      <trkpt lat="42.129979" lon="1.572088">
        <ele>1078.7</ele>
        <time>2019-06-01T06:11:22Z</time>
      </trkpt>
      <trkpt lat="42.129930" lon="1.572274">
        <ele>1081.1</ele>
        <time>2019-06-01T06:11:35Z</time>
      </trkpt>
      <trkpt lat="42.129901" lon="1.572313">
        <ele>1081.6</ele>
        <time>2019-06-01T06:11:38Z</time>
      </trkpt>
      <trkpt lat="42.129806" lon="1.572347">
        <ele>1084.0</ele>
        <time>2019-06-01T06:11:51Z</time>
      </trkpt>
      <trkpt lat="42.129761" lon="1.572353">
        <ele>1086.4</ele>
        <time>2019-06-01T06:12:02Z</time>
      </trkpt>
      <trkpt lat="42.129727" lon="1.572400">
        <ele>1087.4</ele>
        <time>2019-06-01T06:12:09Z</time>
      </trkpt>
      <trkpt lat="42.129712" lon="1.572413">
        <ele>1087.9</ele>
        <time>2019-06-01T06:12:11Z</time>
      </trkpt>
      <trkpt lat="42.129703" lon="1.572398">
        <ele>1088.3</ele>
        <time>2019-06-01T06:12:13Z</time>
      </trkpt>
      <trkpt lat="42.129709" lon="1.572355">
        <ele>1089.3</ele>
        <time>2019-06-01T06:12:18Z</time>
      </trkpt>
      <trkpt lat="42.129720" lon="1.572291">
        <ele>1091.2</ele>
        <time>2019-06-01T06:12:28Z</time>
      </trkpt>
      <trkpt lat="42.129737" lon="1.572154">
        <ele>1094.1</ele>
        <time>2019-06-01T06:12:38Z</time>
      </trkpt>
      <trkpt lat="42.129733" lon="1.572086">
        <ele>1095.6</ele>
        <time>2019-06-01T06:12:43Z</time>
      </trkpt>
      <trkpt lat="42.129732" lon="1.572009">
        <ele>1097.5</ele>
        <time>2019-06-01T06:12:50Z</time>
      </trkpt>
      <trkpt lat="42.129718" lon="1.571992">
        <ele>1098.9</ele>
        <time>2019-06-01T06:13:02Z</time>
      </trkpt>
      <trkpt lat="42.129669" lon="1.572083">
        <ele>1101.3</ele>
        <time>2019-06-01T06:13:14Z</time>
      </trkpt>
      <trkpt lat="42.129642" lon="1.572141">
        <ele>1103.2</ele>
        <time>2019-06-01T06:13:22Z</time>
      </trkpt>
      <trkpt lat="42.129563" lon="1.572224">
        <ele>1105.7</ele>
        <time>2019-06-01T06:13:35Z</time>
      </trkpt>
      <trkpt lat="42.129548" lon="1.572232">
        <ele>1105.7</ele>
        <time>2019-06-01T06:13:37Z</time>
      </trkpt>
      <trkpt lat="42.129501" lon="1.572191">
        <ele>1107.1</ele>
        <time>2019-06-01T06:13:45Z</time>
      </trkpt>
      <trkpt lat="42.129411" lon="1.572154">
        <ele>1109.5</ele>
        <time>2019-06-01T06:13:57Z</time>
      </trkpt>
      <trkpt lat="42.129330" lon="1.572138">
        <ele>1112.9</ele>
        <time>2019-06-01T06:14:06Z</time>
      </trkpt>
      <trkpt lat="42.129277" lon="1.572122">
        <ele>1113.8</ele>
        <time>2019-06-01T06:14:12Z</time>
      </trkpt>
      <trkpt lat="42.129229" lon="1.571957">
        <ele>1115.7</ele>
        <time>2019-06-01T06:14:25Z</time>
      </trkpt>
      <trkpt lat="42.129235" lon="1.571931">
        <ele>1115.7</ele>
        <time>2019-06-01T06:14:42Z</time>
      </trkpt>
      <trkpt lat="42.129219" lon="1.571907">
        <ele>1115.7</ele>
        <time>2019-06-01T06:14:55Z</time>
      </trkpt>
      <trkpt lat="42.129210" lon="1.571908">
        <ele>1112.4</ele>
        <time>2019-06-01T06:15:08Z</time>
      </trkpt>
      <trkpt lat="42.129209" lon="1.571908">
        <ele>1116.2</ele>
        <time>2019-06-01T06:15:09Z</time>
      </trkpt>
      <trkpt lat="42.129202" lon="1.571909">
        <ele>1115.3</ele>
        <time>2019-06-01T06:15:30Z</time>
      </trkpt>
      <trkpt lat="42.129209" lon="1.571911">
        <ele>1116.2</ele>
        <time>2019-06-01T06:15:44Z</time>
      </trkpt>
      <trkpt lat="42.129207" lon="1.571900">
        <ele>1115.7</ele>
        <time>2019-06-01T06:16:01Z</time>
      </trkpt>
      <trkpt lat="42.129207" lon="1.571895">
        <ele>1115.7</ele>
        <time>2019-06-01T06:16:33Z</time>
      </trkpt>
      <trkpt lat="42.129208" lon="1.571896">
        <ele>1115.7</ele>
        <time>2019-06-01T06:17:06Z</time>
      </trkpt>
      <trkpt lat="42.129208" lon="1.571896">
        <ele>1115.3</ele>
        <time>2019-06-01T06:17:42Z</time>
      </trkpt>
      <trkpt lat="42.129212" lon="1.571900">
        <ele>1115.3</ele>
        <time>2019-06-01T06:18:17Z</time>
      </trkpt>
      <trkpt lat="42.129214" lon="1.571901">
        <ele>1115.3</ele>
        <time>2019-06-01T06:18:47Z</time>
      </trkpt>
      <trkpt lat="42.129211" lon="1.571903">
        <ele>1114.8</ele>
        <time>2019-06-01T06:19:17Z</time>
      </trkpt>
      <trkpt lat="42.129210" lon="1.571908">
        <ele>1115.3</ele>
        <time>2019-06-01T06:19:49Z</time>
      </trkpt>
      <trkpt lat="42.129219" lon="1.571915">
        <ele>1114.8</ele>
        <time>2019-06-01T06:20:19Z</time>
      </trkpt>
      <trkpt lat="42.129218" lon="1.571919">
        <ele>1114.8</ele>
        <time>2019-06-01T06:20:49Z</time>
      </trkpt>
      <trkpt lat="42.129227" lon="1.571919">
        <ele>1114.8</ele>
        <time>2019-06-01T06:21:21Z</time>
      </trkpt>
      <trkpt lat="42.129225" lon="1.571910">
        <ele>1114.8</ele>
        <time>2019-06-01T06:21:53Z</time>
      </trkpt>
      <trkpt lat="42.129229" lon="1.571903">
        <ele>1114.3</ele>
        <time>2019-06-01T06:22:23Z</time>
      </trkpt>
      <trkpt lat="42.129236" lon="1.571906">
        <ele>1114.3</ele>
        <time>2019-06-01T06:22:58Z</time>
      </trkpt>
      <trkpt lat="42.129231" lon="1.571904">
        <ele>1114.8</ele>
        <time>2019-06-01T06:23:26Z</time>
      </trkpt>
      <trkpt lat="42.129222" lon="1.571897">
        <ele>1114.3</ele>
        <time>2019-06-01T06:23:35Z</time>
      </trkpt>
      <trkpt lat="42.129157" lon="1.571879">
        <ele>1112.4</ele>
        <time>2019-06-01T06:23:44Z</time>
      </trkpt>
      <trkpt lat="42.129133" lon="1.571904">
        <ele>1111.9</ele>
        <time>2019-06-01T06:23:47Z</time>
      </trkpt>
      <trkpt lat="42.129080" lon="1.571999">
        <ele>1109.0</ele>
        <time>2019-06-01T06:23:56Z</time>
      </trkpt>
      <trkpt lat="42.129071" lon="1.572028">
        <ele>1109.0</ele>
        <time>2019-06-01T06:23:58Z</time>
      </trkpt>
      <trkpt lat="42.129063" lon="1.572076">
        <ele>1107.6</ele>
        <time>2019-06-01T06:24:01Z</time>
      </trkpt>
      <trkpt lat="42.129033" lon="1.572195">
        <ele>1106.1</ele>
        <time>2019-06-01T06:24:09Z</time>
      </trkpt>
      <trkpt lat="42.129001" lon="1.572251">
        <ele>1104.2</ele>
        <time>2019-06-01T06:24:19Z</time>
      </trkpt>
      <trkpt lat="42.128995" lon="1.572252">
        <ele>1103.7</ele>
        <time>2019-06-01T06:24:20Z</time>
      </trkpt>
      <trkpt lat="42.128926" lon="1.572244">
        <ele>1102.3</ele>
        <time>2019-06-01T06:24:28Z</time>
      </trkpt>
      <trkpt lat="42.128883" lon="1.572290">
        <ele>1100.8</ele>
        <time>2019-06-01T06:24:33Z</time>
      </trkpt>
      <trkpt lat="42.128848" lon="1.572424">
        <ele>1098.4</ele>
        <time>2019-06-01T06:24:42Z</time>
      </trkpt>
      <trkpt lat="42.128818" lon="1.572485">
        <ele>1097.5</ele>
        <time>2019-06-01T06:24:47Z</time>
      </trkpt>
      <trkpt lat="42.128802" lon="1.572533">
        <ele>1097.0</ele>
        <time>2019-06-01T06:24:50Z</time>
      </trkpt>
      <trkpt lat="42.128796" lon="1.572636">
        <ele>1094.1</ele>
        <time>2019-06-01T06:24:57Z</time>
      </trkpt>
      <trkpt lat="42.128786" lon="1.572725">
        <ele>1092.2</ele>
        <time>2019-06-01T06:25:03Z</time>
      </trkpt>
      <trkpt lat="42.128778" lon="1.572899">
        <ele>1089.3</ele>
        <time>2019-06-01T06:25:14Z</time>
      </trkpt>
      <trkpt lat="42.128755" lon="1.573006">
        <ele>1088.3</ele>
        <time>2019-06-01T06:25:21Z</time>
      </trkpt>
      <trkpt lat="42.128743" lon="1.573043">
        <ele>1087.4</ele>
        <time>2019-06-01T06:25:23Z</time>
      </trkpt>
      <trkpt lat="42.128741" lon="1.573155">
        <ele>1086.9</ele>
        <time>2019-06-01T06:25:29Z</time>
      </trkpt>
      <trkpt lat="42.128731" lon="1.573241">
        <ele>1086.4</ele>
        <time>2019-06-01T06:25:33Z</time>
      </trkpt>
      <trkpt lat="42.128720" lon="1.573295">
        <ele>1085.9</ele>
        <time>2019-06-01T06:25:36Z</time>
      </trkpt>
      <trkpt lat="42.128689" lon="1.573476">
        <ele>1084.5</ele>
        <time>2019-06-01T06:25:46Z</time>
      </trkpt>
      <trkpt lat="42.128678" lon="1.573505">
        <ele>1084.0</ele>
        <time>2019-06-01T06:25:48Z</time>
      </trkpt>
      <trkpt lat="42.128668" lon="1.573613">
        <ele>1083.1</ele>
        <time>2019-06-01T06:25:58Z</time>
      </trkpt>
      <trkpt lat="42.128657" lon="1.573636">
        <ele>1083.5</ele>
        <time>2019-06-01T06:26:01Z</time>
      </trkpt>
      <trkpt lat="42.128606" lon="1.573751">
        <ele>1083.1</ele>
        <time>2019-06-01T06:26:09Z</time>
      </trkpt>
      <trkpt lat="42.128585" lon="1.573797">
        <ele>1083.1</ele>
        <time>2019-06-01T06:26:12Z</time>
      </trkpt>
      <trkpt lat="42.128457" lon="1.573995">
        <ele>1083.1</ele>
        <time>2019-06-01T06:26:26Z</time>
      </trkpt>
      <trkpt lat="42.128372" lon="1.574142">
        <ele>1083.1</ele>
        <time>2019-06-01T06:26:36Z</time>
      </trkpt>
      <trkpt lat="42.128326" lon="1.574204">
        <ele>1083.5</ele>
        <time>2019-06-01T06:26:40Z</time>
      </trkpt>
      <trkpt lat="42.128203" lon="1.574334">
        <ele>1083.5</ele>
        <time>2019-06-01T06:26:51Z</time>
      </trkpt>
      <trkpt lat="42.128111" lon="1.574503">
        <ele>1083.5</ele>
        <time>2019-06-01T06:27:04Z</time>
      </trkpt>
      <trkpt lat="42.127998" lon="1.574757">
        <ele>1082.6</ele>
        <time>2019-06-01T06:27:19Z</time>
      </trkpt>
      <trkpt lat="42.127975" lon="1.574785">
        <ele>1083.1</ele>
        <time>2019-06-01T06:27:21Z</time>
      </trkpt>
      <trkpt lat="42.127834" lon="1.574947">
        <ele>1081.6</ele>
        <time>2019-06-01T06:27:35Z</time>
      </trkpt>
      <trkpt lat="42.127656" lon="1.574962">
        <ele>1080.7</ele>
        <time>2019-06-01T06:27:48Z</time>
      </trkpt>
      <trkpt lat="42.127499" lon="1.574901">
        <ele>1079.7</ele>
        <time>2019-06-01T06:28:00Z</time>
      </trkpt>
      <trkpt lat="42.127376" lon="1.574756">
        <ele>1078.7</ele>
        <time>2019-06-01T06:28:13Z</time>
      </trkpt>
      <trkpt lat="42.127365" lon="1.574789">
        <ele>1078.7</ele>
        <time>2019-06-01T06:28:23Z</time>
      </trkpt>
      <trkpt lat="42.127351" lon="1.574737">
        <ele>1078.3</ele>
        <time>2019-06-01T06:28:29Z</time>
      </trkpt>
      <trkpt lat="42.127252" lon="1.574653">
        <ele>1078.3</ele>
        <time>2019-06-01T06:28:38Z</time>
      </trkpt>
      <trkpt lat="42.127094" lon="1.574683">
        <ele>1077.3</ele>
        <time>2019-06-01T06:28:49Z</time>
      </trkpt>
      <trkpt lat="42.127007" lon="1.574737">
        <ele>1077.3</ele>
        <time>2019-06-01T06:28:55Z</time>
      </trkpt>
      <trkpt lat="42.126855" lon="1.574863">
        <ele>1076.3</ele>
        <time>2019-06-01T06:29:08Z</time>
      </trkpt>
      <trkpt lat="42.126843" lon="1.574865">
        <ele>1076.3</ele>
        <time>2019-06-01T06:29:09Z</time>
      </trkpt>
      <trkpt lat="42.126807" lon="1.574881">
        <ele>1076.3</ele>
        <time>2019-06-01T06:29:12Z</time>
      </trkpt>
      <trkpt lat="42.126751" lon="1.574958">
        <ele>1076.3</ele>
        <time>2019-06-01T06:29:20Z</time>
      </trkpt>
      <trkpt lat="42.126704" lon="1.575009">
        <ele>1076.3</ele>
        <time>2019-06-01T06:29:26Z</time>
      </trkpt>
      <trkpt lat="42.126660" lon="1.575137">
        <ele>1076.8</ele>
        <time>2019-06-01T06:29:33Z</time>
      </trkpt>
      <trkpt lat="42.126560" lon="1.575299">
        <ele>1077.3</ele>
        <time>2019-06-01T06:29:43Z</time>
      </trkpt>
      <trkpt lat="42.126451" lon="1.575458">
        <ele>1077.8</ele>
        <time>2019-06-01T06:29:54Z</time>
      </trkpt>
      <trkpt lat="42.126428" lon="1.575480">
        <ele>1078.3</ele>
        <time>2019-06-01T06:29:56Z</time>
      </trkpt>
      <trkpt lat="42.126411" lon="1.575498">
        <ele>1078.7</ele>
        <time>2019-06-01T06:29:59Z</time>
      </trkpt>
      <trkpt lat="42.126397" lon="1.575514">
        <ele>1078.7</ele>
        <time>2019-06-01T06:30:01Z</time>
      </trkpt>
      <trkpt lat="42.126380" lon="1.575553">
        <ele>1078.7</ele>
        <time>2019-06-01T06:30:03Z</time>
      </trkpt>
      <trkpt lat="42.126304" lon="1.575486">
        <ele>1079.7</ele>
        <time>2019-06-01T06:30:13Z</time>
      </trkpt>
      <trkpt lat="42.126302" lon="1.575474">
        <ele>1080.2</ele>
        <time>2019-06-01T06:30:14Z</time>
      </trkpt>
      <trkpt lat="42.126262" lon="1.575370">
        <ele>1081.1</ele>
        <time>2019-06-01T06:30:21Z</time>
      </trkpt>
      <trkpt lat="42.126183" lon="1.575270">
        <ele>1082.1</ele>
        <time>2019-06-01T06:30:28Z</time>
      </trkpt>
      <trkpt lat="42.126122" lon="1.575134">
        <ele>1084.0</ele>
        <time>2019-06-01T06:30:37Z</time>
      </trkpt>
      <trkpt lat="42.126082" lon="1.575072">
        <ele>1084.5</ele>
        <time>2019-06-01T06:30:41Z</time>
      </trkpt>
      <trkpt lat="42.125906" lon="1.575017">
        <ele>1085.0</ele>
        <time>2019-06-01T06:30:53Z</time>
      </trkpt>
      <trkpt lat="42.125757" lon="1.575060">
        <ele>1084.5</ele>
        <time>2019-06-01T06:31:06Z</time>
      </trkpt>
      <trkpt lat="42.125665" lon="1.575082">
        <ele>1084.0</ele>
        <time>2019-06-01T06:31:13Z</time>
      </trkpt>
      <trkpt lat="42.125634" lon="1.575097">
        <ele>1084.5</ele>
        <time>2019-06-01T06:31:15Z</time>
      </trkpt>
      <trkpt lat="42.125417" lon="1.575191">
        <ele>1082.6</ele>
        <time>2019-06-01T06:31:30Z</time>
      </trkpt>
      <trkpt lat="42.125403" lon="1.575194">
        <ele>1082.1</ele>
        <time>2019-06-01T06:31:31Z</time>
      </trkpt>
      <trkpt lat="42.125235" lon="1.575316">
        <ele>1081.1</ele>
        <time>2019-06-01T06:31:44Z</time>
      </trkpt>
      <trkpt lat="42.125129" lon="1.575326">
        <ele>1080.7</ele>
        <time>2019-06-01T06:31:51Z</time>
      </trkpt>
      <trkpt lat="42.125073" lon="1.575301">
        <ele>1080.7</ele>
        <time>2019-06-01T06:31:55Z</time>
      </trkpt>
      <trkpt lat="42.124961" lon="1.575250">
        <ele>1079.7</ele>
        <time>2019-06-01T06:32:03Z</time>
      </trkpt>
      <trkpt lat="42.124871" lon="1.575214">
        <ele>1078.7</ele>
        <time>2019-06-01T06:32:10Z</time>
      </trkpt>
      <trkpt lat="42.124841" lon="1.575206">
        <ele>1078.7</ele>
        <time>2019-06-01T06:32:12Z</time>
      </trkpt>
      <trkpt lat="42.124775" lon="1.575293">
        <ele>1078.3</ele>
        <time>2019-06-01T06:32:23Z</time>
      </trkpt>
      <trkpt lat="42.124759" lon="1.575299">
        <ele>1078.3</ele>
        <time>2019-06-01T06:32:28Z</time>
      </trkpt>
      <trkpt lat="42.124555" lon="1.575284">
        <ele>1077.3</ele>
        <time>2019-06-01T06:32:40Z</time>
      </trkpt>
      <trkpt lat="42.124501" lon="1.575357">
        <ele>1076.8</ele>
        <time>2019-06-01T06:32:45Z</time>
      </trkpt>
      <trkpt lat="42.124305" lon="1.575424">
        <ele>1076.3</ele>
        <time>2019-06-01T06:32:59Z</time>
      </trkpt>
      <trkpt lat="42.124191" lon="1.575389">
        <ele>1075.4</ele>
        <time>2019-06-01T06:33:09Z</time>
      </trkpt>
      <trkpt lat="42.124159" lon="1.575378">
        <ele>1075.4</ele>
        <time>2019-06-01T06:33:12Z</time>
      </trkpt>
      <trkpt lat="42.124084" lon="1.575360">
        <ele>1075.4</ele>
        <time>2019-06-01T06:33:16Z</time>
      </trkpt>
      <trkpt lat="42.123959" lon="1.575336">
        <ele>1074.9</ele>
        <time>2019-06-01T06:33:22Z</time>
      </trkpt>
      <trkpt lat="42.123914" lon="1.575337">
        <ele>1074.4</ele>
        <time>2019-06-01T06:33:25Z</time>
      </trkpt>
      <trkpt lat="42.123839" lon="1.575352">
        <ele>1074.9</ele>
        <time>2019-06-01T06:33:29Z</time>
      </trkpt>
      <trkpt lat="42.123807" lon="1.575360">
        <ele>1074.4</ele>
        <time>2019-06-01T06:33:31Z</time>
      </trkpt>
      <trkpt lat="42.123742" lon="1.575410">
        <ele>1074.4</ele>
        <time>2019-06-01T06:33:36Z</time>
      </trkpt>
      <trkpt lat="42.123643" lon="1.575513">
        <ele>1073.9</ele>
        <time>2019-06-01T06:33:43Z</time>
      </trkpt>
      <trkpt lat="42.123590" lon="1.575589">
        <ele>1073.9</ele>
        <time>2019-06-01T06:33:48Z</time>
      </trkpt>
      <trkpt lat="42.123547" lon="1.575677">
        <ele>1073.9</ele>
        <time>2019-06-01T06:33:53Z</time>
      </trkpt>
      <trkpt lat="42.123470" lon="1.575847">
        <ele>1074.9</ele>
        <time>2019-06-01T06:34:03Z</time>
      </trkpt>
      <trkpt lat="42.123444" lon="1.575891">
        <ele>1074.9</ele>
        <time>2019-06-01T06:34:07Z</time>
      </trkpt>
      <trkpt lat="42.123401" lon="1.575944">
        <ele>1075.4</ele>
        <time>2019-06-01T06:34:11Z</time>
      </trkpt>
      <trkpt lat="42.123247" lon="1.576069">
        <ele>1077.8</ele>
        <time>2019-06-01T06:34:25Z</time>
      </trkpt>
      <trkpt lat="42.123183" lon="1.576086">
        <ele>1078.3</ele>
        <time>2019-06-01T06:34:30Z</time>
      </trkpt>
      <trkpt lat="42.123033" lon="1.576149">
        <ele>1079.2</ele>
        <time>2019-06-01T06:34:41Z</time>
      </trkpt>
      <trkpt lat="42.122915" lon="1.576231">
        <ele>1080.2</ele>
        <time>2019-06-01T06:34:50Z</time>
      </trkpt>
      <trkpt lat="42.122838" lon="1.576243">
        <ele>1080.2</ele>
        <time>2019-06-01T06:34:56Z</time>
      </trkpt>
      <trkpt lat="42.122742" lon="1.576251">
        <ele>1080.7</ele>
        <time>2019-06-01T06:35:04Z</time>
      </trkpt>
      <trkpt lat="42.122681" lon="1.576265">
        <ele>1080.7</ele>
        <time>2019-06-01T06:35:09Z</time>
      </trkpt>
      <trkpt lat="42.122602" lon="1.576216">
        <ele>1080.7</ele>
        <time>2019-06-01T06:35:15Z</time>
      </trkpt>
      <trkpt lat="42.122570" lon="1.576216">
        <ele>1080.7</ele>
        <time>2019-06-01T06:35:17Z</time>
      </trkpt>
      <trkpt lat="42.122416" lon="1.576161">
        <ele>1080.7</ele>
        <time>2019-06-01T06:35:27Z</time>
      </trkpt>
      <trkpt lat="42.122265" lon="1.576226">
        <ele>1081.1</ele>
        <time>2019-06-01T06:35:38Z</time>
      </trkpt>
      <trkpt lat="42.122125" lon="1.576401">
        <ele>1081.1</ele>
        <time>2019-06-01T06:35:51Z</time>
      </trkpt>
      <trkpt lat="42.122084" lon="1.576459">
        <ele>1081.1</ele>
        <time>2019-06-01T06:35:55Z</time>
      </trkpt>
      <trkpt lat="42.122020" lon="1.576525">
        <ele>1081.1</ele>
        <time>2019-06-01T06:36:00Z</time>
      </trkpt>
      <trkpt lat="42.121948" lon="1.576573">
        <ele>1080.7</ele>
        <time>2019-06-01T06:36:05Z</time>
      </trkpt>
      <trkpt lat="42.121880" lon="1.576593">
        <ele>1080.2</ele>
        <time>2019-06-01T06:36:09Z</time>
      </trkpt>
      <trkpt lat="42.121799" lon="1.576640">
        <ele>1080.2</ele>
        <time>2019-06-01T06:36:16Z</time>
      </trkpt>
      <trkpt lat="42.121731" lon="1.576649">
        <ele>1079.7</ele>
        <time>2019-06-01T06:36:22Z</time>
      </trkpt>
      <trkpt lat="42.121625" lon="1.576604">
        <ele>1079.2</ele>
        <time>2019-06-01T06:36:30Z</time>
      </trkpt>
      <trkpt lat="42.121540" lon="1.576584">
        <ele>1079.2</ele>
        <time>2019-06-01T06:36:36Z</time>
      </trkpt>
      <trkpt lat="42.121443" lon="1.576592">
        <ele>1079.7</ele>
        <time>2019-06-01T06:36:42Z</time>
      </trkpt>
      <trkpt lat="42.121353" lon="1.576665">
        <ele>1080.2</ele>
        <time>2019-06-01T06:36:49Z</time>
      </trkpt>
      <trkpt lat="42.121325" lon="1.576699">
        <ele>1080.7</ele>
        <time>2019-06-01T06:36:51Z</time>
      </trkpt>
      <trkpt lat="42.121278" lon="1.576762">
        <ele>1080.7</ele>
        <time>2019-06-01T06:36:55Z</time>
      </trkpt>
      <trkpt lat="42.121184" lon="1.576934">
        <ele>1081.6</ele>
        <time>2019-06-01T06:37:05Z</time>
      </trkpt>
      <trkpt lat="42.121111" lon="1.577045">
        <ele>1081.6</ele>
        <time>2019-06-01T06:37:12Z</time>
      </trkpt>
      <trkpt lat="42.121060" lon="1.577096">
        <ele>1081.6</ele>
        <time>2019-06-01T06:37:17Z</time>
      </trkpt>
      <trkpt lat="42.120888" lon="1.577323">
        <ele>1082.1</ele>
        <time>2019-06-01T06:37:34Z</time>
      </trkpt>
      <trkpt lat="42.120751" lon="1.577527">
        <ele>1081.6</ele>
        <time>2019-06-01T06:37:48Z</time>
      </trkpt>
      <trkpt lat="42.120587" lon="1.577654">
        <ele>1081.1</ele>
        <time>2019-06-01T06:38:00Z</time>
      </trkpt>
      <trkpt lat="42.120413" lon="1.577732">
        <ele>1081.6</ele>
        <time>2019-06-01T06:38:13Z</time>
      </trkpt>
      <trkpt lat="42.120204" lon="1.577835">
        <ele>1083.5</ele>
        <time>2019-06-01T06:38:29Z</time>
      </trkpt>
      <trkpt lat="42.120091" lon="1.578029">
        <ele>1084.5</ele>
        <time>2019-06-01T06:38:43Z</time>
      </trkpt>
      <trkpt lat="42.119983" lon="1.578284">
        <ele>1085.0</ele>
        <time>2019-06-01T06:38:59Z</time>
      </trkpt>
      <trkpt lat="42.119876" lon="1.578485">
        <ele>1086.4</ele>
        <time>2019-06-01T06:39:12Z</time>
      </trkpt>
      <trkpt lat="42.119846" lon="1.578539">
        <ele>1086.4</ele>
        <time>2019-06-01T06:39:16Z</time>
      </trkpt>
      <trkpt lat="42.119823" lon="1.578575">
        <ele>1086.9</ele>
        <time>2019-06-01T06:39:19Z</time>
      </trkpt>
      <trkpt lat="42.119781" lon="1.578680">
        <ele>1087.4</ele>
        <time>2019-06-01T06:39:26Z</time>
      </trkpt>
      <trkpt lat="42.119692" lon="1.578981">
        <ele>1089.3</ele>
        <time>2019-06-01T06:39:42Z</time>
      </trkpt>
      <trkpt lat="42.119616" lon="1.579161">
        <ele>1089.8</ele>
        <time>2019-06-01T06:39:53Z</time>
      </trkpt>
      <trkpt lat="42.119467" lon="1.579442">
        <ele>1090.7</ele>
        <time>2019-06-01T06:40:10Z</time>
      </trkpt>
      <trkpt lat="42.119436" lon="1.579755">
        <ele>1090.3</ele>
        <time>2019-06-01T06:40:26Z</time>
      </trkpt>
      <trkpt lat="42.119401" lon="1.579998">
        <ele>1090.7</ele>
        <time>2019-06-01T06:40:39Z</time>
      </trkpt>
      <trkpt lat="42.119393" lon="1.580052">
        <ele>1090.3</ele>
        <time>2019-06-01T06:40:42Z</time>
      </trkpt>
      <trkpt lat="42.119329" lon="1.580165">
        <ele>1090.3</ele>
        <time>2019-06-01T06:40:49Z</time>
      </trkpt>
      <trkpt lat="42.119181" lon="1.580353">
        <ele>1089.3</ele>
        <time>2019-06-01T06:41:04Z</time>
      </trkpt>
      <trkpt lat="42.119014" lon="1.580491">
        <ele>1088.8</ele>
        <time>2019-06-01T06:41:19Z</time>
      </trkpt>
      <trkpt lat="42.118923" lon="1.580640">
        <ele>1087.4</ele>
        <time>2019-06-01T06:41:30Z</time>
      </trkpt>
      <trkpt lat="42.118918" lon="1.580650">
        <ele>1087.4</ele>
        <time>2019-06-01T06:41:31Z</time>
      </trkpt>
      <trkpt lat="42.118890" lon="1.580710">
        <ele>1086.9</ele>
        <time>2019-06-01T06:41:35Z</time>
      </trkpt>
      <trkpt lat="42.118757" lon="1.580949">
        <ele>1085.9</ele>
        <time>2019-06-01T06:41:51Z</time>
      </trkpt>
      <trkpt lat="42.118666" lon="1.581138">
        <ele>1084.0</ele>
        <time>2019-06-01T06:42:04Z</time>
      </trkpt>
      <trkpt lat="42.118541" lon="1.581314">
        <ele>1083.1</ele>
        <time>2019-06-01T06:42:17Z</time>
      </trkpt>
      <trkpt lat="42.118451" lon="1.581372">
        <ele>1081.6</ele>
        <time>2019-06-01T06:42:24Z</time>
      </trkpt>
      <trkpt lat="42.118368" lon="1.581464">
        <ele>1081.1</ele>
        <time>2019-06-01T06:42:31Z</time>
      </trkpt>
      <trkpt lat="42.118304" lon="1.581549">
        <ele>1080.2</ele>
        <time>2019-06-01T06:42:37Z</time>
      </trkpt>
      <trkpt lat="42.118115" lon="1.581736">
        <ele>1079.2</ele>
        <time>2019-06-01T06:42:54Z</time>
      </trkpt>
      <trkpt lat="42.117984" lon="1.581713">
        <ele>1081.1</ele>
        <time>2019-06-01T06:43:05Z</time>
      </trkpt>
      <trkpt lat="42.117972" lon="1.581704">
        <ele>1081.1</ele>
        <time>2019-06-01T06:43:07Z</time>
      </trkpt>
      <trkpt lat="42.117931" lon="1.581667">
        <ele>1082.1</ele>
        <time>2019-06-01T06:43:18Z</time>
      </trkpt>
      <trkpt lat="42.117894" lon="1.581590">
        <ele>1084.0</ele>
        <time>2019-06-01T06:43:28Z</time>
      </trkpt>
      <trkpt lat="42.117841" lon="1.581523">
        <ele>1085.9</ele>
        <time>2019-06-01T06:43:38Z</time>
      </trkpt>
      <trkpt lat="42.117795" lon="1.581443">
        <ele>1088.3</ele>
        <time>2019-06-01T06:43:48Z</time>
      </trkpt>
      <trkpt lat="42.117756" lon="1.581360">
        <ele>1090.3</ele>
        <time>2019-06-01T06:43:59Z</time>
      </trkpt>
      <trkpt lat="42.117714" lon="1.581318">
        <ele>1093.2</ele>
        <time>2019-06-01T06:44:10Z</time>
      </trkpt>
      <trkpt lat="42.117711" lon="1.581313">
        <ele>1093.2</ele>
        <time>2019-06-01T06:44:11Z</time>
      </trkpt>
      <trkpt lat="42.117647" lon="1.581198">
        <ele>1095.6</ele>
        <time>2019-06-01T06:44:22Z</time>
      </trkpt>
      <trkpt lat="42.117600" lon="1.581039">
        <ele>1098.0</ele>
        <time>2019-06-01T06:44:35Z</time>
      </trkpt>
      <trkpt lat="42.117548" lon="1.580941">
        <ele>1099.9</ele>
        <time>2019-06-01T06:44:46Z</time>
      </trkpt>
      <trkpt lat="42.117541" lon="1.580928">
        <ele>1100.4</ele>
        <time>2019-06-01T06:44:47Z</time>
      </trkpt>
      <trkpt lat="42.117500" lon="1.580886">
        <ele>1101.3</ele>
        <time>2019-06-01T06:44:51Z</time>
      </trkpt>
      <trkpt lat="42.117394" lon="1.580905">
        <ele>1103.7</ele>
        <time>2019-06-01T06:45:03Z</time>
      </trkpt>
      <trkpt lat="42.117419" lon="1.580904">
        <ele>1105.2</ele>
        <time>2019-06-01T06:45:10Z</time>
      </trkpt>
      <trkpt lat="42.117390" lon="1.580900">
        <ele>1107.6</ele>
        <time>2019-06-01T06:45:24Z</time>
      </trkpt>
      <trkpt lat="42.117387" lon="1.580899">
        <ele>1108.5</ele>
        <time>2019-06-01T06:45:30Z</time>
      </trkpt>
      <trkpt lat="42.117422" lon="1.580987">
        <ele>1110.5</ele>
        <time>2019-06-01T06:45:43Z</time>
      </trkpt>
      <trkpt lat="42.117380" lon="1.581077">
        <ele>1113.3</ele>
        <time>2019-06-01T06:45:53Z</time>
      </trkpt>
      <trkpt lat="42.117372" lon="1.581099">
        <ele>1115.3</ele>
        <time>2019-06-01T06:46:03Z</time>
      </trkpt>
      <trkpt lat="42.117339" lon="1.581114">
        <ele>1117.2</ele>
        <time>2019-06-01T06:46:13Z</time>
      </trkpt>
      <trkpt lat="42.117361" lon="1.581202">
        <ele>1118.6</ele>
        <time>2019-06-01T06:46:24Z</time>
      </trkpt>
      <trkpt lat="42.117361" lon="1.581208">
        <ele>1119.1</ele>
        <time>2019-06-01T06:46:26Z</time>
      </trkpt>
      <trkpt lat="42.117289" lon="1.581197">
        <ele>1121.5</ele>
        <time>2019-06-01T06:46:38Z</time>
      </trkpt>
      <trkpt lat="42.117214" lon="1.581140">
        <ele>1123.9</ele>
        <time>2019-06-01T06:46:49Z</time>
      </trkpt>
      <trkpt lat="42.117145" lon="1.581058">
        <ele>1126.3</ele>
        <time>2019-06-01T06:47:02Z</time>
      </trkpt>
      <trkpt lat="42.117081" lon="1.580964">
        <ele>1129.7</ele>
        <time>2019-06-01T06:47:15Z</time>
      </trkpt>
      <trkpt lat="42.117041" lon="1.580976">
        <ele>1132.1</ele>
        <time>2019-06-01T06:47:27Z</time>
      </trkpt>
      <trkpt lat="42.117023" lon="1.581061">
        <ele>1135.4</ele>
        <time>2019-06-01T06:47:40Z</time>
      </trkpt>
      <trkpt lat="42.117031" lon="1.581213">
        <ele>1137.4</ele>
        <time>2019-06-01T06:47:51Z</time>
      </trkpt>
      <trkpt lat="42.117065" lon="1.581312">
        <ele>1140.3</ele>
        <time>2019-06-01T06:48:04Z</time>
      </trkpt>
      <trkpt lat="42.117062" lon="1.581318">
        <ele>1140.3</ele>
        <time>2019-06-01T06:48:05Z</time>
      </trkpt>
      <trkpt lat="42.117026" lon="1.581364">
        <ele>1141.7</ele>
        <time>2019-06-01T06:48:16Z</time>
      </trkpt>
      <trkpt lat="42.117035" lon="1.581429">
        <ele>1143.6</ele>
        <time>2019-06-01T06:48:27Z</time>
      </trkpt>
      <trkpt lat="42.117076" lon="1.581500">
        <ele>1146.0</ele>
        <time>2019-06-01T06:48:37Z</time>
      </trkpt>
      <trkpt lat="42.117065" lon="1.581607">
        <ele>1148.9</ele>
        <time>2019-06-01T06:48:50Z</time>
      </trkpt>
      <trkpt lat="42.117046" lon="1.581651">
        <ele>1149.4</ele>
        <time>2019-06-01T06:48:54Z</time>
      </trkpt>
      <trkpt lat="42.117007" lon="1.581640">
        <ele>1149.9</ele>
        <time>2019-06-01T06:48:59Z</time>
      </trkpt>
      <trkpt lat="42.117013" lon="1.581579">
        <ele>1153.2</ele>
        <time>2019-06-01T06:49:07Z</time>
      </trkpt>
      <trkpt lat="42.117009" lon="1.581538">
        <ele>1153.7</ele>
        <time>2019-06-01T06:49:12Z</time>
      </trkpt>
      <trkpt lat="42.116998" lon="1.581526">
        <ele>1155.2</ele>
        <time>2019-06-01T06:49:14Z</time>
      </trkpt>
      <trkpt lat="42.116969" lon="1.581438">
        <ele>1157.6</ele>
        <time>2019-06-01T06:49:23Z</time>
      </trkpt>
      <trkpt lat="42.116954" lon="1.581390">
        <ele>1160.0</ele>
        <time>2019-06-01T06:49:36Z</time>
      </trkpt>
      <trkpt lat="42.116885" lon="1.581359">
        <ele>1162.4</ele>
        <time>2019-06-01T06:49:46Z</time>
      </trkpt>
      <trkpt lat="42.116795" lon="1.581316">
        <ele>1164.8</ele>
        <time>2019-06-01T06:50:00Z</time>
      </trkpt>
      <trkpt lat="42.116769" lon="1.581275">
        <ele>1166.7</ele>
        <time>2019-06-01T06:50:08Z</time>
      </trkpt>
      <trkpt lat="42.116755" lon="1.581332">
        <ele>1167.7</ele>
        <time>2019-06-01T06:50:15Z</time>
      </trkpt>
      <trkpt lat="42.116770" lon="1.581403">
        <ele>1169.1</ele>
        <time>2019-06-01T06:50:23Z</time>
      </trkpt>
      <trkpt lat="42.116696" lon="1.581357">
        <ele>1171.0</ele>
        <time>2019-06-01T06:50:34Z</time>
      </trkpt>
      <trkpt lat="42.116682" lon="1.581311">
        <ele>1172.0</ele>
        <time>2019-06-01T06:50:44Z</time>
      </trkpt>
      <trkpt lat="42.116662" lon="1.581293">
        <ele>1172.9</ele>
        <time>2019-06-01T06:50:48Z</time>
      </trkpt>
      <trkpt lat="42.116618" lon="1.581201">
        <ele>1175.8</ele>
        <time>2019-06-01T06:51:00Z</time>
      </trkpt>
      <trkpt lat="42.116586" lon="1.581187">
        <ele>1177.3</ele>
        <time>2019-06-01T06:51:06Z</time>
      </trkpt>
      <trkpt lat="42.116573" lon="1.581180">
        <ele>1177.3</ele>
        <time>2019-06-01T06:51:10Z</time>
      </trkpt>
      <trkpt lat="42.116554" lon="1.581113">
        <ele>1177.7</ele>
        <time>2019-06-01T06:51:17Z</time>
      </trkpt>
      <trkpt lat="42.116582" lon="1.581018">
        <ele>1177.3</ele>
        <time>2019-06-01T06:51:29Z</time>
      </trkpt>
      <trkpt lat="42.116585" lon="1.581010">
        <ele>1177.3</ele>
        <time>2019-06-01T06:51:41Z</time>
      </trkpt>
      <trkpt lat="42.116587" lon="1.581004">
        <ele>1178.2</ele>
        <time>2019-06-01T06:52:06Z</time>
      </trkpt>
      <trkpt lat="42.116588" lon="1.581001">
        <ele>1177.7</ele>
        <time>2019-06-01T06:52:31Z</time>
      </trkpt>
      <trkpt lat="42.116589" lon="1.580999">
        <ele>1177.3</ele>
        <time>2019-06-01T06:52:54Z</time>
      </trkpt>
      <trkpt lat="42.116591" lon="1.581000">
        <ele>1177.7</ele>
        <time>2019-06-01T06:53:05Z</time>
      </trkpt>
      <trkpt lat="42.116593" lon="1.580991">
        <ele>1177.7</ele>
        <time>2019-06-01T06:53:08Z</time>
      </trkpt>
      <trkpt lat="42.116539" lon="1.581080">
        <ele>1177.3</ele>
        <time>2019-06-01T06:53:20Z</time>
      </trkpt>
      <trkpt lat="42.116505" lon="1.581128">
        <ele>1176.8</ele>
        <time>2019-06-01T06:53:26Z</time>
      </trkpt>
      <trkpt lat="42.116461" lon="1.581155">
        <ele>1176.3</ele>
        <time>2019-06-01T06:53:39Z</time>
      </trkpt>
      <trkpt lat="42.116449" lon="1.581184">
        <ele>1176.3</ele>
        <time>2019-06-01T06:53:42Z</time>
      </trkpt>
      <trkpt lat="42.116421" lon="1.581240">
        <ele>1175.3</ele>
        <time>2019-06-01T06:53:46Z</time>
      </trkpt>
      <trkpt lat="42.116370" lon="1.581383">
        <ele>1173.9</ele>
        <time>2019-06-01T06:53:55Z</time>
      </trkpt>
      <trkpt lat="42.116358" lon="1.581434">
        <ele>1173.4</ele>
        <time>2019-06-01T06:53:58Z</time>
      </trkpt>
      <trkpt lat="42.116299" lon="1.581494">
        <ele>1172.0</ele>
        <time>2019-06-01T06:54:11Z</time>
      </trkpt>
      <trkpt lat="42.116235" lon="1.581532">
        <ele>1170.1</ele>
        <time>2019-06-01T06:54:21Z</time>
      </trkpt>
      <trkpt lat="42.116062" lon="1.581608">
        <ele>1168.6</ele>
        <time>2019-06-01T06:54:32Z</time>
      </trkpt>
      <trkpt lat="42.115912" lon="1.581670">
        <ele>1167.2</ele>
        <time>2019-06-01T06:54:42Z</time>
      </trkpt>
      <trkpt lat="42.115736" lon="1.581772">
        <ele>1164.8</ele>
        <time>2019-06-01T06:54:54Z</time>
      </trkpt>
      <trkpt lat="42.115590" lon="1.581836">
        <ele>1163.3</ele>
        <time>2019-06-01T06:55:04Z</time>
      </trkpt>
      <trkpt lat="42.115519" lon="1.581870">
        <ele>1162.4</ele>
        <time>2019-06-01T06:55:09Z</time>
      </trkpt>
      <trkpt lat="42.115460" lon="1.581913">
        <ele>1161.4</ele>
        <time>2019-06-01T06:55:20Z</time>
      </trkpt>
      <trkpt lat="42.115445" lon="1.582032">
        <ele>1160.9</ele>
        <time>2019-06-01T06:55:29Z</time>
      </trkpt>
      <trkpt lat="42.115440" lon="1.582046">
        <ele>1160.9</ele>
        <time>2019-06-01T06:55:36Z</time>
      </trkpt>
      <trkpt lat="42.115354" lon="1.582031">
        <ele>1160.9</ele>
        <time>2019-06-01T06:55:54Z</time>
      </trkpt>
      <trkpt lat="42.115382" lon="1.581986">
        <ele>1160.9</ele>
        <time>2019-06-01T06:56:06Z</time>
      </trkpt>
      <trkpt lat="42.115342" lon="1.581980">
        <ele>1161.4</ele>
        <time>2019-06-01T06:56:18Z</time>
      </trkpt>
      <trkpt lat="42.115315" lon="1.581991">
        <ele>1161.4</ele>
        <time>2019-06-01T06:56:33Z</time>
      </trkpt>
      <trkpt lat="42.115291" lon="1.582157">
        <ele>1160.4</ele>
        <time>2019-06-01T06:56:43Z</time>
      </trkpt>
      <trkpt lat="42.115259" lon="1.582224">
        <ele>1159.0</ele>
        <time>2019-06-01T06:56:59Z</time>
      </trkpt>
      <trkpt lat="42.115260" lon="1.582358">
        <ele>1158.5</ele>
        <time>2019-06-01T06:57:06Z</time>
      </trkpt>
      <trkpt lat="42.115268" lon="1.582418">
        <ele>1159.0</ele>
        <time>2019-06-01T06:57:10Z</time>
      </trkpt>
      <trkpt lat="42.115327" lon="1.582542">
        <ele>1158.1</ele>
        <time>2019-06-01T06:57:17Z</time>
      </trkpt>
      <trkpt lat="42.115318" lon="1.582685">
        <ele>1156.1</ele>
        <time>2019-06-01T06:57:28Z</time>
      </trkpt>
      <trkpt lat="42.115227" lon="1.582727">
        <ele>1154.2</ele>
        <time>2019-06-01T06:57:37Z</time>
      </trkpt>
      <trkpt lat="42.115169" lon="1.582817">
        <ele>1151.8</ele>
        <time>2019-06-01T06:57:46Z</time>
      </trkpt>
      <trkpt lat="42.115153" lon="1.582890">
        <ele>1150.3</ele>
        <time>2019-06-01T06:57:51Z</time>
      </trkpt>
      <trkpt lat="42.115167" lon="1.582997">
        <ele>1149.9</ele>
        <time>2019-06-01T06:57:57Z</time>
      </trkpt>
      <trkpt lat="42.115170" lon="1.583044">
        <ele>1148.4</ele>
        <time>2019-06-01T06:58:00Z</time>
      </trkpt>
      <trkpt lat="42.115164" lon="1.583289">
        <ele>1145.6</ele>
        <time>2019-06-01T06:58:13Z</time>
      </trkpt>
      <trkpt lat="42.115139" lon="1.583379">
        <ele>1144.6</ele>
        <time>2019-06-01T06:58:18Z</time>
      </trkpt>
      <trkpt lat="42.115030" lon="1.583598">
        <ele>1142.2</ele>
        <time>2019-06-01T06:58:32Z</time>
      </trkpt>
      <trkpt lat="42.114991" lon="1.583653">
        <ele>1141.7</ele>
        <time>2019-06-01T06:58:36Z</time>
      </trkpt>
      <trkpt lat="42.114918" lon="1.583757">
        <ele>1140.7</ele>
        <time>2019-06-01T06:58:44Z</time>
      </trkpt>
      <trkpt lat="42.114888" lon="1.583813">
        <ele>1140.3</ele>
        <time>2019-06-01T06:58:48Z</time>
      </trkpt>
      <trkpt lat="42.114841" lon="1.583893">
        <ele>1139.3</ele>
        <time>2019-06-01T06:58:54Z</time>
      </trkpt>
      <trkpt lat="42.114854" lon="1.583997">
        <ele>1138.3</ele>
        <time>2019-06-01T06:59:02Z</time>
      </trkpt>
      <trkpt lat="42.114885" lon="1.584033">
        <ele>1137.9</ele>
        <time>2019-06-01T06:59:12Z</time>
      </trkpt>
      <trkpt lat="42.114931" lon="1.584055">
        <ele>1137.4</ele>
        <time>2019-06-01T06:59:16Z</time>
      </trkpt>
      <trkpt lat="42.114971" lon="1.584091">
        <ele>1136.9</ele>
        <time>2019-06-01T06:59:20Z</time>
      </trkpt>
      <trkpt lat="42.115031" lon="1.584121">
        <ele>1135.9</ele>
        <time>2019-06-01T06:59:24Z</time>
      </trkpt>
      <trkpt lat="42.115062" lon="1.584186">
        <ele>1135.4</ele>
        <time>2019-06-01T06:59:29Z</time>
      </trkpt>
      <trkpt lat="42.115032" lon="1.584304">
        <ele>1134.0</ele>
        <time>2019-06-01T06:59:36Z</time>
      </trkpt>
      <trkpt lat="42.115009" lon="1.584420">
        <ele>1132.1</ele>
        <time>2019-06-01T06:59:43Z</time>
      </trkpt>
      <trkpt lat="42.114959" lon="1.584503">
        <ele>1131.1</ele>
        <time>2019-06-01T06:59:49Z</time>
      </trkpt>
      <trkpt lat="42.114914" lon="1.584558">
        <ele>1130.7</ele>
        <time>2019-06-01T06:59:54Z</time>
      </trkpt>
      <trkpt lat="42.114869" lon="1.584603">
        <ele>1129.2</ele>
        <time>2019-06-01T06:59:58Z</time>
      </trkpt>
      <trkpt lat="42.114742" lon="1.584775">
        <ele>1127.3</ele>
        <time>2019-06-01T07:00:11Z</time>
      </trkpt>
      <trkpt lat="42.114613" lon="1.585005">
        <ele>1124.9</ele>
        <time>2019-06-01T07:00:26Z</time>
      </trkpt>
      <trkpt lat="42.114474" lon="1.585218">
        <ele>1122.5</ele>
        <time>2019-06-01T07:00:40Z</time>
      </trkpt>
      <trkpt lat="42.114332" lon="1.585391">
        <ele>1119.1</ele>
        <time>2019-06-01T07:00:53Z</time>
      </trkpt>
      <trkpt lat="42.114209" lon="1.585544">
        <ele>1117.2</ele>
        <time>2019-06-01T07:01:05Z</time>
      </trkpt>
      <trkpt lat="42.114174" lon="1.585598">
        <ele>1116.2</ele>
        <time>2019-06-01T07:01:09Z</time>
      </trkpt>
      <trkpt lat="42.113991" lon="1.585754">
        <ele>1112.9</ele>
        <time>2019-06-01T07:01:25Z</time>
      </trkpt>
      <trkpt lat="42.113901" lon="1.585829">
        <ele>1111.4</ele>
        <time>2019-06-01T07:01:33Z</time>
      </trkpt>
      <trkpt lat="42.113850" lon="1.585862">
        <ele>1110.5</ele>
        <time>2019-06-01T07:01:37Z</time>
      </trkpt>
      <trkpt lat="42.113785" lon="1.585937">
        <ele>1109.0</ele>
        <time>2019-06-01T07:01:44Z</time>
      </trkpt>
      <trkpt lat="42.113665" lon="1.586036">
        <ele>1106.6</ele>
        <time>2019-06-01T07:01:57Z</time>
      </trkpt>
      <trkpt lat="42.113654" lon="1.586046">
        <ele>1106.6</ele>
        <time>2019-06-01T07:01:58Z</time>
      </trkpt>
      <trkpt lat="42.113559" lon="1.586219">
        <ele>1103.2</ele>
        <time>2019-06-01T07:02:12Z</time>
      </trkpt>
      <trkpt lat="42.113516" lon="1.586291">
        <ele>1102.3</ele>
        <time>2019-06-01T07:02:17Z</time>
      </trkpt>
      <trkpt lat="42.113453" lon="1.586406">
        <ele>1099.9</ele>
        <time>2019-06-01T07:02:27Z</time>
      </trkpt>
      <trkpt lat="42.113387" lon="1.586502">
        <ele>1099.4</ele>
        <time>2019-06-01T07:02:33Z</time>
      </trkpt>
      <trkpt lat="42.113348" lon="1.586573">
        <ele>1098.4</ele>
        <time>2019-06-01T07:02:37Z</time>
      </trkpt>
      <trkpt lat="42.113294" lon="1.586720">
        <ele>1097.5</ele>
        <time>2019-06-01T07:02:45Z</time>
      </trkpt>
      <trkpt lat="42.113282" lon="1.586749">
        <ele>1097.0</ele>
        <time>2019-06-01T07:02:47Z</time>
      </trkpt>
      <trkpt lat="42.113267" lon="1.586830">
        <ele>1096.0</ele>
        <time>2019-06-01T07:02:51Z</time>
      </trkpt>
      <trkpt lat="42.113228" lon="1.586960">
        <ele>1094.6</ele>
        <time>2019-06-01T07:02:59Z</time>
      </trkpt>
      <trkpt lat="42.113219" lon="1.587027">
        <ele>1094.1</ele>
        <time>2019-06-01T07:03:03Z</time>
      </trkpt>
      <trkpt lat="42.113244" lon="1.587121">
        <ele>1093.2</ele>
        <time>2019-06-01T07:03:18Z</time>
      </trkpt>
      <trkpt lat="42.113270" lon="1.587168">
        <ele>1091.7</ele>
        <time>2019-06-01T07:03:23Z</time>
      </trkpt>
      <trkpt lat="42.113300" lon="1.587209">
        <ele>1091.7</ele>
        <time>2019-06-01T07:03:40Z</time>
      </trkpt>
      <trkpt lat="42.113282" lon="1.587203">
        <ele>1091.2</ele>
        <time>2019-06-01T07:03:56Z</time>
      </trkpt>
      <trkpt lat="42.113273" lon="1.587196">
        <ele>1091.7</ele>
        <time>2019-06-01T07:04:11Z</time>
      </trkpt>
      <trkpt lat="42.113293" lon="1.587219">
        <ele>1091.2</ele>
        <time>2019-06-01T07:04:15Z</time>
      </trkpt>
      <trkpt lat="42.113384" lon="1.587231">
        <ele>1090.3</ele>
        <time>2019-06-01T07:04:23Z</time>
      </trkpt>
      <trkpt lat="42.113411" lon="1.587212">
        <ele>1090.3</ele>
        <time>2019-06-01T07:04:37Z</time>
      </trkpt>
      <trkpt lat="42.113415" lon="1.587212">
        <ele>1089.8</ele>
        <time>2019-06-01T07:04:42Z</time>
      </trkpt>
      <trkpt lat="42.113474" lon="1.587248">
        <ele>1089.3</ele>
        <time>2019-06-01T07:04:52Z</time>
      </trkpt>
      <trkpt lat="42.113489" lon="1.587229">
        <ele>1089.3</ele>
        <time>2019-06-01T07:05:16Z</time>
      </trkpt>
      <trkpt lat="42.113491" lon="1.587212">
        <ele>1089.8</ele>
        <time>2019-06-01T07:05:41Z</time>
      </trkpt>
      <trkpt lat="42.113524" lon="1.587203">
        <ele>1088.3</ele>
        <time>2019-06-01T07:06:04Z</time>
      </trkpt>
      <trkpt lat="42.113598" lon="1.587221">
        <ele>1085.0</ele>
        <time>2019-06-01T07:06:14Z</time>
      </trkpt>
      <trkpt lat="42.113646" lon="1.587195">
        <ele>1083.1</ele>
        <time>2019-06-01T07:06:24Z</time>
      </trkpt>
      <trkpt lat="42.113656" lon="1.587188">
        <ele>1083.1</ele>
        <time>2019-06-01T07:06:26Z</time>
      </trkpt>
      <trkpt lat="42.113686" lon="1.587140">
        <ele>1082.1</ele>
        <time>2019-06-01T07:06:37Z</time>
      </trkpt>
      <trkpt lat="42.113716" lon="1.587108">
        <ele>1081.1</ele>
        <time>2019-06-01T07:06:48Z</time>
      </trkpt>
      <trkpt lat="42.113728" lon="1.587097">
        <ele>1081.1</ele>
        <time>2019-06-01T07:07:08Z</time>
      </trkpt>
      <trkpt lat="42.113734" lon="1.587067">
        <ele>1081.6</ele>
        <time>2019-06-01T07:07:25Z</time>
      </trkpt>
      <trkpt lat="42.113746" lon="1.587007">
        <ele>1080.7</ele>
        <time>2019-06-01T07:07:28Z</time>
      </trkpt>
      <trkpt lat="42.113750" lon="1.586965">
        <ele>1080.2</ele>
        <time>2019-06-01T07:07:31Z</time>
      </trkpt>
      <trkpt lat="42.113739" lon="1.586928">
        <ele>1079.7</ele>
        <time>2019-06-01T07:07:34Z</time>
      </trkpt>
      <trkpt lat="42.113697" lon="1.586880">
        <ele>1078.7</ele>
        <time>2019-06-01T07:07:39Z</time>
      </trkpt>
      <trkpt lat="42.113700" lon="1.586801">
        <ele>1078.3</ele>
        <time>2019-06-01T07:07:43Z</time>
      </trkpt>
      <trkpt lat="42.113704" lon="1.586732">
        <ele>1077.8</ele>
        <time>2019-06-01T07:07:47Z</time>
      </trkpt>
      <trkpt lat="42.113680" lon="1.586688">
        <ele>1077.3</ele>
        <time>2019-06-01T07:07:51Z</time>
      </trkpt>
      <trkpt lat="42.113691" lon="1.586660">
        <ele>1075.8</ele>
        <time>2019-06-01T07:07:58Z</time>
      </trkpt>
      <trkpt lat="42.113731" lon="1.586675">
        <ele>1072.5</ele>
        <time>2019-06-01T07:08:09Z</time>
      </trkpt>
      <trkpt lat="42.113784" lon="1.586634">
        <ele>1071.5</ele>
        <time>2019-06-01T07:08:16Z</time>
      </trkpt>
      <trkpt lat="42.113801" lon="1.586613">
        <ele>1069.1</ele>
        <time>2019-06-01T07:08:26Z</time>
      </trkpt>
      <trkpt lat="42.113827" lon="1.586608">
        <ele>1067.7</ele>
        <time>2019-06-01T07:08:32Z</time>
      </trkpt>
      <trkpt lat="42.113835" lon="1.586596">
        <ele>1067.2</ele>
        <time>2019-06-01T07:08:34Z</time>
      </trkpt>
      <trkpt lat="42.113809" lon="1.586597">
        <ele>1066.2</ele>
        <time>2019-06-01T07:08:43Z</time>
      </trkpt>
      <trkpt lat="42.113851" lon="1.586591">
        <ele>1066.7</ele>
        <time>2019-06-01T07:08:59Z</time>
      </trkpt>
      <trkpt lat="42.113856" lon="1.586589">
        <ele>1064.8</ele>
        <time>2019-06-01T07:09:05Z</time>
      </trkpt>
      <trkpt lat="42.113937" lon="1.586553">
        <ele>1062.4</ele>
        <time>2019-06-01T07:09:14Z</time>
      </trkpt>
      <trkpt lat="42.113965" lon="1.586517">
        <ele>1061.9</ele>
        <time>2019-06-01T07:09:27Z</time>
      </trkpt>
      <trkpt lat="42.113966" lon="1.586516">
        <ele>1062.4</ele>
        <time>2019-06-01T07:09:29Z</time>
      </trkpt>
      <trkpt lat="42.114042" lon="1.586481">
        <ele>1061.4</ele>
        <time>2019-06-01T07:09:43Z</time>
      </trkpt>
      <trkpt lat="42.114042" lon="1.586466">
        <ele>1061.4</ele>
        <time>2019-06-01T07:10:03Z</time>
      </trkpt>
      <trkpt lat="42.114050" lon="1.586468">
        <ele>1061.4</ele>
        <time>2019-06-01T07:10:21Z</time>
      </trkpt>
      <trkpt lat="42.114061" lon="1.586463">
        <ele>1062.4</ele>
        <time>2019-06-01T07:10:43Z</time>
      </trkpt>
      <trkpt lat="42.114113" lon="1.586443">
        <ele>1060.5</ele>
        <time>2019-06-01T07:10:54Z</time>
      </trkpt>
      <trkpt lat="42.114065" lon="1.586477">
        <ele>1057.6</ele>
        <time>2019-06-01T07:11:05Z</time>
      </trkpt>
      <trkpt lat="42.114016" lon="1.586535">
        <ele>1058.1</ele>
        <time>2019-06-01T07:11:16Z</time>
      </trkpt>
      <trkpt lat="42.114013" lon="1.586508">
        <ele>1057.1</ele>
        <time>2019-06-01T07:11:26Z</time>
      </trkpt>
      <trkpt lat="42.114017" lon="1.586509">
        <ele>1054.2</ele>
        <time>2019-06-01T07:11:37Z</time>
      </trkpt>
      <trkpt lat="42.114019" lon="1.586520">
        <ele>1051.8</ele>
        <time>2019-06-01T07:11:46Z</time>
      </trkpt>
      <trkpt lat="42.114041" lon="1.586532">
        <ele>1050.9</ele>
        <time>2019-06-01T07:11:53Z</time>
      </trkpt>
      <trkpt lat="42.114098" lon="1.586601">
        <ele>1048.4</ele>
        <time>2019-06-01T07:12:04Z</time>
      </trkpt>
      <trkpt lat="42.114124" lon="1.586615">
        <ele>1048.4</ele>
        <time>2019-06-01T07:12:07Z</time>
      </trkpt>
      <trkpt lat="42.114283" lon="1.586590">
        <ele>1049.4</ele>
        <time>2019-06-01T07:12:18Z</time>
      </trkpt>
      <trkpt lat="42.114276" lon="1.586792">
        <ele>1048.0</ele>
        <time>2019-06-01T07:12:28Z</time>
      </trkpt>
      <trkpt lat="42.114295" lon="1.586860">
        <ele>1046.5</ele>
        <time>2019-06-01T07:12:34Z</time>
      </trkpt>
      <trkpt lat="42.114281" lon="1.586900">
        <ele>1046.1</ele>
        <time>2019-06-01T07:12:36Z</time>
      </trkpt>
      <trkpt lat="42.114203" lon="1.587104">
        <ele>1044.1</ele>
        <time>2019-06-01T07:12:46Z</time>
      </trkpt>
      <trkpt lat="42.114074" lon="1.587315">
        <ele>1042.7</ele>
        <time>2019-06-01T07:12:53Z</time>
      </trkpt>
      <trkpt lat="42.114022" lon="1.587378">
        <ele>1042.2</ele>
        <time>2019-06-01T07:12:54Z</time>
      </trkpt>
      <trkpt lat="42.113978" lon="1.587437">
        <ele>1042.2</ele>
        <time>2019-06-01T07:12:55Z</time>
      </trkpt>
      <trkpt lat="42.113893" lon="1.587500">
        <ele>1039.8</ele>
        <time>2019-06-01T07:13:03Z</time>
      </trkpt>
      <trkpt lat="42.113845" lon="1.587556">
        <ele>1036.9</ele>
        <time>2019-06-01T07:13:13Z</time>
      </trkpt>
      <trkpt lat="42.113846" lon="1.587554">
        <ele>1036.4</ele>
        <time>2019-06-01T07:13:16Z</time>
      </trkpt>
      <trkpt lat="42.113838" lon="1.587607">
        <ele>1033.6</ele>
        <time>2019-06-01T07:13:25Z</time>
      </trkpt>
      <trkpt lat="42.113800" lon="1.587673">
        <ele>1032.6</ele>
        <time>2019-06-01T07:13:29Z</time>
      </trkpt>
      <trkpt lat="42.113763" lon="1.587706">
        <ele>1032.1</ele>
        <time>2019-06-01T07:13:32Z</time>
      </trkpt>
      <trkpt lat="42.113731" lon="1.587711">
        <ele>1031.6</ele>
        <time>2019-06-01T07:13:34Z</time>
      </trkpt>
      <trkpt lat="42.113603" lon="1.587751">
        <ele>1029.7</ele>
        <time>2019-06-01T07:13:43Z</time>
      </trkpt>
      <trkpt lat="42.113568" lon="1.587802">
        <ele>1027.8</ele>
        <time>2019-06-01T07:13:51Z</time>
      </trkpt>
      <trkpt lat="42.113589" lon="1.587817">
        <ele>1024.9</ele>
        <time>2019-06-01T07:14:01Z</time>
      </trkpt>
      <trkpt lat="42.113565" lon="1.587828">
        <ele>1023.5</ele>
        <time>2019-06-01T07:14:08Z</time>
      </trkpt>
      <trkpt lat="42.113464" lon="1.587831">
        <ele>1023.0</ele>
        <time>2019-06-01T07:14:23Z</time>
      </trkpt>
      <trkpt lat="42.113435" lon="1.587843">
        <ele>1023.9</ele>
        <time>2019-06-01T07:14:27Z</time>
      </trkpt>
      <trkpt lat="42.113445" lon="1.587950">
        <ele>1025.9</ele>
        <time>2019-06-01T07:14:37Z</time>
      </trkpt>
      <trkpt lat="42.113442" lon="1.587961">
        <ele>1026.3</ele>
        <time>2019-06-01T07:14:38Z</time>
      </trkpt>
      <trkpt lat="42.113451" lon="1.587968">
        <ele>1026.8</ele>
        <time>2019-06-01T07:14:40Z</time>
      </trkpt>
      <trkpt lat="42.113475" lon="1.587947">
        <ele>1026.3</ele>
        <time>2019-06-01T07:14:42Z</time>
      </trkpt>
      <trkpt lat="42.113104" lon="1.588281">
        <ele>1026.3</ele>
        <time>2019-06-01T07:14:56Z</time>
      </trkpt>
      <trkpt lat="42.113058" lon="1.588319">
        <ele>1026.8</ele>
        <time>2019-06-01T07:15:32Z</time>
      </trkpt>
      <trkpt lat="42.113062" lon="1.588313">
        <ele>1027.3</ele>
        <time>2019-06-01T07:16:02Z</time>
      </trkpt>
      <trkpt lat="42.113072" lon="1.588328">
        <ele>1027.8</ele>
        <time>2019-06-01T07:16:25Z</time>
      </trkpt>
      <trkpt lat="42.113077" lon="1.588340">
        <ele>1028.3</ele>
        <time>2019-06-01T07:16:43Z</time>
      </trkpt>
      <trkpt lat="42.113097" lon="1.588336">
        <ele>1027.8</ele>
        <time>2019-06-01T07:16:56Z</time>
      </trkpt>
      <trkpt lat="42.113089" lon="1.588297">
        <ele>1027.3</ele>
        <time>2019-06-01T07:17:07Z</time>
      </trkpt>
      <trkpt lat="42.113087" lon="1.588297">
        <ele>1027.8</ele>
        <time>2019-06-01T07:17:28Z</time>
      </trkpt>
      <trkpt lat="42.113080" lon="1.588276">
        <ele>1028.3</ele>
        <time>2019-06-01T07:17:47Z</time>
      </trkpt>
      <trkpt lat="42.113088" lon="1.588238">
        <ele>1028.3</ele>
        <time>2019-06-01T07:18:11Z</time>
      </trkpt>
      <trkpt lat="42.113100" lon="1.588231">
        <ele>1028.3</ele>
        <time>2019-06-01T07:18:31Z</time>
      </trkpt>
      <trkpt lat="42.113112" lon="1.588215">
        <ele>1028.3</ele>
        <time>2019-06-01T07:18:41Z</time>
      </trkpt>
      <trkpt lat="42.113107" lon="1.588208">
        <ele>1027.8</ele>
        <time>2019-06-01T07:19:03Z</time>
      </trkpt>
      <trkpt lat="42.113104" lon="1.588213">
        <ele>1028.3</ele>
        <time>2019-06-01T07:19:21Z</time>
      </trkpt>
      <trkpt lat="42.113100" lon="1.588205">
        <ele>1029.2</ele>
        <time>2019-06-01T07:19:44Z</time>
      </trkpt>
      <trkpt lat="42.113098" lon="1.588193">
        <ele>1027.8</ele>
        <time>2019-06-01T07:20:10Z</time>
      </trkpt>
      <trkpt lat="42.113108" lon="1.588203">
        <ele>1028.7</ele>
        <time>2019-06-01T07:20:31Z</time>
      </trkpt>
      <trkpt lat="42.113092" lon="1.588198">
        <ele>1028.7</ele>
        <time>2019-06-01T07:20:50Z</time>
      </trkpt>
      <trkpt lat="42.113083" lon="1.588207">
        <ele>1028.3</ele>
        <time>2019-06-01T07:21:03Z</time>
      </trkpt>
      <trkpt lat="42.113090" lon="1.588215">
        <ele>1027.8</ele>
        <time>2019-06-01T07:21:22Z</time>
      </trkpt>
      <trkpt lat="42.113112" lon="1.588277">
        <ele>1028.3</ele>
        <time>2019-06-01T07:21:38Z</time>
      </trkpt>
      <trkpt lat="42.113120" lon="1.588228">
        <ele>1027.8</ele>
        <time>2019-06-01T07:21:49Z</time>
      </trkpt>
      <trkpt lat="42.113124" lon="1.588230">
        <ele>1028.3</ele>
        <time>2019-06-01T07:22:10Z</time>
      </trkpt>
      <trkpt lat="42.113143" lon="1.588228">
        <ele>1027.8</ele>
        <time>2019-06-01T07:22:28Z</time>
      </trkpt>
      <trkpt lat="42.113138" lon="1.588241">
        <ele>1027.8</ele>
        <time>2019-06-01T07:22:42Z</time>
      </trkpt>
      <trkpt lat="42.113137" lon="1.588221">
        <ele>1027.8</ele>
        <time>2019-06-01T07:22:59Z</time>
      </trkpt>
      <trkpt lat="42.113129" lon="1.588195">
        <ele>1027.3</ele>
        <time>2019-06-01T07:23:11Z</time>
      </trkpt>
      <trkpt lat="42.113122" lon="1.588194">
        <ele>1027.8</ele>
        <time>2019-06-01T07:23:29Z</time>
      </trkpt>
      <trkpt lat="42.113125" lon="1.588173">
        <ele>1027.3</ele>
        <time>2019-06-01T07:23:40Z</time>
      </trkpt>
      <trkpt lat="42.113141" lon="1.588163">
        <ele>1026.8</ele>
        <time>2019-06-01T07:24:02Z</time>
      </trkpt>
      <trkpt lat="42.113187" lon="1.588064">
        <ele>1023.5</ele>
        <time>2019-06-01T07:24:12Z</time>
      </trkpt>
      <trkpt lat="42.113168" lon="1.588030">
        <ele>1022.0</ele>
        <time>2019-06-01T07:24:18Z</time>
      </trkpt>
      <trkpt lat="42.113179" lon="1.587953">
        <ele>1020.6</ele>
        <time>2019-06-01T07:24:23Z</time>
      </trkpt>
      <trkpt lat="42.113189" lon="1.587894">
        <ele>1017.7</ele>
        <time>2019-06-01T07:24:32Z</time>
      </trkpt>
      <trkpt lat="42.113214" lon="1.587856">
        <ele>1015.8</ele>
        <time>2019-06-01T07:24:41Z</time>
      </trkpt>
      <trkpt lat="42.113224" lon="1.587908">
        <ele>1013.8</ele>
        <time>2019-06-01T07:24:49Z</time>
      </trkpt>
      <trkpt lat="42.113206" lon="1.587993">
        <ele>1012.9</ele>
        <time>2019-06-01T07:25:01Z</time>
      </trkpt>
      <trkpt lat="42.113224" lon="1.588029">
        <ele>1011.4</ele>
        <time>2019-06-01T07:25:19Z</time>
      </trkpt>
      <trkpt lat="42.113227" lon="1.588050">
        <ele>1011.9</ele>
        <time>2019-06-01T07:25:31Z</time>
      </trkpt>
      <trkpt lat="42.113285" lon="1.587985">
        <ele>1010.0</ele>
        <time>2019-06-01T07:25:44Z</time>
      </trkpt>
      <trkpt lat="42.113309" lon="1.587964">
        <ele>1007.1</ele>
        <time>2019-06-01T07:25:54Z</time>
      </trkpt>
      <trkpt lat="42.113361" lon="1.587950">
        <ele>1005.2</ele>
        <time>2019-06-01T07:26:03Z</time>
      </trkpt>
      <trkpt lat="42.113431" lon="1.587898">
        <ele>1004.7</ele>
        <time>2019-06-01T07:26:13Z</time>
      </trkpt>
      <trkpt lat="42.113446" lon="1.587938">
        <ele>1002.3</ele>
        <time>2019-06-01T07:26:24Z</time>
      </trkpt>
      <trkpt lat="42.113464" lon="1.587988">
        <ele>1001.8</ele>
        <time>2019-06-01T07:26:29Z</time>
      </trkpt>
      <trkpt lat="42.113537" lon="1.587932">
        <ele>1003.7</ele>
        <time>2019-06-01T07:26:39Z</time>
      </trkpt>
      <trkpt lat="42.113578" lon="1.587896">
        <ele>1004.7</ele>
        <time>2019-06-01T07:26:43Z</time>
      </trkpt>
      <trkpt lat="42.113688" lon="1.587813">
        <ele>1006.2</ele>
        <time>2019-06-01T07:26:52Z</time>
      </trkpt>
      <trkpt lat="42.113700" lon="1.587784">
        <ele>1006.2</ele>
        <time>2019-06-01T07:26:54Z</time>
      </trkpt>
      <trkpt lat="42.113718" lon="1.587759">
        <ele>1005.7</ele>
        <time>2019-06-01T07:27:05Z</time>
      </trkpt>
      <trkpt lat="42.113819" lon="1.587686">
        <ele>1004.7</ele>
        <time>2019-06-01T07:27:14Z</time>
      </trkpt>
      <trkpt lat="42.113867" lon="1.587678">
        <ele>1005.2</ele>
        <time>2019-06-01T07:27:23Z</time>
      </trkpt>
      <trkpt lat="42.113970" lon="1.587546">
        <ele>1003.7</ele>
        <time>2019-06-01T07:27:35Z</time>
      </trkpt>
      <trkpt lat="42.114068" lon="1.587356">
        <ele>1006.6</ele>
        <time>2019-06-01T07:27:46Z</time>
      </trkpt>
      <trkpt lat="42.114095" lon="1.587269">
        <ele>1007.1</ele>
        <time>2019-06-01T07:27:50Z</time>
      </trkpt>
      <trkpt lat="42.114152" lon="1.587122">
        <ele>1006.6</ele>
        <time>2019-06-01T07:27:57Z</time>
      </trkpt>
      <trkpt lat="42.114143" lon="1.587051">
        <ele>1007.6</ele>
        <time>2019-06-01T07:28:03Z</time>
      </trkpt>
      <trkpt lat="42.114153" lon="1.586997">
        <ele>1008.1</ele>
        <time>2019-06-01T07:28:06Z</time>
      </trkpt>
      <trkpt lat="42.114100" lon="1.586946">
        <ele>1008.6</ele>
        <time>2019-06-01T07:28:17Z</time>
      </trkpt>
      <trkpt lat="42.114098" lon="1.586910">
        <ele>1010.5</ele>
        <time>2019-06-01T07:28:26Z</time>
      </trkpt>
      <trkpt lat="42.114103" lon="1.586831">
        <ele>1012.4</ele>
        <time>2019-06-01T07:28:34Z</time>
      </trkpt>
      <trkpt lat="42.114116" lon="1.586804">
        <ele>1012.9</ele>
        <time>2019-06-01T07:28:43Z</time>
      </trkpt>
      <trkpt lat="42.114114" lon="1.586804">
        <ele>1012.9</ele>
        <time>2019-06-01T07:28:47Z</time>
      </trkpt>
      <trkpt lat="42.114317" lon="1.586675">
        <ele>1012.9</ele>
        <time>2019-06-01T07:28:59Z</time>
      </trkpt>
      <trkpt lat="42.114534" lon="1.586496">
        <ele>1015.3</ele>
        <time>2019-06-01T07:29:09Z</time>
      </trkpt>
      <trkpt lat="42.114543" lon="1.586489">
        <ele>1015.3</ele>
        <time>2019-06-01T07:29:12Z</time>
      </trkpt>
      <trkpt lat="42.114574" lon="1.586448">
        <ele>1017.2</ele>
        <time>2019-06-01T07:29:22Z</time>
      </trkpt>
      <trkpt lat="42.114583" lon="1.586466">
        <ele>1017.2</ele>
        <time>2019-06-01T07:29:32Z</time>
      </trkpt>
      <trkpt lat="42.114588" lon="1.586435">
        <ele>1017.7</ele>
        <time>2019-06-01T07:29:37Z</time>
      </trkpt>
      <trkpt lat="42.114633" lon="1.586301">
        <ele>1019.1</ele>
        <time>2019-06-01T07:29:42Z</time>
      </trkpt>
      <trkpt lat="42.114654" lon="1.586184">
        <ele>1019.6</ele>
        <time>2019-06-01T07:29:51Z</time>
      </trkpt>
      <trkpt lat="42.114689" lon="1.586095">
        <ele>1022.0</ele>
        <time>2019-06-01T07:30:00Z</time>
      </trkpt>
      <trkpt lat="42.114743" lon="1.586028">
        <ele>1022.0</ele>
        <time>2019-06-01T07:30:06Z</time>
      </trkpt>
      <trkpt lat="42.114788" lon="1.585975">
        <ele>1022.0</ele>
        <time>2019-06-01T07:30:09Z</time>
      </trkpt>
      <trkpt lat="42.114803" lon="1.585891">
        <ele>1023.0</ele>
        <time>2019-06-01T07:30:19Z</time>
      </trkpt>
      <trkpt lat="42.114843" lon="1.585824">
        <ele>1021.5</ele>
        <time>2019-06-01T07:30:28Z</time>
      </trkpt>
      <trkpt lat="42.114916" lon="1.585725">
        <ele>1022.0</ele>
        <time>2019-06-01T07:30:37Z</time>
      </trkpt>
      <trkpt lat="42.114998" lon="1.585610">
        <ele>1022.5</ele>
        <time>2019-06-01T07:30:47Z</time>
      </trkpt>
      <trkpt lat="42.114985" lon="1.585602">
        <ele>1024.4</ele>
        <time>2019-06-01T07:30:55Z</time>
      </trkpt>
      <trkpt lat="42.115089" lon="1.585475">
        <ele>1026.3</ele>
        <time>2019-06-01T07:31:04Z</time>
      </trkpt>
      <trkpt lat="42.115123" lon="1.585389">
        <ele>1027.8</ele>
        <time>2019-06-01T07:31:09Z</time>
      </trkpt>
      <trkpt lat="42.115206" lon="1.585317">
        <ele>1029.2</ele>
        <time>2019-06-01T07:31:18Z</time>
      </trkpt>
      <trkpt lat="42.115306" lon="1.585168">
        <ele>1030.7</ele>
        <time>2019-06-01T07:31:27Z</time>
      </trkpt>
      <trkpt lat="42.115380" lon="1.585014">
        <ele>1031.2</ele>
        <time>2019-06-01T07:31:36Z</time>
      </trkpt>
      <trkpt lat="42.115392" lon="1.584993">
        <ele>1032.1</ele>
        <time>2019-06-01T07:31:43Z</time>
      </trkpt>
      <trkpt lat="42.115376" lon="1.584991">
        <ele>1032.6</ele>
        <time>2019-06-01T07:31:49Z</time>
      </trkpt>
      <trkpt lat="42.115489" lon="1.584898">
        <ele>1033.1</ele>
        <time>2019-06-01T07:31:57Z</time>
      </trkpt>
      <trkpt lat="42.115515" lon="1.584819">
        <ele>1034.0</ele>
        <time>2019-06-01T07:32:05Z</time>
      </trkpt>
      <trkpt lat="42.115536" lon="1.584782">
        <ele>1034.5</ele>
        <time>2019-06-01T07:32:06Z</time>
      </trkpt>
      <trkpt lat="42.115647" lon="1.584578">
        <ele>1034.5</ele>
        <time>2019-06-01T07:32:15Z</time>
      </trkpt>
      <trkpt lat="42.115715" lon="1.584417">
        <ele>1036.0</ele>
        <time>2019-06-01T07:32:25Z</time>
      </trkpt>
      <trkpt lat="42.115785" lon="1.584331">
        <ele>1037.9</ele>
        <time>2019-06-01T07:32:34Z</time>
      </trkpt>
      <trkpt lat="42.115804" lon="1.584229">
        <ele>1039.8</ele>
        <time>2019-06-01T07:32:44Z</time>
      </trkpt>
      <trkpt lat="42.115801" lon="1.584194">
        <ele>1041.2</ele>
        <time>2019-06-01T07:32:51Z</time>
      </trkpt>
      <trkpt lat="42.115808" lon="1.584183">
        <ele>1042.2</ele>
        <time>2019-06-01T07:32:53Z</time>
      </trkpt>
      <trkpt lat="42.115874" lon="1.584104">
        <ele>1043.7</ele>
        <time>2019-06-01T07:33:02Z</time>
      </trkpt>
      <trkpt lat="42.115931" lon="1.584036">
        <ele>1046.1</ele>
        <time>2019-06-01T07:33:12Z</time>
      </trkpt>
      <trkpt lat="42.115992" lon="1.583962">
        <ele>1047.5</ele>
        <time>2019-06-01T07:33:22Z</time>
      </trkpt>
      <trkpt lat="42.116028" lon="1.583893">
        <ele>1048.0</ele>
        <time>2019-06-01T07:33:28Z</time>
      </trkpt>
      <trkpt lat="42.116092" lon="1.583826">
        <ele>1048.4</ele>
        <time>2019-06-01T07:33:29Z</time>
      </trkpt>
      <trkpt lat="42.116226" lon="1.583704">
        <ele>1049.4</ele>
        <time>2019-06-01T07:33:37Z</time>
      </trkpt>
      <trkpt lat="42.116309" lon="1.583653">
        <ele>1051.8</ele>
        <time>2019-06-01T07:33:48Z</time>
      </trkpt>
      <trkpt lat="42.116354" lon="1.583613">
        <ele>1054.2</ele>
        <time>2019-06-01T07:33:58Z</time>
      </trkpt>
      <trkpt lat="42.116360" lon="1.583607">
        <ele>1054.7</ele>
        <time>2019-06-01T07:33:59Z</time>
      </trkpt>
      <trkpt lat="42.116375" lon="1.583587">
        <ele>1056.2</ele>
        <time>2019-06-01T07:34:08Z</time>
      </trkpt>
      <trkpt lat="42.116385" lon="1.583557">
        <ele>1056.2</ele>
        <time>2019-06-01T07:34:16Z</time>
      </trkpt>
      <trkpt lat="42.116458" lon="1.583405">
        <ele>1057.6</ele>
        <time>2019-06-01T07:34:27Z</time>
      </trkpt>
      <trkpt lat="42.116422" lon="1.583403">
        <ele>1059.0</ele>
        <time>2019-06-01T07:34:36Z</time>
      </trkpt>
      <trkpt lat="42.116419" lon="1.583381">
        <ele>1059.0</ele>
        <time>2019-06-01T07:34:38Z</time>
      </trkpt>
      <trkpt lat="42.116531" lon="1.583244">
        <ele>1060.9</ele>
        <time>2019-06-01T07:34:52Z</time>
      </trkpt>
      <trkpt lat="42.116549" lon="1.583216">
        <ele>1061.9</ele>
        <time>2019-06-01T07:35:00Z</time>
      </trkpt>
      <trkpt lat="42.116583" lon="1.583180">
        <ele>1062.4</ele>
        <time>2019-06-01T07:35:03Z</time>
      </trkpt>
      <trkpt lat="42.116614" lon="1.583095">
        <ele>1063.4</ele>
        <time>2019-06-01T07:35:14Z</time>
      </trkpt>
      <trkpt lat="42.116666" lon="1.582997">
        <ele>1065.3</ele>
        <time>2019-06-01T07:35:24Z</time>
      </trkpt>
      <trkpt lat="42.116765" lon="1.582893">
        <ele>1066.7</ele>
        <time>2019-06-01T07:35:35Z</time>
      </trkpt>
      <trkpt lat="42.116777" lon="1.582840">
        <ele>1067.7</ele>
        <time>2019-06-01T07:35:44Z</time>
      </trkpt>
      <trkpt lat="42.116862" lon="1.582726">
        <ele>1069.1</ele>
        <time>2019-06-01T07:35:53Z</time>
      </trkpt>
      <trkpt lat="42.116948" lon="1.582584">
        <ele>1070.6</ele>
        <time>2019-06-01T07:36:04Z</time>
      </trkpt>
      <trkpt lat="42.117026" lon="1.582441">
        <ele>1071.5</ele>
        <time>2019-06-01T07:36:15Z</time>
      </trkpt>
      <trkpt lat="42.117068" lon="1.582342">
        <ele>1073.0</ele>
        <time>2019-06-01T07:36:26Z</time>
      </trkpt>
      <trkpt lat="42.117077" lon="1.582328">
        <ele>1072.5</ele>
        <time>2019-06-01T07:36:27Z</time>
      </trkpt>
      <trkpt lat="42.117214" lon="1.582167">
        <ele>1073.9</ele>
        <time>2019-06-01T07:36:37Z</time>
      </trkpt>
      <trkpt lat="42.117267" lon="1.582096">
        <ele>1074.4</ele>
        <time>2019-06-01T07:36:44Z</time>
      </trkpt>
      <trkpt lat="42.117323" lon="1.581979">
        <ele>1076.8</ele>
        <time>2019-06-01T07:36:54Z</time>
      </trkpt>
      <trkpt lat="42.117426" lon="1.581952">
        <ele>1077.3</ele>
        <time>2019-06-01T07:37:06Z</time>
      </trkpt>
      <trkpt lat="42.117451" lon="1.581970">
        <ele>1077.3</ele>
        <time>2019-06-01T07:37:16Z</time>
      </trkpt>
      <trkpt lat="42.117656" lon="1.581871">
        <ele>1076.8</ele>
        <time>2019-06-01T07:37:26Z</time>
      </trkpt>
      <trkpt lat="42.118002" lon="1.581712">
        <ele>1076.3</ele>
        <time>2019-06-01T07:37:42Z</time>
      </trkpt>
      <trkpt lat="42.118113" lon="1.581673">
        <ele>1077.8</ele>
        <time>2019-06-01T07:38:06Z</time>
      </trkpt>
      <trkpt lat="42.118250" lon="1.581631">
        <ele>1077.8</ele>
        <time>2019-06-01T07:38:36Z</time>
      </trkpt>
      <trkpt lat="42.118268" lon="1.581622">
        <ele>1077.8</ele>
        <time>2019-06-01T07:38:57Z</time>
      </trkpt>
      <trkpt lat="42.118323" lon="1.581523">
        <ele>1078.3</ele>
        <time>2019-06-01T07:39:09Z</time>
      </trkpt>
      <trkpt lat="42.118395" lon="1.581450">
        <ele>1079.2</ele>
        <time>2019-06-01T07:39:14Z</time>
      </trkpt>
      <trkpt lat="42.118440" lon="1.581402">
        <ele>1079.2</ele>
        <time>2019-06-01T07:39:18Z</time>
      </trkpt>
      <trkpt lat="42.118492" lon="1.581334">
        <ele>1079.2</ele>
        <time>2019-06-01T07:39:24Z</time>
      </trkpt>
      <trkpt lat="42.118557" lon="1.581260">
        <ele>1080.2</ele>
        <time>2019-06-01T07:39:30Z</time>
      </trkpt>
      <trkpt lat="42.118634" lon="1.581177">
        <ele>1081.1</ele>
        <time>2019-06-01T07:39:37Z</time>
      </trkpt>
      <trkpt lat="42.118689" lon="1.581076">
        <ele>1081.6</ele>
        <time>2019-06-01T07:39:45Z</time>
      </trkpt>
      <trkpt lat="42.118738" lon="1.580984">
        <ele>1082.6</ele>
        <time>2019-06-01T07:39:52Z</time>
      </trkpt>
      <trkpt lat="42.118774" lon="1.580942">
        <ele>1083.5</ele>
        <time>2019-06-01T07:39:56Z</time>
      </trkpt>
      <trkpt lat="42.118915" lon="1.580757">
        <ele>1084.0</ele>
        <time>2019-06-01T07:40:11Z</time>
      </trkpt>
      <trkpt lat="42.118975" lon="1.580593">
        <ele>1085.0</ele>
        <time>2019-06-01T07:40:22Z</time>
      </trkpt>
      <trkpt lat="42.119120" lon="1.580390">
        <ele>1085.5</ele>
        <time>2019-06-01T07:40:36Z</time>
      </trkpt>
      <trkpt lat="42.119289" lon="1.580287">
        <ele>1086.4</ele>
        <time>2019-06-01T07:40:49Z</time>
      </trkpt>
      <trkpt lat="42.119341" lon="1.580211">
        <ele>1086.9</ele>
        <time>2019-06-01T07:40:56Z</time>
      </trkpt>
      <trkpt lat="42.119372" lon="1.580144">
        <ele>1086.9</ele>
        <time>2019-06-01T07:41:01Z</time>
      </trkpt>
      <trkpt lat="42.119409" lon="1.579966">
        <ele>1086.4</ele>
        <time>2019-06-01T07:41:13Z</time>
      </trkpt>
      <trkpt lat="42.119429" lon="1.579730">
        <ele>1086.9</ele>
        <time>2019-06-01T07:41:28Z</time>
      </trkpt>
      <trkpt lat="42.119470" lon="1.579490">
        <ele>1087.4</ele>
        <time>2019-06-01T07:41:38Z</time>
      </trkpt>
      <trkpt lat="42.119575" lon="1.579370">
        <ele>1089.3</ele>
        <time>2019-06-01T07:41:50Z</time>
      </trkpt>
      <trkpt lat="42.119621" lon="1.579384">
        <ele>1091.2</ele>
        <time>2019-06-01T07:42:01Z</time>
      </trkpt>
      <trkpt lat="42.119692" lon="1.579296">
        <ele>1093.6</ele>
        <time>2019-06-01T07:42:12Z</time>
      </trkpt>
      <trkpt lat="42.119750" lon="1.579220">
        <ele>1095.6</ele>
        <time>2019-06-01T07:42:24Z</time>
      </trkpt>
      <trkpt lat="42.119785" lon="1.579154">
        <ele>1098.0</ele>
        <time>2019-06-01T07:42:35Z</time>
      </trkpt>
      <trkpt lat="42.119881" lon="1.579071">
        <ele>1098.9</ele>
        <time>2019-06-01T07:42:46Z</time>
      </trkpt>
      <trkpt lat="42.119951" lon="1.578989">
        <ele>1102.3</ele>
        <time>2019-06-01T07:43:00Z</time>
      </trkpt>
      <trkpt lat="42.119978" lon="1.578975">
        <ele>1103.7</ele>
        <time>2019-06-01T07:43:05Z</time>
      </trkpt>
      <trkpt lat="42.120047" lon="1.578933">
        <ele>1105.2</ele>
        <time>2019-06-01T07:43:17Z</time>
      </trkpt>
      <trkpt lat="42.120156" lon="1.578845">
        <ele>1107.6</ele>
        <time>2019-06-01T07:43:31Z</time>
      </trkpt>
      <trkpt lat="42.120247" lon="1.578862">
        <ele>1110.9</ele>
        <time>2019-06-01T07:43:45Z</time>
      </trkpt>
      <trkpt lat="42.120259" lon="1.578850">
        <ele>1110.9</ele>
        <time>2019-06-01T07:43:47Z</time>
      </trkpt>
      <trkpt lat="42.120349" lon="1.578794">
        <ele>1112.4</ele>
        <time>2019-06-01T07:44:00Z</time>
      </trkpt>
      <trkpt lat="42.120381" lon="1.578773">
        <ele>1113.3</ele>
        <time>2019-06-01T07:44:04Z</time>
      </trkpt>
      <trkpt lat="42.120474" lon="1.578692">
        <ele>1113.3</ele>
        <time>2019-06-01T07:44:15Z</time>
      </trkpt>
      <trkpt lat="42.120565" lon="1.578597">
        <ele>1111.9</ele>
        <time>2019-06-01T07:44:25Z</time>
      </trkpt>
      <trkpt lat="42.120669" lon="1.578550">
        <ele>1112.4</ele>
        <time>2019-06-01T07:44:34Z</time>
      </trkpt>
      <trkpt lat="42.120741" lon="1.578577">
        <ele>1113.8</ele>
        <time>2019-06-01T07:44:39Z</time>
      </trkpt>
      <trkpt lat="42.120880" lon="1.578658">
        <ele>1116.2</ele>
        <time>2019-06-01T07:44:54Z</time>
      </trkpt>
      <trkpt lat="42.120957" lon="1.578679">
        <ele>1115.3</ele>
        <time>2019-06-01T07:45:01Z</time>
      </trkpt>
      <trkpt lat="42.121098" lon="1.578656">
        <ele>1113.3</ele>
        <time>2019-06-01T07:45:13Z</time>
      </trkpt>
      <trkpt lat="42.121105" lon="1.578659">
        <ele>1112.9</ele>
        <time>2019-06-01T07:45:14Z</time>
      </trkpt>
      <trkpt lat="42.121133" lon="1.578651">
        <ele>1112.4</ele>
        <time>2019-06-01T07:45:17Z</time>
      </trkpt>
      <trkpt lat="42.121192" lon="1.578653">
        <ele>1111.9</ele>
        <time>2019-06-01T07:45:30Z</time>
      </trkpt>
      <trkpt lat="42.121202" lon="1.578652">
        <ele>1111.9</ele>
        <time>2019-06-01T07:45:49Z</time>
      </trkpt>
      <trkpt lat="42.121236" lon="1.578676">
        <ele>1112.4</ele>
        <time>2019-06-01T07:45:55Z</time>
      </trkpt>
      <trkpt lat="42.121269" lon="1.578732">
        <ele>1115.3</ele>
        <time>2019-06-01T07:46:07Z</time>
      </trkpt>
      <trkpt lat="42.121320" lon="1.578840">
        <ele>1117.7</ele>
        <time>2019-06-01T07:46:18Z</time>
      </trkpt>
      <trkpt lat="42.121372" lon="1.578928">
        <ele>1120.1</ele>
        <time>2019-06-01T07:46:30Z</time>
      </trkpt>
      <trkpt lat="42.121344" lon="1.578985">
        <ele>1122.0</ele>
        <time>2019-06-01T07:46:42Z</time>
      </trkpt>
      <trkpt lat="42.121246" lon="1.578974">
        <ele>1123.0</ele>
        <time>2019-06-01T07:46:56Z</time>
      </trkpt>
      <trkpt lat="42.121175" lon="1.579010">
        <ele>1125.4</ele>
        <time>2019-06-01T07:47:09Z</time>
      </trkpt>
      <trkpt lat="42.121169" lon="1.579014">
        <ele>1125.8</ele>
        <time>2019-06-01T07:47:10Z</time>
      </trkpt>
      <trkpt lat="42.121097" lon="1.579037">
        <ele>1128.2</ele>
        <time>2019-06-01T07:47:23Z</time>
      </trkpt>
      <trkpt lat="42.121042" lon="1.579063">
        <ele>1130.7</ele>
        <time>2019-06-01T07:47:34Z</time>
      </trkpt>
      <trkpt lat="42.120986" lon="1.579067">
        <ele>1134.0</ele>
        <time>2019-06-01T07:47:46Z</time>
      </trkpt>
      <trkpt lat="42.120897" lon="1.579078">
        <ele>1135.9</ele>
        <time>2019-06-01T07:47:58Z</time>
      </trkpt>
      <trkpt lat="42.120853" lon="1.579164">
        <ele>1138.3</ele>
        <time>2019-06-01T07:48:12Z</time>
      </trkpt>
      <trkpt lat="42.120857" lon="1.579271">
        <ele>1141.2</ele>
        <time>2019-06-01T07:48:25Z</time>
      </trkpt>
      <trkpt lat="42.120818" lon="1.579379">
        <ele>1144.1</ele>
        <time>2019-06-01T07:48:39Z</time>
      </trkpt>
      <trkpt lat="42.120835" lon="1.579406">
        <ele>1144.6</ele>
        <time>2019-06-01T07:48:44Z</time>
      </trkpt>
      <trkpt lat="42.120861" lon="1.579545">
        <ele>1148.4</ele>
        <time>2019-06-01T07:49:00Z</time>
      </trkpt>
      <trkpt lat="42.120916" lon="1.579622">
        <ele>1150.8</ele>
        <time>2019-06-01T07:49:13Z</time>
      </trkpt>
      <trkpt lat="42.120959" lon="1.579708">
        <ele>1153.7</ele>
        <time>2019-06-01T07:49:27Z</time>
      </trkpt>
      <trkpt lat="42.121012" lon="1.579771">
        <ele>1156.6</ele>
        <time>2019-06-01T07:49:40Z</time>
      </trkpt>
      <trkpt lat="42.121094" lon="1.579801">
        <ele>1158.5</ele>
        <time>2019-06-01T07:49:52Z</time>
      </trkpt>
      <trkpt lat="42.121169" lon="1.579866">
        <ele>1160.9</ele>
        <time>2019-06-01T07:50:04Z</time>
      </trkpt>
      <trkpt lat="42.121145" lon="1.579943">
        <ele>1162.8</ele>
        <time>2019-06-01T07:50:16Z</time>
      </trkpt>
      <trkpt lat="42.121104" lon="1.580017">
        <ele>1165.3</ele>
        <time>2019-06-01T07:50:29Z</time>
      </trkpt>
      <trkpt lat="42.121036" lon="1.580137">
        <ele>1167.2</ele>
        <time>2019-06-01T07:50:43Z</time>
      </trkpt>
      <trkpt lat="42.121034" lon="1.580227">
        <ele>1169.6</ele>
        <time>2019-06-01T07:50:55Z</time>
      </trkpt>
      <trkpt lat="42.121059" lon="1.580229">
        <ele>1170.5</ele>
        <time>2019-06-01T07:51:02Z</time>
      </trkpt>
      <trkpt lat="42.121091" lon="1.580333">
        <ele>1172.9</ele>
        <time>2019-06-01T07:51:15Z</time>
      </trkpt>
      <trkpt lat="42.121134" lon="1.580387">
        <ele>1175.3</ele>
        <time>2019-06-01T07:51:26Z</time>
      </trkpt>
      <trkpt lat="42.121149" lon="1.580429">
        <ele>1176.3</ele>
        <time>2019-06-01T07:51:31Z</time>
      </trkpt>
      <trkpt lat="42.121100" lon="1.580556">
        <ele>1178.7</ele>
        <time>2019-06-01T07:51:45Z</time>
      </trkpt>
      <trkpt lat="42.121080" lon="1.580618">
        <ele>1179.7</ele>
        <time>2019-06-01T07:51:50Z</time>
      </trkpt>
      <trkpt lat="42.120977" lon="1.580815">
        <ele>1182.1</ele>
        <time>2019-06-01T07:52:07Z</time>
      </trkpt>
      <trkpt lat="42.120915" lon="1.581003">
        <ele>1184.5</ele>
        <time>2019-06-01T07:52:20Z</time>
      </trkpt>
      <trkpt lat="42.120904" lon="1.581027">
        <ele>1184.5</ele>
        <time>2019-06-01T07:52:22Z</time>
      </trkpt>
      <trkpt lat="42.120893" lon="1.581071">
        <ele>1185.0</ele>
        <time>2019-06-01T07:52:25Z</time>
      </trkpt>
      <trkpt lat="42.120883" lon="1.581116">
        <ele>1185.4</ele>
        <time>2019-06-01T07:52:28Z</time>
      </trkpt>
      <trkpt lat="42.120862" lon="1.581179">
        <ele>1185.4</ele>
        <time>2019-06-01T07:52:32Z</time>
      </trkpt>
      <trkpt lat="42.120781" lon="1.581374">
        <ele>1186.4</ele>
        <time>2019-06-01T07:52:46Z</time>
      </trkpt>
      <trkpt lat="42.120756" lon="1.581503">
        <ele>1187.8</ele>
        <time>2019-06-01T07:52:55Z</time>
      </trkpt>
      <trkpt lat="42.120730" lon="1.581538">
        <ele>1187.4</ele>
        <time>2019-06-01T07:52:58Z</time>
      </trkpt>
      <trkpt lat="42.120708" lon="1.581582">
        <ele>1187.4</ele>
        <time>2019-06-01T07:53:01Z</time>
      </trkpt>
      <trkpt lat="42.120635" lon="1.581624">
        <ele>1186.9</ele>
        <time>2019-06-01T07:53:07Z</time>
      </trkpt>
      <trkpt lat="42.120539" lon="1.581885">
        <ele>1186.9</ele>
        <time>2019-06-01T07:53:23Z</time>
      </trkpt>
      <trkpt lat="42.120480" lon="1.582126">
        <ele>1188.3</ele>
        <time>2019-06-01T07:53:36Z</time>
      </trkpt>
      <trkpt lat="42.120439" lon="1.582352">
        <ele>1189.3</ele>
        <time>2019-06-01T07:53:50Z</time>
      </trkpt>
      <trkpt lat="42.120404" lon="1.582550">
        <ele>1190.7</ele>
        <time>2019-06-01T07:54:02Z</time>
      </trkpt>
      <trkpt lat="42.120411" lon="1.582588">
        <ele>1191.2</ele>
        <time>2019-06-01T07:54:04Z</time>
      </trkpt>
      <trkpt lat="42.120437" lon="1.582671">
        <ele>1192.2</ele>
        <time>2019-06-01T07:54:09Z</time>
      </trkpt>
      <trkpt lat="42.120493" lon="1.582798">
        <ele>1192.2</ele>
        <time>2019-06-01T07:54:17Z</time>
      </trkpt>
      <trkpt lat="42.120515" lon="1.582857">
        <ele>1191.7</ele>
        <time>2019-06-01T07:54:21Z</time>
      </trkpt>
      <trkpt lat="42.120528" lon="1.582953">
        <ele>1191.7</ele>
        <time>2019-06-01T07:54:27Z</time>
      </trkpt>
      <trkpt lat="42.120528" lon="1.583002">
        <ele>1190.7</ele>
        <time>2019-06-01T07:54:31Z</time>
      </trkpt>
      <trkpt lat="42.120528" lon="1.583036">
        <ele>1190.2</ele>
        <time>2019-06-01T07:54:33Z</time>
      </trkpt>
      <trkpt lat="42.120544" lon="1.583152">
        <ele>1188.3</ele>
        <time>2019-06-01T07:54:38Z</time>
      </trkpt>
      <trkpt lat="42.120560" lon="1.583194">
        <ele>1186.9</ele>
        <time>2019-06-01T07:54:41Z</time>
      </trkpt>
      <trkpt lat="42.120566" lon="1.583219">
        <ele>1186.4</ele>
        <time>2019-06-01T07:54:43Z</time>
      </trkpt>
      <trkpt lat="42.120589" lon="1.583380">
        <ele>1183.5</ele>
        <time>2019-06-01T07:54:53Z</time>
      </trkpt>
      <trkpt lat="42.120613" lon="1.583603">
        <ele>1181.6</ele>
        <time>2019-06-01T07:55:05Z</time>
      </trkpt>
      <trkpt lat="42.120628" lon="1.583700">
        <ele>1182.1</ele>
        <time>2019-06-01T07:55:10Z</time>
      </trkpt>
      <trkpt lat="42.120648" lon="1.583756">
        <ele>1183.0</ele>
        <time>2019-06-01T07:55:14Z</time>
      </trkpt>
      <trkpt lat="42.120703" lon="1.583851">
        <ele>1185.9</ele>
        <time>2019-06-01T07:55:24Z</time>
      </trkpt>
      <trkpt lat="42.120748" lon="1.583899">
        <ele>1187.4</ele>
        <time>2019-06-01T07:55:30Z</time>
      </trkpt>
      <trkpt lat="42.120777" lon="1.583934">
        <ele>1188.8</ele>
        <time>2019-06-01T07:55:34Z</time>
      </trkpt>
      <trkpt lat="42.120840" lon="1.584014">
        <ele>1189.8</ele>
        <time>2019-06-01T07:55:46Z</time>
      </trkpt>
      <trkpt lat="42.120859" lon="1.584030">
        <ele>1190.2</ele>
        <time>2019-06-01T07:56:03Z</time>
      </trkpt>
      <trkpt lat="42.120862" lon="1.584030">
        <ele>1190.2</ele>
        <time>2019-06-01T07:56:20Z</time>
      </trkpt>
      <trkpt lat="42.120867" lon="1.584033">
        <ele>1189.3</ele>
        <time>2019-06-01T07:56:36Z</time>
      </trkpt>
      <trkpt lat="42.120864" lon="1.584038">
        <ele>1189.3</ele>
        <time>2019-06-01T07:56:54Z</time>
      </trkpt>
      <trkpt lat="42.120870" lon="1.584035">
        <ele>1189.3</ele>
        <time>2019-06-01T07:57:36Z</time>
      </trkpt>
      <trkpt lat="42.120864" lon="1.584031">
        <ele>1189.3</ele>
        <time>2019-06-01T07:58:21Z</time>
      </trkpt>
      <trkpt lat="42.120865" lon="1.584036">
        <ele>1188.8</ele>
        <time>2019-06-01T07:59:10Z</time>
      </trkpt>
      <trkpt lat="42.120870" lon="1.584029">
        <ele>1189.3</ele>
        <time>2019-06-01T07:59:55Z</time>
      </trkpt>
      <trkpt lat="42.120885" lon="1.584030">
        <ele>1190.7</ele>
        <time>2019-06-01T08:00:16Z</time>
      </trkpt>
      <trkpt lat="42.120945" lon="1.583930">
        <ele>1193.1</ele>
        <time>2019-06-01T08:00:29Z</time>
      </trkpt>
      <trkpt lat="42.120974" lon="1.583864">
        <ele>1194.6</ele>
        <time>2019-06-01T08:00:42Z</time>
      </trkpt>
      <trkpt lat="42.120980" lon="1.583851">
        <ele>1194.6</ele>
        <time>2019-06-01T08:00:55Z</time>
      </trkpt>
      <trkpt lat="42.120985" lon="1.583849">
        <ele>1195.1</ele>
        <time>2019-06-01T08:01:14Z</time>
      </trkpt>
      <trkpt lat="42.120999" lon="1.583812">
        <ele>1196.5</ele>
        <time>2019-06-01T08:01:19Z</time>
      </trkpt>
      <trkpt lat="42.121020" lon="1.583740">
        <ele>1198.4</ele>
        <time>2019-06-01T08:01:32Z</time>
      </trkpt>
      <trkpt lat="42.121048" lon="1.583686">
        <ele>1200.8</ele>
        <time>2019-06-01T08:01:46Z</time>
      </trkpt>
      <trkpt lat="42.121081" lon="1.583604">
        <ele>1204.2</ele>
        <time>2019-06-01T08:01:57Z</time>
      </trkpt>
      <trkpt lat="42.121118" lon="1.583554">
        <ele>1206.1</ele>
        <time>2019-06-01T08:02:08Z</time>
      </trkpt>
      <trkpt lat="42.121177" lon="1.583529">
        <ele>1209.0</ele>
        <time>2019-06-01T08:02:20Z</time>
      </trkpt>
      <trkpt lat="42.121203" lon="1.583456">
        <ele>1211.9</ele>
        <time>2019-06-01T08:02:31Z</time>
      </trkpt>
      <trkpt lat="42.121206" lon="1.583381">
        <ele>1213.8</ele>
        <time>2019-06-01T08:02:42Z</time>
      </trkpt>
      <trkpt lat="42.121204" lon="1.583261">
        <ele>1216.2</ele>
        <time>2019-06-01T08:02:54Z</time>
      </trkpt>
      <trkpt lat="42.121198" lon="1.583183">
        <ele>1218.1</ele>
        <time>2019-06-01T08:03:05Z</time>
      </trkpt>
      <trkpt lat="42.121252" lon="1.583181">
        <ele>1221.0</ele>
        <time>2019-06-01T08:03:18Z</time>
      </trkpt>
      <trkpt lat="42.121316" lon="1.583169">
        <ele>1223.9</ele>
        <time>2019-06-01T08:03:30Z</time>
      </trkpt>
      <trkpt lat="42.121392" lon="1.583108">
        <ele>1225.8</ele>
        <time>2019-06-01T08:03:41Z</time>
      </trkpt>
      <trkpt lat="42.121480" lon="1.583035">
        <ele>1227.7</ele>
        <time>2019-06-01T08:03:53Z</time>
      </trkpt>
      <trkpt lat="42.121563" lon="1.582944">
        <ele>1229.2</ele>
        <time>2019-06-01T08:04:05Z</time>
      </trkpt>
      <trkpt lat="42.121656" lon="1.582858">
        <ele>1231.1</ele>
        <time>2019-06-01T08:04:16Z</time>
      </trkpt>
      <trkpt lat="42.121703" lon="1.582770">
        <ele>1232.6</ele>
        <time>2019-06-01T08:04:23Z</time>
      </trkpt>
      <trkpt lat="42.121785" lon="1.582646">
        <ele>1234.5</ele>
        <time>2019-06-01T08:04:35Z</time>
      </trkpt>
      <trkpt lat="42.121815" lon="1.582618">
        <ele>1235.4</ele>
        <time>2019-06-01T08:04:39Z</time>
      </trkpt>
      <trkpt lat="42.121925" lon="1.582537">
        <ele>1235.9</ele>
        <time>2019-06-01T08:04:50Z</time>
      </trkpt>
      <trkpt lat="42.121928" lon="1.582537">
        <ele>1235.9</ele>
        <time>2019-06-01T08:04:52Z</time>
      </trkpt>
      <trkpt lat="42.122022" lon="1.582446">
        <ele>1236.9</ele>
        <time>2019-06-01T08:05:00Z</time>
      </trkpt>
      <trkpt lat="42.122069" lon="1.582399">
        <ele>1236.9</ele>
        <time>2019-06-01T08:05:04Z</time>
      </trkpt>
      <trkpt lat="42.122095" lon="1.582366">
        <ele>1236.4</ele>
        <time>2019-06-01T08:05:08Z</time>
      </trkpt>
      <trkpt lat="42.122120" lon="1.582272">
        <ele>1234.9</ele>
        <time>2019-06-01T08:05:13Z</time>
      </trkpt>
      <trkpt lat="42.122128" lon="1.582230">
        <ele>1234.5</ele>
        <time>2019-06-01T08:05:15Z</time>
      </trkpt>
      <trkpt lat="42.122137" lon="1.582098">
        <ele>1232.1</ele>
        <time>2019-06-01T08:05:27Z</time>
      </trkpt>
      <trkpt lat="42.122141" lon="1.582066">
        <ele>1231.1</ele>
        <time>2019-06-01T08:05:30Z</time>
      </trkpt>
      <trkpt lat="42.122190" lon="1.581948">
        <ele>1228.2</ele>
        <time>2019-06-01T08:05:40Z</time>
      </trkpt>
      <trkpt lat="42.122285" lon="1.581859">
        <ele>1224.9</ele>
        <time>2019-06-01T08:05:49Z</time>
      </trkpt>
      <trkpt lat="42.122389" lon="1.581785">
        <ele>1222.9</ele>
        <time>2019-06-01T08:05:58Z</time>
      </trkpt>
      <trkpt lat="42.122425" lon="1.581757">
        <ele>1222.0</ele>
        <time>2019-06-01T08:06:01Z</time>
      </trkpt>
      <trkpt lat="42.122475" lon="1.581654">
        <ele>1220.5</ele>
        <time>2019-06-01T08:06:07Z</time>
      </trkpt>
      <trkpt lat="42.122509" lon="1.581580">
        <ele>1218.1</ele>
        <time>2019-06-01T08:06:13Z</time>
      </trkpt>
      <trkpt lat="42.122525" lon="1.581520">
        <ele>1216.7</ele>
        <time>2019-06-01T08:06:17Z</time>
      </trkpt>
      <trkpt lat="42.122560" lon="1.581407">
        <ele>1214.8</ele>
        <time>2019-06-01T08:06:23Z</time>
      </trkpt>
      <trkpt lat="42.122582" lon="1.581357">
        <ele>1213.8</ele>
        <time>2019-06-01T08:06:27Z</time>
      </trkpt>
      <trkpt lat="42.122620" lon="1.581305">
        <ele>1212.4</ele>
        <time>2019-06-01T08:06:32Z</time>
      </trkpt>
      <trkpt lat="42.122641" lon="1.581241">
        <ele>1210.9</ele>
        <time>2019-06-01T08:06:36Z</time>
      </trkpt>
      <trkpt lat="42.122655" lon="1.581172">
        <ele>1209.0</ele>
        <time>2019-06-01T08:06:41Z</time>
      </trkpt>
      <trkpt lat="42.122678" lon="1.581110">
        <ele>1207.6</ele>
        <time>2019-06-01T08:06:45Z</time>
      </trkpt>
      <trkpt lat="42.122689" lon="1.580973">
        <ele>1206.1</ele>
        <time>2019-06-01T08:06:52Z</time>
      </trkpt>
      <trkpt lat="42.122724" lon="1.580880">
        <ele>1205.2</ele>
        <time>2019-06-01T08:07:00Z</time>
      </trkpt>
      <trkpt lat="42.122807" lon="1.580731">
        <ele>1206.1</ele>
        <time>2019-06-01T08:07:12Z</time>
      </trkpt>
      <trkpt lat="42.122922" lon="1.580540">
        <ele>1206.6</ele>
        <time>2019-06-01T08:07:23Z</time>
      </trkpt>
      <trkpt lat="42.123092" lon="1.580345">
        <ele>1208.5</ele>
        <time>2019-06-01T08:07:37Z</time>
      </trkpt>
      <trkpt lat="42.123125" lon="1.580307">
        <ele>1209.0</ele>
        <time>2019-06-01T08:07:41Z</time>
      </trkpt>
      <trkpt lat="42.123144" lon="1.580231">
        <ele>1209.5</ele>
        <time>2019-06-01T08:07:45Z</time>
      </trkpt>
      <trkpt lat="42.123261" lon="1.580009">
        <ele>1209.0</ele>
        <time>2019-06-01T08:08:00Z</time>
      </trkpt>
      <trkpt lat="42.123371" lon="1.579799">
        <ele>1207.6</ele>
        <time>2019-06-01T08:08:13Z</time>
      </trkpt>
      <trkpt lat="42.123389" lon="1.579768">
        <ele>1207.1</ele>
        <time>2019-06-01T08:08:15Z</time>
      </trkpt>
      <trkpt lat="42.123410" lon="1.579733">
        <ele>1206.6</ele>
        <time>2019-06-01T08:08:18Z</time>
      </trkpt>
      <trkpt lat="42.123508" lon="1.579501">
        <ele>1205.6</ele>
        <time>2019-06-01T08:08:31Z</time>
      </trkpt>
      <trkpt lat="42.123594" lon="1.579339">
        <ele>1204.7</ele>
        <time>2019-06-01T08:08:43Z</time>
      </trkpt>
      <trkpt lat="42.123710" lon="1.579125">
        <ele>1202.7</ele>
        <time>2019-06-01T08:08:57Z</time>
      </trkpt>
      <trkpt lat="42.123805" lon="1.578995">
        <ele>1199.4</ele>
        <time>2019-06-01T08:09:10Z</time>
      </trkpt>
      <trkpt lat="42.123843" lon="1.578945">
        <ele>1197.9</ele>
        <time>2019-06-01T08:09:15Z</time>
      </trkpt>
      <trkpt lat="42.123979" lon="1.578779">
        <ele>1195.1</ele>
        <time>2019-06-01T08:09:28Z</time>
      </trkpt>
      <trkpt lat="42.124028" lon="1.578757">
        <ele>1194.1</ele>
        <time>2019-06-01T08:09:32Z</time>
      </trkpt>
      <trkpt lat="42.124123" lon="1.578659">
        <ele>1192.7</ele>
        <time>2019-06-01T08:09:39Z</time>
      </trkpt>
      <trkpt lat="42.124267" lon="1.578591">
        <ele>1191.2</ele>
        <time>2019-06-01T08:09:50Z</time>
      </trkpt>
      <trkpt lat="42.124351" lon="1.578493">
        <ele>1189.8</ele>
        <time>2019-06-01T08:10:00Z</time>
      </trkpt>
      <trkpt lat="42.124385" lon="1.578464">
        <ele>1189.8</ele>
        <time>2019-06-01T08:10:03Z</time>
      </trkpt>
      <trkpt lat="42.124575" lon="1.578301">
        <ele>1187.4</ele>
        <time>2019-06-01T08:10:18Z</time>
      </trkpt>
      <trkpt lat="42.124583" lon="1.578294">
        <ele>1187.4</ele>
        <time>2019-06-01T08:10:19Z</time>
      </trkpt>
      <trkpt lat="42.124678" lon="1.578201">
        <ele>1185.0</ele>
        <time>2019-06-01T08:10:29Z</time>
      </trkpt>
      <trkpt lat="42.124744" lon="1.578150">
        <ele>1183.0</ele>
        <time>2019-06-01T08:10:35Z</time>
      </trkpt>
      <trkpt lat="42.124866" lon="1.578181">
        <ele>1181.6</ele>
        <time>2019-06-01T08:10:47Z</time>
      </trkpt>
      <trkpt lat="42.124963" lon="1.578111">
        <ele>1180.6</ele>
        <time>2019-06-01T08:10:58Z</time>
      </trkpt>
      <trkpt lat="42.124975" lon="1.578115">
        <ele>1180.6</ele>
        <time>2019-06-01T08:11:00Z</time>
      </trkpt>
      <trkpt lat="42.124984" lon="1.578109">
        <ele>1180.6</ele>
        <time>2019-06-01T08:11:05Z</time>
      </trkpt>
      <trkpt lat="42.125006" lon="1.578079">
        <ele>1180.2</ele>
        <time>2019-06-01T08:11:08Z</time>
      </trkpt>
      <trkpt lat="42.125086" lon="1.578014">
        <ele>1178.2</ele>
        <time>2019-06-01T08:11:21Z</time>
      </trkpt>
      <trkpt lat="42.125096" lon="1.577994">
        <ele>1177.7</ele>
        <time>2019-06-01T08:11:33Z</time>
      </trkpt>
      <trkpt lat="42.125106" lon="1.577969">
        <ele>1177.7</ele>
        <time>2019-06-01T08:11:35Z</time>
      </trkpt>
      <trkpt lat="42.125143" lon="1.577897">
        <ele>1175.8</ele>
        <time>2019-06-01T08:11:42Z</time>
      </trkpt>
      <trkpt lat="42.125158" lon="1.577827">
        <ele>1174.4</ele>
        <time>2019-06-01T08:11:47Z</time>
      </trkpt>
      <trkpt lat="42.125173" lon="1.577775">
        <ele>1172.9</ele>
        <time>2019-06-01T08:11:51Z</time>
      </trkpt>
      <trkpt lat="42.125186" lon="1.577695">
        <ele>1170.1</ele>
        <time>2019-06-01T08:12:00Z</time>
      </trkpt>
      <trkpt lat="42.125190" lon="1.577677">
        <ele>1169.1</ele>
        <time>2019-06-01T08:12:02Z</time>
      </trkpt>
      <trkpt lat="42.125213" lon="1.577613">
        <ele>1167.2</ele>
        <time>2019-06-01T08:12:08Z</time>
      </trkpt>
      <trkpt lat="42.125251" lon="1.577534">
        <ele>1166.2</ele>
        <time>2019-06-01T08:12:13Z</time>
      </trkpt>
      <trkpt lat="42.125255" lon="1.577427">
        <ele>1163.8</ele>
        <time>2019-06-01T08:12:20Z</time>
      </trkpt>
      <trkpt lat="42.125235" lon="1.577364">
        <ele>1162.8</ele>
        <time>2019-06-01T08:12:24Z</time>
      </trkpt>
      <trkpt lat="42.125225" lon="1.577329">
        <ele>1161.9</ele>
        <time>2019-06-01T08:12:26Z</time>
      </trkpt>
      <trkpt lat="42.125243" lon="1.577183">
        <ele>1158.1</ele>
        <time>2019-06-01T08:12:36Z</time>
      </trkpt>
      <trkpt lat="42.125251" lon="1.577160">
        <ele>1158.1</ele>
        <time>2019-06-01T08:12:38Z</time>
      </trkpt>
      <trkpt lat="42.125239" lon="1.577136">
        <ele>1157.1</ele>
        <time>2019-06-01T08:12:40Z</time>
      </trkpt>
      <trkpt lat="42.125242" lon="1.577090">
        <ele>1156.6</ele>
        <time>2019-06-01T08:12:46Z</time>
      </trkpt>
      <trkpt lat="42.125219" lon="1.577094">
        <ele>1155.6</ele>
        <time>2019-06-01T08:12:49Z</time>
      </trkpt>
      <trkpt lat="42.125155" lon="1.577056">
        <ele>1154.2</ele>
        <time>2019-06-01T08:12:56Z</time>
      </trkpt>
      <trkpt lat="42.125153" lon="1.576959">
        <ele>1150.8</ele>
        <time>2019-06-01T08:13:08Z</time>
      </trkpt>
      <trkpt lat="42.125168" lon="1.576921">
        <ele>1149.4</ele>
        <time>2019-06-01T08:13:13Z</time>
      </trkpt>
      <trkpt lat="42.125168" lon="1.576892">
        <ele>1148.9</ele>
        <time>2019-06-01T08:13:15Z</time>
      </trkpt>
      <trkpt lat="42.125166" lon="1.576814">
        <ele>1146.0</ele>
        <time>2019-06-01T08:13:26Z</time>
      </trkpt>
      <trkpt lat="42.125173" lon="1.576755">
        <ele>1146.0</ele>
        <time>2019-06-01T08:13:36Z</time>
      </trkpt>
      <trkpt lat="42.125168" lon="1.576771">
        <ele>1147.0</ele>
        <time>2019-06-01T08:13:47Z</time>
      </trkpt>
      <trkpt lat="42.125170" lon="1.576742">
        <ele>1146.0</ele>
        <time>2019-06-01T08:13:56Z</time>
      </trkpt>
      <trkpt lat="42.125174" lon="1.576707">
        <ele>1146.0</ele>
        <time>2019-06-01T08:14:08Z</time>
      </trkpt>
      <trkpt lat="42.125180" lon="1.576707">
        <ele>1146.0</ele>
        <time>2019-06-01T08:14:13Z</time>
      </trkpt>
      <trkpt lat="42.125177" lon="1.576715">
        <ele>1146.0</ele>
        <time>2019-06-01T08:14:22Z</time>
      </trkpt>
      <trkpt lat="42.125190" lon="1.576711">
        <ele>1145.6</ele>
        <time>2019-06-01T08:14:33Z</time>
      </trkpt>
      <trkpt lat="42.125196" lon="1.576694">
        <ele>1146.0</ele>
        <time>2019-06-01T08:14:43Z</time>
      </trkpt>
      <trkpt lat="42.125198" lon="1.576692">
        <ele>1146.0</ele>
        <time>2019-06-01T08:14:45Z</time>
      </trkpt>
      <trkpt lat="42.125196" lon="1.576712">
        <ele>1146.0</ele>
        <time>2019-06-01T08:14:58Z</time>
      </trkpt>
      <trkpt lat="42.125206" lon="1.576710">
        <ele>1146.0</ele>
        <time>2019-06-01T08:15:13Z</time>
      </trkpt>
      <trkpt lat="42.125208" lon="1.576709">
        <ele>1146.0</ele>
        <time>2019-06-01T08:15:16Z</time>
      </trkpt>
      <trkpt lat="42.125213" lon="1.576691">
        <ele>1146.0</ele>
        <time>2019-06-01T08:15:22Z</time>
      </trkpt>
      <trkpt lat="42.125227" lon="1.576618">
        <ele>1143.1</ele>
        <time>2019-06-01T08:15:33Z</time>
      </trkpt>
      <trkpt lat="42.125236" lon="1.576579">
        <ele>1142.7</ele>
        <time>2019-06-01T08:15:37Z</time>
      </trkpt>
      <trkpt lat="42.125255" lon="1.576524">
        <ele>1140.3</ele>
        <time>2019-06-01T08:15:42Z</time>
      </trkpt>
      <trkpt lat="42.125374" lon="1.576513">
        <ele>1138.3</ele>
        <time>2019-06-01T08:15:54Z</time>
      </trkpt>
      <trkpt lat="42.125431" lon="1.576512">
        <ele>1136.4</ele>
        <time>2019-06-01T08:16:05Z</time>
      </trkpt>
      <trkpt lat="42.125439" lon="1.576505">
        <ele>1136.9</ele>
        <time>2019-06-01T08:16:06Z</time>
      </trkpt>
      <trkpt lat="42.125462" lon="1.576499">
        <ele>1135.0</ele>
        <time>2019-06-01T08:16:17Z</time>
      </trkpt>
      <trkpt lat="42.125445" lon="1.576514">
        <ele>1136.9</ele>
        <time>2019-06-01T08:16:27Z</time>
      </trkpt>
      <trkpt lat="42.125471" lon="1.576500">
        <ele>1136.4</ele>
        <time>2019-06-01T08:16:38Z</time>
      </trkpt>
      <trkpt lat="42.125468" lon="1.576515">
        <ele>1137.4</ele>
        <time>2019-06-01T08:16:49Z</time>
      </trkpt>
      <trkpt lat="42.125474" lon="1.576499">
        <ele>1136.4</ele>
        <time>2019-06-01T08:17:01Z</time>
      </trkpt>
      <trkpt lat="42.125482" lon="1.576509">
        <ele>1136.4</ele>
        <time>2019-06-01T08:17:04Z</time>
      </trkpt>
      <trkpt lat="42.125495" lon="1.576522">
        <ele>1136.9</ele>
        <time>2019-06-01T08:17:06Z</time>
      </trkpt>
      <trkpt lat="42.125544" lon="1.576566">
        <ele>1138.3</ele>
        <time>2019-06-01T08:17:16Z</time>
      </trkpt>
      <trkpt lat="42.125548" lon="1.576609">
        <ele>1140.3</ele>
        <time>2019-06-01T08:17:23Z</time>
      </trkpt>
      <trkpt lat="42.125570" lon="1.576731">
        <ele>1143.1</ele>
        <time>2019-06-01T08:17:35Z</time>
      </trkpt>
      <trkpt lat="42.125594" lon="1.576871">
        <ele>1146.0</ele>
        <time>2019-06-01T08:17:47Z</time>
      </trkpt>
      <trkpt lat="42.125582" lon="1.576913">
        <ele>1147.0</ele>
        <time>2019-06-01T08:17:50Z</time>
      </trkpt>
      <trkpt lat="42.125584" lon="1.577011">
        <ele>1147.9</ele>
        <time>2019-06-01T08:17:57Z</time>
      </trkpt>
      <trkpt lat="42.125575" lon="1.577032">
        <ele>1147.5</ele>
        <time>2019-06-01T08:17:59Z</time>
      </trkpt>
      <trkpt lat="42.125580" lon="1.577107">
        <ele>1147.9</ele>
        <time>2019-06-01T08:18:05Z</time>
      </trkpt>
      <trkpt lat="42.125593" lon="1.577130">
        <ele>1147.5</ele>
        <time>2019-06-01T08:18:07Z</time>
      </trkpt>
      <trkpt lat="42.125606" lon="1.577160">
        <ele>1146.5</ele>
        <time>2019-06-01T08:18:10Z</time>
      </trkpt>
      <trkpt lat="42.125624" lon="1.577204">
        <ele>1145.6</ele>
        <time>2019-06-01T08:18:13Z</time>
      </trkpt>
      <trkpt lat="42.125647" lon="1.577257">
        <ele>1145.1</ele>
        <time>2019-06-01T08:18:16Z</time>
      </trkpt>
      <trkpt lat="42.125675" lon="1.577297">
        <ele>1143.1</ele>
        <time>2019-06-01T08:18:20Z</time>
      </trkpt>
      <trkpt lat="42.125723" lon="1.577353">
        <ele>1139.8</ele>
        <time>2019-06-01T08:18:26Z</time>
      </trkpt>
      <trkpt lat="42.125794" lon="1.577373">
        <ele>1136.4</ele>
        <time>2019-06-01T08:18:32Z</time>
      </trkpt>
      <trkpt lat="42.125875" lon="1.577444">
        <ele>1135.0</ele>
        <time>2019-06-01T08:18:43Z</time>
      </trkpt>
      <trkpt lat="42.125861" lon="1.577425">
        <ele>1135.4</ele>
        <time>2019-06-01T08:18:45Z</time>
      </trkpt>
      <trkpt lat="42.125871" lon="1.577351">
        <ele>1134.0</ele>
        <time>2019-06-01T08:18:51Z</time>
      </trkpt>
      <trkpt lat="42.125875" lon="1.577264">
        <ele>1132.6</ele>
        <time>2019-06-01T08:18:57Z</time>
      </trkpt>
      <trkpt lat="42.125916" lon="1.577222">
        <ele>1131.6</ele>
        <time>2019-06-01T08:19:02Z</time>
      </trkpt>
      <trkpt lat="42.125946" lon="1.577207">
        <ele>1131.6</ele>
        <time>2019-06-01T08:19:04Z</time>
      </trkpt>
      <trkpt lat="42.126068" lon="1.577143">
        <ele>1131.6</ele>
        <time>2019-06-01T08:19:13Z</time>
      </trkpt>
      <trkpt lat="42.126164" lon="1.577084">
        <ele>1129.7</ele>
        <time>2019-06-01T08:19:19Z</time>
      </trkpt>
      <trkpt lat="42.126225" lon="1.577022">
        <ele>1129.2</ele>
        <time>2019-06-01T08:19:23Z</time>
      </trkpt>
      <trkpt lat="42.126346" lon="1.576880">
        <ele>1128.7</ele>
        <time>2019-06-01T08:19:35Z</time>
      </trkpt>
      <trkpt lat="42.126369" lon="1.576856">
        <ele>1128.7</ele>
        <time>2019-06-01T08:19:38Z</time>
      </trkpt>
      <trkpt lat="42.126398" lon="1.576793">
        <ele>1128.7</ele>
        <time>2019-06-01T08:19:42Z</time>
      </trkpt>
      <trkpt lat="42.126465" lon="1.576725">
        <ele>1127.8</ele>
        <time>2019-06-01T08:19:47Z</time>
      </trkpt>
      <trkpt lat="42.126575" lon="1.576624">
        <ele>1127.3</ele>
        <time>2019-06-01T08:19:56Z</time>
      </trkpt>
      <trkpt lat="42.126633" lon="1.576560">
        <ele>1127.8</ele>
        <time>2019-06-01T08:20:03Z</time>
      </trkpt>
      <trkpt lat="42.126701" lon="1.576586">
        <ele>1126.3</ele>
        <time>2019-06-01T08:20:09Z</time>
      </trkpt>
      <trkpt lat="42.126890" lon="1.576712">
        <ele>1127.3</ele>
        <time>2019-06-01T08:20:21Z</time>
      </trkpt>
      <trkpt lat="42.126903" lon="1.576715">
        <ele>1127.3</ele>
        <time>2019-06-01T08:20:22Z</time>
      </trkpt>
      <trkpt lat="42.127037" lon="1.576721">
        <ele>1129.2</ele>
        <time>2019-06-01T08:20:35Z</time>
      </trkpt>
      <trkpt lat="42.127164" lon="1.576714">
        <ele>1131.1</ele>
        <time>2019-06-01T08:20:45Z</time>
      </trkpt>
      <trkpt lat="42.127317" lon="1.576755">
        <ele>1133.1</ele>
        <time>2019-06-01T08:20:57Z</time>
      </trkpt>
      <trkpt lat="42.127410" lon="1.576783">
        <ele>1134.5</ele>
        <time>2019-06-01T08:21:11Z</time>
      </trkpt>
      <trkpt lat="42.127481" lon="1.576793">
        <ele>1135.4</ele>
        <time>2019-06-01T08:21:20Z</time>
      </trkpt>
      <trkpt lat="42.127531" lon="1.576836">
        <ele>1135.9</ele>
        <time>2019-06-01T08:21:25Z</time>
      </trkpt>
      <trkpt lat="42.127663" lon="1.576962">
        <ele>1137.9</ele>
        <time>2019-06-01T08:21:38Z</time>
      </trkpt>
      <trkpt lat="42.127800" lon="1.577033">
        <ele>1140.7</ele>
        <time>2019-06-01T08:21:52Z</time>
      </trkpt>
      <trkpt lat="42.127834" lon="1.577095">
        <ele>1141.2</ele>
        <time>2019-06-01T08:21:58Z</time>
      </trkpt>
      <trkpt lat="42.127833" lon="1.577118">
        <ele>1141.7</ele>
        <time>2019-06-01T08:22:00Z</time>
      </trkpt>
      <trkpt lat="42.127805" lon="1.577157">
        <ele>1142.7</ele>
        <time>2019-06-01T08:22:05Z</time>
      </trkpt>
      <trkpt lat="42.127738" lon="1.577191">
        <ele>1144.1</ele>
        <time>2019-06-01T08:22:13Z</time>
      </trkpt>
      <trkpt lat="42.127645" lon="1.577240">
        <ele>1146.0</ele>
        <time>2019-06-01T08:22:24Z</time>
      </trkpt>
      <trkpt lat="42.127524" lon="1.577282">
        <ele>1148.4</ele>
        <time>2019-06-01T08:22:34Z</time>
      </trkpt>
      <trkpt lat="42.127497" lon="1.577304">
        <ele>1148.9</ele>
        <time>2019-06-01T08:22:37Z</time>
      </trkpt>
      <trkpt lat="42.127457" lon="1.577323">
        <ele>1149.4</ele>
        <time>2019-06-01T08:22:41Z</time>
      </trkpt>
      <trkpt lat="42.127291" lon="1.577410">
        <ele>1151.8</ele>
        <time>2019-06-01T08:22:57Z</time>
      </trkpt>
      <trkpt lat="42.127250" lon="1.577436">
        <ele>1152.3</ele>
        <time>2019-06-01T08:23:01Z</time>
      </trkpt>
      <trkpt lat="42.127195" lon="1.577504">
        <ele>1153.7</ele>
        <time>2019-06-01T08:23:07Z</time>
      </trkpt>
      <trkpt lat="42.127166" lon="1.577564">
        <ele>1155.6</ele>
        <time>2019-06-01T08:23:12Z</time>
      </trkpt>
      <trkpt lat="42.127246" lon="1.577635">
        <ele>1156.6</ele>
        <time>2019-06-01T08:23:22Z</time>
      </trkpt>
      <trkpt lat="42.127279" lon="1.577657">
        <ele>1157.6</ele>
        <time>2019-06-01T08:23:36Z</time>
      </trkpt>
      <trkpt lat="42.127278" lon="1.577655">
        <ele>1157.1</ele>
        <time>2019-06-01T08:23:38Z</time>
      </trkpt>
      <trkpt lat="42.127307" lon="1.577661">
        <ele>1157.6</ele>
        <time>2019-06-01T08:23:41Z</time>
      </trkpt>
      <trkpt lat="42.127341" lon="1.577710">
        <ele>1157.6</ele>
        <time>2019-06-01T08:23:46Z</time>
      </trkpt>
      <trkpt lat="42.127356" lon="1.577760">
        <ele>1158.1</ele>
        <time>2019-06-01T08:23:50Z</time>
      </trkpt>
      <trkpt lat="42.127346" lon="1.577850">
        <ele>1157.1</ele>
        <time>2019-06-01T08:23:58Z</time>
      </trkpt>
      <trkpt lat="42.127375" lon="1.578000">
        <ele>1153.7</ele>
        <time>2019-06-01T08:24:10Z</time>
      </trkpt>
      <trkpt lat="42.127376" lon="1.578055">
        <ele>1152.8</ele>
        <time>2019-06-01T08:24:14Z</time>
      </trkpt>
      <trkpt lat="42.127407" lon="1.578181">
        <ele>1150.3</ele>
        <time>2019-06-01T08:24:25Z</time>
      </trkpt>
      <trkpt lat="42.127421" lon="1.578248">
        <ele>1147.9</ele>
        <time>2019-06-01T08:24:35Z</time>
      </trkpt>
      <trkpt lat="42.127392" lon="1.578293">
        <ele>1146.0</ele>
        <time>2019-06-01T08:24:40Z</time>
      </trkpt>
      <trkpt lat="42.127372" lon="1.578428">
        <ele>1142.2</ele>
        <time>2019-06-01T08:24:51Z</time>
      </trkpt>
      <trkpt lat="42.127372" lon="1.578437">
        <ele>1141.7</ele>
        <time>2019-06-01T08:24:52Z</time>
      </trkpt>
      <trkpt lat="42.127353" lon="1.578538">
        <ele>1140.7</ele>
        <time>2019-06-01T08:25:03Z</time>
      </trkpt>
      <trkpt lat="42.127335" lon="1.578614">
        <ele>1139.8</ele>
        <time>2019-06-01T08:25:10Z</time>
      </trkpt>
      <trkpt lat="42.127261" lon="1.578669">
        <ele>1138.8</ele>
        <time>2019-06-01T08:25:19Z</time>
      </trkpt>
      <trkpt lat="42.127250" lon="1.578850">
        <ele>1138.3</ele>
        <time>2019-06-01T08:25:31Z</time>
      </trkpt>
      <trkpt lat="42.127245" lon="1.578868">
        <ele>1137.9</ele>
        <time>2019-06-01T08:25:33Z</time>
      </trkpt>
      <trkpt lat="42.127190" lon="1.578960">
        <ele>1136.9</ele>
        <time>2019-06-01T08:25:44Z</time>
      </trkpt>
      <trkpt lat="42.127161" lon="1.579003">
        <ele>1136.9</ele>
        <time>2019-06-01T08:25:48Z</time>
      </trkpt>
      <trkpt lat="42.127127" lon="1.579117">
        <ele>1134.5</ele>
        <time>2019-06-01T08:25:57Z</time>
      </trkpt>
      <trkpt lat="42.127113" lon="1.579141">
        <ele>1133.1</ele>
        <time>2019-06-01T08:26:00Z</time>
      </trkpt>
      <trkpt lat="42.127092" lon="1.579155">
        <ele>1130.7</ele>
        <time>2019-06-01T08:26:04Z</time>
      </trkpt>
      <trkpt lat="42.127064" lon="1.579236">
        <ele>1128.7</ele>
        <time>2019-06-01T08:26:11Z</time>
      </trkpt>
      <trkpt lat="42.127039" lon="1.579276">
        <ele>1125.8</ele>
        <time>2019-06-01T08:26:20Z</time>
      </trkpt>
      <trkpt lat="42.127028" lon="1.579288">
        <ele>1124.4</ele>
        <time>2019-06-01T08:26:22Z</time>
      </trkpt>
      <trkpt lat="42.126999" lon="1.579329">
        <ele>1122.0</ele>
        <time>2019-06-01T08:26:29Z</time>
      </trkpt>
      <trkpt lat="42.126966" lon="1.579414">
        <ele>1119.1</ele>
        <time>2019-06-01T08:26:37Z</time>
      </trkpt>
      <trkpt lat="42.126928" lon="1.579448">
        <ele>1117.2</ele>
        <time>2019-06-01T08:26:40Z</time>
      </trkpt>
      <trkpt lat="42.126907" lon="1.579502">
        <ele>1114.8</ele>
        <time>2019-06-01T08:26:45Z</time>
      </trkpt>
      <trkpt lat="42.126903" lon="1.579612">
        <ele>1112.4</ele>
        <time>2019-06-01T08:26:50Z</time>
      </trkpt>
      <trkpt lat="42.126911" lon="1.579708">
        <ele>1110.0</ele>
        <time>2019-06-01T08:26:55Z</time>
      </trkpt>
      <trkpt lat="42.126928" lon="1.579740">
        <ele>1109.0</ele>
        <time>2019-06-01T08:26:58Z</time>
      </trkpt>
      <trkpt lat="42.126943" lon="1.579762">
        <ele>1108.1</ele>
        <time>2019-06-01T08:27:00Z</time>
      </trkpt>
      <trkpt lat="42.126954" lon="1.579794">
        <ele>1107.1</ele>
        <time>2019-06-01T08:27:02Z</time>
      </trkpt>
      <trkpt lat="42.126962" lon="1.579822">
        <ele>1105.7</ele>
        <time>2019-06-01T08:27:05Z</time>
      </trkpt>
      <trkpt lat="42.126949" lon="1.579861">
        <ele>1104.7</ele>
        <time>2019-06-01T08:27:08Z</time>
      </trkpt>
      <trkpt lat="42.126919" lon="1.579995">
        <ele>1101.3</ele>
        <time>2019-06-01T08:27:18Z</time>
      </trkpt>
      <trkpt lat="42.126917" lon="1.579996">
        <ele>1101.3</ele>
        <time>2019-06-01T08:27:19Z</time>
      </trkpt>
      <trkpt lat="42.126884" lon="1.580054">
        <ele>1099.4</ele>
        <time>2019-06-01T08:27:26Z</time>
      </trkpt>
      <trkpt lat="42.126849" lon="1.580170">
        <ele>1098.0</ele>
        <time>2019-06-01T08:27:37Z</time>
      </trkpt>
      <trkpt lat="42.126816" lon="1.580276">
        <ele>1095.6</ele>
        <time>2019-06-01T08:27:44Z</time>
      </trkpt>
      <trkpt lat="42.126813" lon="1.580297">
        <ele>1095.1</ele>
        <time>2019-06-01T08:27:45Z</time>
      </trkpt>
      <trkpt lat="42.126807" lon="1.580341">
        <ele>1093.2</ele>
        <time>2019-06-01T08:27:49Z</time>
      </trkpt>
      <trkpt lat="42.126791" lon="1.580388">
        <ele>1092.7</ele>
        <time>2019-06-01T08:27:51Z</time>
      </trkpt>
      <trkpt lat="42.126786" lon="1.580408">
        <ele>1092.7</ele>
        <time>2019-06-01T08:27:52Z</time>
      </trkpt>
      <trkpt lat="42.126751" lon="1.580510">
        <ele>1089.3</ele>
        <time>2019-06-01T08:28:00Z</time>
      </trkpt>
      <trkpt lat="42.126734" lon="1.580543">
        <ele>1088.8</ele>
        <time>2019-06-01T08:28:03Z</time>
      </trkpt>
      <trkpt lat="42.126736" lon="1.580560">
        <ele>1088.3</ele>
        <time>2019-06-01T08:28:04Z</time>
      </trkpt>
      <trkpt lat="42.126721" lon="1.580672">
        <ele>1087.4</ele>
        <time>2019-06-01T08:28:12Z</time>
      </trkpt>
      <trkpt lat="42.126723" lon="1.580739">
        <ele>1087.9</ele>
        <time>2019-06-01T08:28:14Z</time>
      </trkpt>
      <trkpt lat="42.126714" lon="1.580903">
        <ele>1089.8</ele>
        <time>2019-06-01T08:28:24Z</time>
      </trkpt>
      <trkpt lat="42.126726" lon="1.581023">
        <ele>1091.2</ele>
        <time>2019-06-01T08:28:33Z</time>
      </trkpt>
      <trkpt lat="42.126742" lon="1.581042">
        <ele>1092.2</ele>
        <time>2019-06-01T08:28:42Z</time>
      </trkpt>
      <trkpt lat="42.126795" lon="1.581159">
        <ele>1093.2</ele>
        <time>2019-06-01T08:28:50Z</time>
      </trkpt>
      <trkpt lat="42.126824" lon="1.581308">
        <ele>1093.2</ele>
        <time>2019-06-01T08:29:02Z</time>
      </trkpt>
      <trkpt lat="42.126862" lon="1.581479">
        <ele>1096.5</ele>
        <time>2019-06-01T08:29:15Z</time>
      </trkpt>
      <trkpt lat="42.126870" lon="1.581546">
        <ele>1097.5</ele>
        <time>2019-06-01T08:29:26Z</time>
      </trkpt>
      <trkpt lat="42.126867" lon="1.581560">
        <ele>1097.0</ele>
        <time>2019-06-01T08:29:27Z</time>
      </trkpt>
      <trkpt lat="42.126864" lon="1.581600">
        <ele>1096.5</ele>
        <time>2019-06-01T08:29:29Z</time>
      </trkpt>
      <trkpt lat="42.126862" lon="1.581641">
        <ele>1096.0</ele>
        <time>2019-06-01T08:29:31Z</time>
      </trkpt>
      <trkpt lat="42.126855" lon="1.581679">
        <ele>1095.6</ele>
        <time>2019-06-01T08:29:34Z</time>
      </trkpt>
      <trkpt lat="42.126840" lon="1.581732">
        <ele>1095.6</ele>
        <time>2019-06-01T08:29:37Z</time>
      </trkpt>
      <trkpt lat="42.126786" lon="1.581854">
        <ele>1096.5</ele>
        <time>2019-06-01T08:29:47Z</time>
      </trkpt>
      <trkpt lat="42.126776" lon="1.581864">
        <ele>1096.5</ele>
        <time>2019-06-01T08:29:48Z</time>
      </trkpt>
      <trkpt lat="42.126759" lon="1.581918">
        <ele>1096.5</ele>
        <time>2019-06-01T08:29:51Z</time>
      </trkpt>
      <trkpt lat="42.126723" lon="1.582057">
        <ele>1096.0</ele>
        <time>2019-06-01T08:30:01Z</time>
      </trkpt>
      <trkpt lat="42.126709" lon="1.582104">
        <ele>1096.0</ele>
        <time>2019-06-01T08:30:04Z</time>
      </trkpt>
      <trkpt lat="42.126694" lon="1.582161">
        <ele>1095.1</ele>
        <time>2019-06-01T08:30:07Z</time>
      </trkpt>
      <trkpt lat="42.126657" lon="1.582317">
        <ele>1096.0</ele>
        <time>2019-06-01T08:30:19Z</time>
      </trkpt>
      <trkpt lat="42.126641" lon="1.582366">
        <ele>1096.5</ele>
        <time>2019-06-01T08:30:22Z</time>
      </trkpt>
      <trkpt lat="42.126625" lon="1.582391">
        <ele>1097.5</ele>
        <time>2019-06-01T08:30:24Z</time>
      </trkpt>
      <trkpt lat="42.126601" lon="1.582522">
        <ele>1098.0</ele>
        <time>2019-06-01T08:30:31Z</time>
      </trkpt>
      <trkpt lat="42.126548" lon="1.582631">
        <ele>1098.0</ele>
        <time>2019-06-01T08:30:37Z</time>
      </trkpt>
      <trkpt lat="42.126474" lon="1.582829">
        <ele>1099.4</ele>
        <time>2019-06-01T08:30:50Z</time>
      </trkpt>
      <trkpt lat="42.126468" lon="1.582876">
        <ele>1099.9</ele>
        <time>2019-06-01T08:31:00Z</time>
      </trkpt>
      <trkpt lat="42.126493" lon="1.582980">
        <ele>1096.0</ele>
        <time>2019-06-01T08:31:13Z</time>
      </trkpt>
      <trkpt lat="42.126493" lon="1.582987">
        <ele>1096.0</ele>
        <time>2019-06-01T08:31:14Z</time>
      </trkpt>
      <trkpt lat="42.126490" lon="1.583040">
        <ele>1094.6</ele>
        <time>2019-06-01T08:31:22Z</time>
      </trkpt>
      <trkpt lat="42.126500" lon="1.583098">
        <ele>1092.2</ele>
        <time>2019-06-01T08:31:28Z</time>
      </trkpt>
      <trkpt lat="42.126504" lon="1.583170">
        <ele>1089.8</ele>
        <time>2019-06-01T08:31:38Z</time>
      </trkpt>
      <trkpt lat="42.126504" lon="1.583171">
        <ele>1089.8</ele>
        <time>2019-06-01T08:31:43Z</time>
      </trkpt>
      <trkpt lat="42.126532" lon="1.583262">
        <ele>1087.4</ele>
        <time>2019-06-01T08:31:54Z</time>
      </trkpt>
      <trkpt lat="42.126559" lon="1.583384">
        <ele>1084.5</ele>
        <time>2019-06-01T08:32:04Z</time>
      </trkpt>
      <trkpt lat="42.126563" lon="1.583433">
        <ele>1083.5</ele>
        <time>2019-06-01T08:32:07Z</time>
      </trkpt>
      <trkpt lat="42.126561" lon="1.583509">
        <ele>1081.6</ele>
        <time>2019-06-01T08:32:12Z</time>
      </trkpt>
      <trkpt lat="42.126556" lon="1.583540">
        <ele>1081.1</ele>
        <time>2019-06-01T08:32:14Z</time>
      </trkpt>
      <trkpt lat="42.126557" lon="1.583572">
        <ele>1080.2</ele>
        <time>2019-06-01T08:32:16Z</time>
      </trkpt>
      <trkpt lat="42.126575" lon="1.583650">
        <ele>1082.1</ele>
        <time>2019-06-01T08:32:25Z</time>
      </trkpt>
      <trkpt lat="42.126620" lon="1.583721">
        <ele>1085.0</ele>
        <time>2019-06-01T08:32:37Z</time>
      </trkpt>
      <trkpt lat="42.126635" lon="1.583723">
        <ele>1086.9</ele>
        <time>2019-06-01T08:32:47Z</time>
      </trkpt>
      <trkpt lat="42.126652" lon="1.583704">
        <ele>1089.8</ele>
        <time>2019-06-01T08:32:57Z</time>
      </trkpt>
      <trkpt lat="42.126671" lon="1.583690">
        <ele>1090.3</ele>
        <time>2019-06-01T08:33:06Z</time>
      </trkpt>
      <trkpt lat="42.126711" lon="1.583670">
        <ele>1093.2</ele>
        <time>2019-06-01T08:33:17Z</time>
      </trkpt>
      <trkpt lat="42.126744" lon="1.583665">
        <ele>1094.6</ele>
        <time>2019-06-01T08:33:33Z</time>
      </trkpt>
      <trkpt lat="42.126767" lon="1.583653">
        <ele>1097.0</ele>
        <time>2019-06-01T08:33:46Z</time>
      </trkpt>
      <trkpt lat="42.126793" lon="1.583684">
        <ele>1098.9</ele>
        <time>2019-06-01T08:33:56Z</time>
      </trkpt>
      <trkpt lat="42.126802" lon="1.583684">
        <ele>1100.8</ele>
        <time>2019-06-01T08:34:15Z</time>
      </trkpt>
      <trkpt lat="42.126861" lon="1.583705">
        <ele>1101.8</ele>
        <time>2019-06-01T08:34:28Z</time>
      </trkpt>
      <trkpt lat="42.126872" lon="1.583704">
        <ele>1101.8</ele>
        <time>2019-06-01T08:34:35Z</time>
      </trkpt>
      <trkpt lat="42.126873" lon="1.583700">
        <ele>1101.8</ele>
        <time>2019-06-01T08:34:45Z</time>
      </trkpt>
      <trkpt lat="42.126873" lon="1.583707">
        <ele>1100.8</ele>
        <time>2019-06-01T08:35:06Z</time>
      </trkpt>
      <trkpt lat="42.126872" lon="1.583710">
        <ele>1100.4</ele>
        <time>2019-06-01T08:35:17Z</time>
      </trkpt>
      <trkpt lat="42.126875" lon="1.583709">
        <ele>1100.4</ele>
        <time>2019-06-01T08:35:52Z</time>
      </trkpt>
      <trkpt lat="42.126873" lon="1.583707">
        <ele>1101.3</ele>
        <time>2019-06-01T08:35:57Z</time>
      </trkpt>
      <trkpt lat="42.126928" lon="1.583754">
        <ele>1097.5</ele>
        <time>2019-06-01T08:36:09Z</time>
      </trkpt>
      <trkpt lat="42.126987" lon="1.583782">
        <ele>1094.1</ele>
        <time>2019-06-01T08:36:20Z</time>
      </trkpt>
      <trkpt lat="42.127013" lon="1.583797">
        <ele>1093.6</ele>
        <time>2019-06-01T08:36:24Z</time>
      </trkpt>
      <trkpt lat="42.127026" lon="1.583801">
        <ele>1092.7</ele>
        <time>2019-06-01T08:36:26Z</time>
      </trkpt>
      <trkpt lat="42.127063" lon="1.583810">
        <ele>1091.2</ele>
        <time>2019-06-01T08:36:31Z</time>
      </trkpt>
      <trkpt lat="42.127091" lon="1.583821">
        <ele>1089.3</ele>
        <time>2019-06-01T08:36:36Z</time>
      </trkpt>
      <trkpt lat="42.127114" lon="1.583837">
        <ele>1088.3</ele>
        <time>2019-06-01T08:36:39Z</time>
      </trkpt>
      <trkpt lat="42.127138" lon="1.583857">
        <ele>1086.9</ele>
        <time>2019-06-01T08:36:41Z</time>
      </trkpt>
      <trkpt lat="42.127194" lon="1.583949">
        <ele>1084.0</ele>
        <time>2019-06-01T08:36:51Z</time>
      </trkpt>
      <trkpt lat="42.127202" lon="1.583959">
        <ele>1083.5</ele>
        <time>2019-06-01T08:36:53Z</time>
      </trkpt>
      <trkpt lat="42.127218" lon="1.583981">
        <ele>1082.6</ele>
        <time>2019-06-01T08:36:55Z</time>
      </trkpt>
      <trkpt lat="42.127260" lon="1.584074">
        <ele>1079.7</ele>
        <time>2019-06-01T08:37:03Z</time>
      </trkpt>
      <trkpt lat="42.127306" lon="1.584174">
        <ele>1076.3</ele>
        <time>2019-06-01T08:37:11Z</time>
      </trkpt>
      <trkpt lat="42.127329" lon="1.584206">
        <ele>1074.4</ele>
        <time>2019-06-01T08:37:15Z</time>
      </trkpt>
      <trkpt lat="42.127419" lon="1.584306">
        <ele>1071.1</ele>
        <time>2019-06-01T08:37:24Z</time>
      </trkpt>
      <trkpt lat="42.127431" lon="1.584330">
        <ele>1069.6</ele>
        <time>2019-06-01T08:37:27Z</time>
      </trkpt>
      <trkpt lat="42.127442" lon="1.584352">
        <ele>1067.7</ele>
        <time>2019-06-01T08:37:31Z</time>
      </trkpt>
      <trkpt lat="42.127520" lon="1.584431">
        <ele>1064.8</ele>
        <time>2019-06-01T08:37:40Z</time>
      </trkpt>
      <trkpt lat="42.127542" lon="1.584484">
        <ele>1062.9</ele>
        <time>2019-06-01T08:37:47Z</time>
      </trkpt>
      <trkpt lat="42.127631" lon="1.584588">
        <ele>1061.9</ele>
        <time>2019-06-01T08:38:00Z</time>
      </trkpt>
      <trkpt lat="42.127624" lon="1.584623">
        <ele>1061.4</ele>
        <time>2019-06-01T08:38:13Z</time>
      </trkpt>
      <trkpt lat="42.127620" lon="1.584622">
        <ele>1061.4</ele>
        <time>2019-06-01T08:38:33Z</time>
      </trkpt>
      <trkpt lat="42.127641" lon="1.584656">
        <ele>1060.9</ele>
        <time>2019-06-01T08:38:56Z</time>
      </trkpt>
      <trkpt lat="42.127648" lon="1.584712">
        <ele>1059.5</ele>
        <time>2019-06-01T08:39:22Z</time>
      </trkpt>
      <trkpt lat="42.127659" lon="1.584728">
        <ele>1058.6</ele>
        <time>2019-06-01T08:39:24Z</time>
      </trkpt>
      <trkpt lat="42.127681" lon="1.584746">
        <ele>1056.6</ele>
        <time>2019-06-01T08:39:28Z</time>
      </trkpt>
      <trkpt lat="42.127721" lon="1.584814">
        <ele>1054.7</ele>
        <time>2019-06-01T08:39:35Z</time>
      </trkpt>
      <trkpt lat="42.127749" lon="1.584867">
        <ele>1051.3</ele>
        <time>2019-06-01T08:39:44Z</time>
      </trkpt>
      <trkpt lat="42.127757" lon="1.584867">
        <ele>1050.9</ele>
        <time>2019-06-01T08:39:45Z</time>
      </trkpt>
      <trkpt lat="42.127816" lon="1.584928">
        <ele>1048.4</ele>
        <time>2019-06-01T08:39:53Z</time>
      </trkpt>
      <trkpt lat="42.127842" lon="1.585007">
        <ele>1047.0</ele>
        <time>2019-06-01T08:39:58Z</time>
      </trkpt>
      <trkpt lat="42.127855" lon="1.585052">
        <ele>1045.6</ele>
        <time>2019-06-01T08:40:01Z</time>
      </trkpt>
      <trkpt lat="42.127848" lon="1.585113">
        <ele>1044.6</ele>
        <time>2019-06-01T08:40:04Z</time>
      </trkpt>
      <trkpt lat="42.127853" lon="1.585157">
        <ele>1044.1</ele>
        <time>2019-06-01T08:40:07Z</time>
      </trkpt>
      <trkpt lat="42.127834" lon="1.585190">
        <ele>1043.2</ele>
        <time>2019-06-01T08:40:09Z</time>
      </trkpt>
      <trkpt lat="42.127831" lon="1.585211">
        <ele>1042.2</ele>
        <time>2019-06-01T08:40:10Z</time>
      </trkpt>
      <trkpt lat="42.127785" lon="1.585303">
        <ele>1040.8</ele>
        <time>2019-06-01T08:40:18Z</time>
      </trkpt>
      <trkpt lat="42.127819" lon="1.585394">
        <ele>1038.4</ele>
        <time>2019-06-01T08:40:26Z</time>
      </trkpt>
      <trkpt lat="42.127828" lon="1.585620">
        <ele>1035.0</ele>
        <time>2019-06-01T08:40:35Z</time>
      </trkpt>
      <trkpt lat="42.127821" lon="1.585673">
        <ele>1034.0</ele>
        <time>2019-06-01T08:40:38Z</time>
      </trkpt>
      <trkpt lat="42.127806" lon="1.585710">
        <ele>1033.1</ele>
        <time>2019-06-01T08:40:40Z</time>
      </trkpt>
      <trkpt lat="42.127757" lon="1.585796">
        <ele>1031.2</ele>
        <time>2019-06-01T08:40:46Z</time>
      </trkpt>
      <trkpt lat="42.127745" lon="1.585821">
        <ele>1030.7</ele>
        <time>2019-06-01T08:40:47Z</time>
      </trkpt>
      <trkpt lat="42.127731" lon="1.585907">
        <ele>1027.8</ele>
        <time>2019-06-01T08:40:53Z</time>
      </trkpt>
      <trkpt lat="42.127755" lon="1.585932">
        <ele>1027.3</ele>
        <time>2019-06-01T08:40:55Z</time>
      </trkpt>
      <trkpt lat="42.127765" lon="1.585948">
        <ele>1027.3</ele>
        <time>2019-06-01T08:40:56Z</time>
      </trkpt>
      <trkpt lat="42.127790" lon="1.586113">
        <ele>1025.4</ele>
        <time>2019-06-01T08:41:01Z</time>
      </trkpt>
      <trkpt lat="42.127668" lon="1.586182">
        <ele>1023.5</ele>
        <time>2019-06-01T08:41:10Z</time>
      </trkpt>
      <trkpt lat="42.127642" lon="1.586241">
        <ele>1021.5</ele>
        <time>2019-06-01T08:41:14Z</time>
      </trkpt>
      <trkpt lat="42.127614" lon="1.586299">
        <ele>1020.1</ele>
        <time>2019-06-01T08:41:18Z</time>
      </trkpt>
      <trkpt lat="42.127600" lon="1.586319">
        <ele>1019.6</ele>
        <time>2019-06-01T08:41:20Z</time>
      </trkpt>
      <trkpt lat="42.127642" lon="1.586398">
        <ele>1016.2</ele>
        <time>2019-06-01T08:41:29Z</time>
      </trkpt>
      <trkpt lat="42.127642" lon="1.586404">
        <ele>1016.2</ele>
        <time>2019-06-01T08:41:30Z</time>
      </trkpt>
      <trkpt lat="42.127645" lon="1.586424">
        <ele>1015.3</ele>
        <time>2019-06-01T08:41:33Z</time>
      </trkpt>
      <trkpt lat="42.127705" lon="1.586461">
        <ele>1013.4</ele>
        <time>2019-06-01T08:41:39Z</time>
      </trkpt>
      <trkpt lat="42.127804" lon="1.586572">
        <ele>1012.4</ele>
        <time>2019-06-01T08:41:48Z</time>
      </trkpt>
      <trkpt lat="42.127828" lon="1.586701">
        <ele>1011.0</ele>
        <time>2019-06-01T08:41:52Z</time>
      </trkpt>
      <trkpt lat="42.127836" lon="1.586831">
        <ele>1009.0</ele>
        <time>2019-06-01T08:41:57Z</time>
      </trkpt>
      <trkpt lat="42.127822" lon="1.586918">
        <ele>1006.6</ele>
        <time>2019-06-01T08:42:02Z</time>
      </trkpt>
      <trkpt lat="42.127821" lon="1.586932">
        <ele>1006.6</ele>
        <time>2019-06-01T08:42:03Z</time>
      </trkpt>
      <trkpt lat="42.127823" lon="1.586958">
        <ele>1005.2</ele>
        <time>2019-06-01T08:42:05Z</time>
      </trkpt>
      <trkpt lat="42.127826" lon="1.586960">
        <ele>1004.7</ele>
        <time>2019-06-01T08:42:06Z</time>
      </trkpt>
      <trkpt lat="42.127839" lon="1.587031">
        <ele>1002.3</ele>
        <time>2019-06-01T08:42:10Z</time>
      </trkpt>
      <trkpt lat="42.127821" lon="1.587123">
        <ele>1000.9</ele>
        <time>2019-06-01T08:42:14Z</time>
      </trkpt>
      <trkpt lat="42.127808" lon="1.587195">
        <ele>997.0</ele>
        <time>2019-06-01T08:42:22Z</time>
      </trkpt>
      <trkpt lat="42.127764" lon="1.587233">
        <ele>996.1</ele>
        <time>2019-06-01T08:42:26Z</time>
      </trkpt>
      <trkpt lat="42.127720" lon="1.587285">
        <ele>992.2</ele>
        <time>2019-06-01T08:42:36Z</time>
      </trkpt>
      <trkpt lat="42.127724" lon="1.587292">
        <ele>992.2</ele>
        <time>2019-06-01T08:42:37Z</time>
      </trkpt>
      <trkpt lat="42.127745" lon="1.587303">
        <ele>991.3</ele>
        <time>2019-06-01T08:42:39Z</time>
      </trkpt>
      <trkpt lat="42.127758" lon="1.587320">
        <ele>990.3</ele>
        <time>2019-06-01T08:42:41Z</time>
      </trkpt>
      <trkpt lat="42.127771" lon="1.587364">
        <ele>987.9</ele>
        <time>2019-06-01T08:42:54Z</time>
      </trkpt>
      <trkpt lat="42.127779" lon="1.587385">
        <ele>986.9</ele>
        <time>2019-06-01T08:42:56Z</time>
      </trkpt>
      <trkpt lat="42.127808" lon="1.587500">
        <ele>983.6</ele>
        <time>2019-06-01T08:43:04Z</time>
      </trkpt>
      <trkpt lat="42.127813" lon="1.587508">
        <ele>982.6</ele>
        <time>2019-06-01T08:43:06Z</time>
      </trkpt>
      <trkpt lat="42.127820" lon="1.587531">
        <ele>981.6</ele>
        <time>2019-06-01T08:43:08Z</time>
      </trkpt>
      <trkpt lat="42.127826" lon="1.587543">
        <ele>981.6</ele>
        <time>2019-06-01T08:43:09Z</time>
      </trkpt>
      <trkpt lat="42.127895" lon="1.587594">
        <ele>978.3</ele>
        <time>2019-06-01T08:43:15Z</time>
      </trkpt>
      <trkpt lat="42.127934" lon="1.587667">
        <ele>975.4</ele>
        <time>2019-06-01T08:43:23Z</time>
      </trkpt>
      <trkpt lat="42.127949" lon="1.587709">
        <ele>974.0</ele>
        <time>2019-06-01T08:43:26Z</time>
      </trkpt>
      <trkpt lat="42.127951" lon="1.587712">
        <ele>974.4</ele>
        <time>2019-06-01T08:43:27Z</time>
      </trkpt>
      <trkpt lat="42.127960" lon="1.587772">
        <ele>972.5</ele>
        <time>2019-06-01T08:43:31Z</time>
      </trkpt>
      <trkpt lat="42.127971" lon="1.587878">
        <ele>969.6</ele>
        <time>2019-06-01T08:43:39Z</time>
      </trkpt>
      <trkpt lat="42.127980" lon="1.587997">
        <ele>966.3</ele>
        <time>2019-06-01T08:43:48Z</time>
      </trkpt>
      <trkpt lat="42.127975" lon="1.588029">
        <ele>963.9</ele>
        <time>2019-06-01T08:43:54Z</time>
      </trkpt>
      <trkpt lat="42.128012" lon="1.588015">
        <ele>960.0</ele>
        <time>2019-06-01T08:44:05Z</time>
      </trkpt>
      <trkpt lat="42.128026" lon="1.588005">
        <ele>958.6</ele>
        <time>2019-06-01T08:44:07Z</time>
      </trkpt>
      <trkpt lat="42.128114" lon="1.587957">
        <ele>956.2</ele>
        <time>2019-06-01T08:44:14Z</time>
      </trkpt>
      <trkpt lat="42.128147" lon="1.587914">
        <ele>955.2</ele>
        <time>2019-06-01T08:44:18Z</time>
      </trkpt>
      <trkpt lat="42.128142" lon="1.587858">
        <ele>952.8</ele>
        <time>2019-06-01T08:44:24Z</time>
      </trkpt>
      <trkpt lat="42.128279" lon="1.587857">
        <ele>949.4</ele>
        <time>2019-06-01T08:44:34Z</time>
      </trkpt>
      <trkpt lat="42.128317" lon="1.587851">
        <ele>948.0</ele>
        <time>2019-06-01T08:44:37Z</time>
      </trkpt>
      <trkpt lat="42.128326" lon="1.587847">
        <ele>947.5</ele>
        <time>2019-06-01T08:44:38Z</time>
      </trkpt>
      <trkpt lat="42.128368" lon="1.587841">
        <ele>947.0</ele>
        <time>2019-06-01T08:44:41Z</time>
      </trkpt>
      <trkpt lat="42.128421" lon="1.587819">
        <ele>945.6</ele>
        <time>2019-06-01T08:44:54Z</time>
      </trkpt>
      <trkpt lat="42.128441" lon="1.587846">
        <ele>946.1</ele>
        <time>2019-06-01T08:45:26Z</time>
      </trkpt>
      <trkpt lat="42.128463" lon="1.587851">
        <ele>945.6</ele>
        <time>2019-06-01T08:45:32Z</time>
      </trkpt>
      <trkpt lat="42.128484" lon="1.587855">
        <ele>945.6</ele>
        <time>2019-06-01T08:45:34Z</time>
      </trkpt>
      <trkpt lat="42.128533" lon="1.587833">
        <ele>943.7</ele>
        <time>2019-06-01T08:45:38Z</time>
      </trkpt>
      <trkpt lat="42.128596" lon="1.587767">
        <ele>941.3</ele>
        <time>2019-06-01T08:45:46Z</time>
      </trkpt>
      <trkpt lat="42.128699" lon="1.587709">
        <ele>938.4</ele>
        <time>2019-06-01T08:45:56Z</time>
      </trkpt>
      <trkpt lat="42.128891" lon="1.587725">
        <ele>935.5</ele>
        <time>2019-06-01T08:46:08Z</time>
      </trkpt>
      <trkpt lat="42.128920" lon="1.587710">
        <ele>934.5</ele>
        <time>2019-06-01T08:46:11Z</time>
      </trkpt>
      <trkpt lat="42.129013" lon="1.587715">
        <ele>932.6</ele>
        <time>2019-06-01T08:46:19Z</time>
      </trkpt>
      <trkpt lat="42.129074" lon="1.587716">
        <ele>931.2</ele>
        <time>2019-06-01T08:46:23Z</time>
      </trkpt>
      <trkpt lat="42.129123" lon="1.587713">
        <ele>929.7</ele>
        <time>2019-06-01T08:46:28Z</time>
      </trkpt>
      <trkpt lat="42.129289" lon="1.587677">
        <ele>926.4</ele>
        <time>2019-06-01T08:46:40Z</time>
      </trkpt>
      <trkpt lat="42.129364" lon="1.587673">
        <ele>925.4</ele>
        <time>2019-06-01T08:46:45Z</time>
      </trkpt>
      <trkpt lat="42.129436" lon="1.587682">
        <ele>922.5</ele>
        <time>2019-06-01T08:46:53Z</time>
      </trkpt>
      <trkpt lat="42.129482" lon="1.587674">
        <ele>921.6</ele>
        <time>2019-06-01T08:46:56Z</time>
      </trkpt>
      <trkpt lat="42.129593" lon="1.587670">
        <ele>918.7</ele>
        <time>2019-06-01T08:47:06Z</time>
      </trkpt>
      <trkpt lat="42.129647" lon="1.587637">
        <ele>916.3</ele>
        <time>2019-06-01T08:47:16Z</time>
      </trkpt>
      <trkpt lat="42.129736" lon="1.587597">
        <ele>912.9</ele>
        <time>2019-06-01T08:47:25Z</time>
      </trkpt>
      <trkpt lat="42.129778" lon="1.587578">
        <ele>910.0</ele>
        <time>2019-06-01T08:47:32Z</time>
      </trkpt>
      <trkpt lat="42.129790" lon="1.587584">
        <ele>909.5</ele>
        <time>2019-06-01T08:47:33Z</time>
      </trkpt>
      <trkpt lat="42.129936" lon="1.587617">
        <ele>908.6</ele>
        <time>2019-06-01T08:47:40Z</time>
      </trkpt>
      <trkpt lat="42.130078" lon="1.587600">
        <ele>909.5</ele>
        <time>2019-06-01T08:47:47Z</time>
      </trkpt>
      <trkpt lat="42.130136" lon="1.587628">
        <ele>911.0</ele>
        <time>2019-06-01T08:47:54Z</time>
      </trkpt>
      <trkpt lat="42.130215" lon="1.587711">
        <ele>912.4</ele>
        <time>2019-06-01T08:48:02Z</time>
      </trkpt>
      <trkpt lat="42.130234" lon="1.587733">
        <ele>912.9</ele>
        <time>2019-06-01T08:48:04Z</time>
      </trkpt>
      <trkpt lat="42.130287" lon="1.587788">
        <ele>912.9</ele>
        <time>2019-06-01T08:48:08Z</time>
      </trkpt>
      <trkpt lat="42.130378" lon="1.587902">
        <ele>914.3</ele>
        <time>2019-06-01T08:48:18Z</time>
      </trkpt>
      <trkpt lat="42.130398" lon="1.587946">
        <ele>914.8</ele>
        <time>2019-06-01T08:48:21Z</time>
      </trkpt>
      <trkpt lat="42.130443" lon="1.588093">
        <ele>915.3</ele>
        <time>2019-06-01T08:48:30Z</time>
      </trkpt>
      <trkpt lat="42.130470" lon="1.588186">
        <ele>915.3</ele>
        <time>2019-06-01T08:48:35Z</time>
      </trkpt>
      <trkpt lat="42.130478" lon="1.588261">
        <ele>915.3</ele>
        <time>2019-06-01T08:48:38Z</time>
      </trkpt>
      <trkpt lat="42.130524" lon="1.588409">
        <ele>917.2</ele>
        <time>2019-06-01T08:48:45Z</time>
      </trkpt>
      <trkpt lat="42.130585" lon="1.588672">
        <ele>918.2</ele>
        <time>2019-06-01T08:48:59Z</time>
      </trkpt>
      <trkpt lat="42.130594" lon="1.588736">
        <ele>918.2</ele>
        <time>2019-06-01T08:49:04Z</time>
      </trkpt>
      <trkpt lat="42.130599" lon="1.588911">
        <ele>919.2</ele>
        <time>2019-06-01T08:49:14Z</time>
      </trkpt>
      <trkpt lat="42.130611" lon="1.589013">
        <ele>919.2</ele>
        <time>2019-06-01T08:49:18Z</time>
      </trkpt>
      <trkpt lat="42.130613" lon="1.589072">
        <ele>919.6</ele>
        <time>2019-06-01T08:49:22Z</time>
      </trkpt>
      <trkpt lat="42.130628" lon="1.589246">
        <ele>919.2</ele>
        <time>2019-06-01T08:49:30Z</time>
      </trkpt>
      <trkpt lat="42.130633" lon="1.589288">
        <ele>919.6</ele>
        <time>2019-06-01T08:49:33Z</time>
      </trkpt>
      <trkpt lat="42.130642" lon="1.589325">
        <ele>920.1</ele>
        <time>2019-06-01T08:49:35Z</time>
      </trkpt>
      <trkpt lat="42.130686" lon="1.589536">
        <ele>920.6</ele>
        <time>2019-06-01T08:49:45Z</time>
      </trkpt>
      <trkpt lat="42.130706" lon="1.589766">
        <ele>922.0</ele>
        <time>2019-06-01T08:49:58Z</time>
      </trkpt>
      <trkpt lat="42.130742" lon="1.589919">
        <ele>924.5</ele>
        <time>2019-06-01T08:50:09Z</time>
      </trkpt>
      <trkpt lat="42.130741" lon="1.590199">
        <ele>924.5</ele>
        <time>2019-06-01T08:50:23Z</time>
      </trkpt>
      <trkpt lat="42.130750" lon="1.590294">
        <ele>924.0</ele>
        <time>2019-06-01T08:50:28Z</time>
      </trkpt>
      <trkpt lat="42.130747" lon="1.590497">
        <ele>924.5</ele>
        <time>2019-06-01T08:50:38Z</time>
      </trkpt>
      <trkpt lat="42.130751" lon="1.590534">
        <ele>924.5</ele>
        <time>2019-06-01T08:50:40Z</time>
      </trkpt>
      <trkpt lat="42.130762" lon="1.590604">
        <ele>924.5</ele>
        <time>2019-06-01T08:50:43Z</time>
      </trkpt>
      <trkpt lat="42.130770" lon="1.590642">
        <ele>924.5</ele>
        <time>2019-06-01T08:50:46Z</time>
      </trkpt>
      <trkpt lat="42.130849" lon="1.590916">
        <ele>924.0</ele>
        <time>2019-06-01T08:50:59Z</time>
      </trkpt>
      <trkpt lat="42.130855" lon="1.590933">
        <ele>923.5</ele>
        <time>2019-06-01T08:51:00Z</time>
      </trkpt>
      <trkpt lat="42.130899" lon="1.591055">
        <ele>923.0</ele>
        <time>2019-06-01T08:51:06Z</time>
      </trkpt>
      <trkpt lat="42.130938" lon="1.591156">
        <ele>923.0</ele>
        <time>2019-06-01T08:51:12Z</time>
      </trkpt>
      <trkpt lat="42.131004" lon="1.591308">
        <ele>923.5</ele>
        <time>2019-06-01T08:51:21Z</time>
      </trkpt>
      <trkpt lat="42.131047" lon="1.591441">
        <ele>924.0</ele>
        <time>2019-06-01T08:51:29Z</time>
      </trkpt>
      <trkpt lat="42.131096" lon="1.591616">
        <ele>924.5</ele>
        <time>2019-06-01T08:51:39Z</time>
      </trkpt>
      <trkpt lat="42.131104" lon="1.591641">
        <ele>924.9</ele>
        <time>2019-06-01T08:51:41Z</time>
      </trkpt>
      <trkpt lat="42.131117" lon="1.591695">
        <ele>925.4</ele>
        <time>2019-06-01T08:51:44Z</time>
      </trkpt>
      <trkpt lat="42.131147" lon="1.591758">
        <ele>925.9</ele>
        <time>2019-06-01T08:51:48Z</time>
      </trkpt>
      <trkpt lat="42.131197" lon="1.591968">
        <ele>928.3</ele>
        <time>2019-06-01T08:52:02Z</time>
      </trkpt>
      <trkpt lat="42.131210" lon="1.591990">
        <ele>928.3</ele>
        <time>2019-06-01T08:52:05Z</time>
      </trkpt>
      <trkpt lat="42.131237" lon="1.592060">
        <ele>928.8</ele>
        <time>2019-06-01T08:52:09Z</time>
      </trkpt>
      <trkpt lat="42.131270" lon="1.592118">
        <ele>929.7</ele>
        <time>2019-06-01T08:52:13Z</time>
      </trkpt>
      <trkpt lat="42.131388" lon="1.592304">
        <ele>931.2</ele>
        <time>2019-06-01T08:52:25Z</time>
      </trkpt>
      <trkpt lat="42.131397" lon="1.592311">
        <ele>931.2</ele>
        <time>2019-06-01T08:52:26Z</time>
      </trkpt>
      <trkpt lat="42.131438" lon="1.592317">
        <ele>931.7</ele>
        <time>2019-06-01T08:52:30Z</time>
      </trkpt>
      <trkpt lat="42.131531" lon="1.592115">
        <ele>930.2</ele>
        <time>2019-06-01T08:52:46Z</time>
      </trkpt>
      <trkpt lat="42.131630" lon="1.591894">
        <ele>927.8</ele>
        <time>2019-06-01T08:53:01Z</time>
      </trkpt>
      <trkpt lat="42.131758" lon="1.591670">
        <ele>925.4</ele>
        <time>2019-06-01T08:53:14Z</time>
      </trkpt>
      <trkpt lat="42.131870" lon="1.591570">
        <ele>924.0</ele>
        <time>2019-06-01T08:53:25Z</time>
      </trkpt>
      <trkpt lat="42.131928" lon="1.591543">
        <ele>923.0</ele>
        <time>2019-06-01T08:53:29Z</time>
      </trkpt>
      <trkpt lat="42.132084" lon="1.591391">
        <ele>920.6</ele>
        <time>2019-06-01T08:53:43Z</time>
      </trkpt>
      <trkpt lat="42.132278" lon="1.591210">
        <ele>919.2</ele>
        <time>2019-06-01T08:53:58Z</time>
      </trkpt>
      <trkpt lat="42.132460" lon="1.591058">
        <ele>917.2</ele>
        <time>2019-06-01T08:54:13Z</time>
      </trkpt>
      <trkpt lat="42.132655" lon="1.590937">
        <ele>916.3</ele>
        <time>2019-06-01T08:54:29Z</time>
      </trkpt>
      <trkpt lat="42.132676" lon="1.590930">
        <ele>915.8</ele>
        <time>2019-06-01T08:54:31Z</time>
      </trkpt>
      <trkpt lat="42.132860" lon="1.590814">
        <ele>915.3</ele>
        <time>2019-06-01T08:54:45Z</time>
      </trkpt>
      <trkpt lat="42.132949" lon="1.590795">
        <ele>915.3</ele>
        <time>2019-06-01T08:54:52Z</time>
      </trkpt>
      <trkpt lat="42.133020" lon="1.590777">
        <ele>916.3</ele>
        <time>2019-06-01T08:54:57Z</time>
      </trkpt>
      <trkpt lat="42.133220" lon="1.590695">
        <ele>918.7</ele>
        <time>2019-06-01T08:55:15Z</time>
      </trkpt>
      <trkpt lat="42.133233" lon="1.590692">
        <ele>919.2</ele>
        <time>2019-06-01T08:55:16Z</time>
      </trkpt>
      <trkpt lat="42.133367" lon="1.590611">
        <ele>920.6</ele>
        <time>2019-06-01T08:55:30Z</time>
      </trkpt>
      <trkpt lat="42.133497" lon="1.590525">
        <ele>923.0</ele>
        <time>2019-06-01T08:55:43Z</time>
      </trkpt>
      <trkpt lat="42.133587" lon="1.590483">
        <ele>924.5</ele>
        <time>2019-06-01T08:55:53Z</time>
      </trkpt>
      <trkpt lat="42.133620" lon="1.590481">
        <ele>925.4</ele>
        <time>2019-06-01T08:55:57Z</time>
      </trkpt>
      <trkpt lat="42.133769" lon="1.590534">
        <ele>926.4</ele>
        <time>2019-06-01T08:56:09Z</time>
      </trkpt>
      <trkpt lat="42.133797" lon="1.590542">
        <ele>926.8</ele>
        <time>2019-06-01T08:56:11Z</time>
      </trkpt>
      <trkpt lat="42.133823" lon="1.590559">
        <ele>926.8</ele>
        <time>2019-06-01T08:56:13Z</time>
      </trkpt>
      <trkpt lat="42.133949" lon="1.590586">
        <ele>928.3</ele>
        <time>2019-06-01T08:56:23Z</time>
      </trkpt>
      <trkpt lat="42.133977" lon="1.590572">
        <ele>928.3</ele>
        <time>2019-06-01T08:56:26Z</time>
      </trkpt>
      <trkpt lat="42.134028" lon="1.590604">
        <ele>928.3</ele>
        <time>2019-06-01T08:56:31Z</time>
      </trkpt>
      <trkpt lat="42.134058" lon="1.590623">
        <ele>927.8</ele>
        <time>2019-06-01T08:56:34Z</time>
      </trkpt>
      <trkpt lat="42.134078" lon="1.590646">
        <ele>927.8</ele>
        <time>2019-06-01T08:56:36Z</time>
      </trkpt>
      <trkpt lat="42.134234" lon="1.590666">
        <ele>927.8</ele>
        <time>2019-06-01T08:56:50Z</time>
      </trkpt>
      <trkpt lat="42.134295" lon="1.590664">
        <ele>927.8</ele>
        <time>2019-06-01T08:56:55Z</time>
      </trkpt>
      <trkpt lat="42.134490" lon="1.590696">
        <ele>927.8</ele>
        <time>2019-06-01T08:57:09Z</time>
      </trkpt>
      <trkpt lat="42.134664" lon="1.590789">
        <ele>927.8</ele>
        <time>2019-06-01T08:57:22Z</time>
      </trkpt>
      <trkpt lat="42.134838" lon="1.590860">
        <ele>927.8</ele>
        <time>2019-06-01T08:57:35Z</time>
      </trkpt>
      <trkpt lat="42.135003" lon="1.590955">
        <ele>927.8</ele>
        <time>2019-06-01T08:57:48Z</time>
      </trkpt>
      <trkpt lat="42.135040" lon="1.590974">
        <ele>927.8</ele>
        <time>2019-06-01T08:57:51Z</time>
      </trkpt>
      <trkpt lat="42.135120" lon="1.591020">
        <ele>927.8</ele>
        <time>2019-06-01T08:57:57Z</time>
      </trkpt>
      <trkpt lat="42.135237" lon="1.591009">
        <ele>927.8</ele>
        <time>2019-06-01T08:58:06Z</time>
      </trkpt>
      <trkpt lat="42.135296" lon="1.590999">
        <ele>927.8</ele>
        <time>2019-06-01T08:58:12Z</time>
      </trkpt>
      <trkpt lat="42.135351" lon="1.591041">
        <ele>928.3</ele>
        <time>2019-06-01T08:58:16Z</time>
      </trkpt>
      <trkpt lat="42.135516" lon="1.591095">
        <ele>927.8</ele>
        <time>2019-06-01T08:58:28Z</time>
      </trkpt>
      <trkpt lat="42.135531" lon="1.591071">
        <ele>927.8</ele>
        <time>2019-06-01T08:58:31Z</time>
      </trkpt>
      <trkpt lat="42.135643" lon="1.591095">
        <ele>927.3</ele>
        <time>2019-06-01T08:58:41Z</time>
      </trkpt>
      <trkpt lat="42.135679" lon="1.591123">
        <ele>927.8</ele>
        <time>2019-06-01T08:58:44Z</time>
      </trkpt>
      <trkpt lat="42.135731" lon="1.591112">
        <ele>927.8</ele>
        <time>2019-06-01T08:58:48Z</time>
      </trkpt>
      <trkpt lat="42.135785" lon="1.591180">
        <ele>926.8</ele>
        <time>2019-06-01T08:58:52Z</time>
      </trkpt>
      <trkpt lat="42.135831" lon="1.591203">
        <ele>927.3</ele>
        <time>2019-06-01T08:58:55Z</time>
      </trkpt>
      <trkpt lat="42.135907" lon="1.591295">
        <ele>926.4</ele>
        <time>2019-06-01T08:59:04Z</time>
      </trkpt>
      <trkpt lat="42.136035" lon="1.591512">
        <ele>926.4</ele>
        <time>2019-06-01T08:59:15Z</time>
      </trkpt>
      <trkpt lat="42.136058" lon="1.591570">
        <ele>925.9</ele>
        <time>2019-06-01T08:59:18Z</time>
      </trkpt>
      <trkpt lat="42.136023" lon="1.591644">
        <ele>925.4</ele>
        <time>2019-06-01T08:59:25Z</time>
      </trkpt>
      <trkpt lat="42.136024" lon="1.591748">
        <ele>924.9</ele>
        <time>2019-06-01T08:59:37Z</time>
      </trkpt>
      <trkpt lat="42.136034" lon="1.591787">
        <ele>924.9</ele>
        <time>2019-06-01T08:59:54Z</time>
      </trkpt>
      <trkpt lat="42.136033" lon="1.591808">
        <ele>924.0</ele>
        <time>2019-06-01T09:00:29Z</time>
      </trkpt>
      <trkpt lat="42.136028" lon="1.591817">
        <ele>924.5</ele>
        <time>2019-06-01T09:00:55Z</time>
      </trkpt>
      <trkpt lat="42.136017" lon="1.591819">
        <ele>924.9</ele>
        <time>2019-06-01T09:01:28Z</time>
      </trkpt>
      <trkpt lat="42.136014" lon="1.591817">
        <ele>924.9</ele>
        <time>2019-06-01T09:01:58Z</time>
      </trkpt>
      <trkpt lat="42.136011" lon="1.591819">
        <ele>924.0</ele>
        <time>2019-06-01T09:02:29Z</time>
      </trkpt>
      <trkpt lat="42.136016" lon="1.591815">
        <ele>924.0</ele>
        <time>2019-06-01T09:03:01Z</time>
      </trkpt>
      <trkpt lat="42.136011" lon="1.591819">
        <ele>926.8</ele>
        <time>2019-06-01T09:03:32Z</time>
      </trkpt>
      <trkpt lat="42.136009" lon="1.591824">
        <ele>924.5</ele>
        <time>2019-06-01T09:03:43Z</time>
      </trkpt>
    </trkseg>
  </trk>
</gpx>
